Darstellungsparameter: Aktuell verwendete Einstellungen:
Skalierung der Graphiken ... ?
xyx+y,   Skalierungsfaktor:      Skalierung: Modus: x, Faktor: 1
Darstellungszeitraum ... ?
Vom - - bis: - -   Zeitraum: 21.12.2013 - 20.06.2014
Min/Max/Avg-Anzeige ... ?
Zeige MMA aktuell
Zeige MMA Monat
Zeige MMA alles
Zeige --A aktuell
Zeige --A Monat
Zeige --A alles
Keine MMA-Anzeige
MMA:
Keine MMA-Graphiken
MMA-Basis: 21.12.2013 - 20.06.2014
Quicknavigation für Darstellung... ?
Tage:      1T, 2T, 3T, 5T -1T -2T -3T -5T +1T +2T +3T +5T
Wochen: 1W, 2W, 3W -1W -2W -3W +1W +2W +3W
Monate: 1M, 3M, 6M -1M -3M -6M +1M +3M +6M
Jahre:    1J, 3J, 5J, 10J -1J -3J -5J -10J +1J +3J +5J +10J
Nutze für die Darstellung ... ?
Originaldaten oder Mittelwerte auf ...
Stundenbasis Tagesbasis Wochenbasis
Monatsbasis Jahresbasis      Datenbasis: Original-Daten
Darstellen als:
Statistik (Auto) Statistik J:M      Darstellung:
Zur Graphik,    zurück zur Übersicht aller Sensoren.
 
Tabellarische Datenbersicht: ?
 
Sensor: Nr:Datum:Temp:Abs-Feuchte:Windchill:Wind:
Aussen-T/F 1 21-12-2013 00:00:00 5.2 C 5.92 g/m*3 3.82 C 6.4 km/h
2 21-12-2013 00:05:00 5.2 C 5.92 g/m*3 5.2 C 4.8 km/h
3 21-12-2013 00:10:00 5.1 C 5.88 g/m*3 5.1 C 4.8 km/h
4 21-12-2013 00:15:00 5.2 C 5.85 g/m*3 2.96 C 9.7 km/h
5 21-12-2013 00:20:00 5.3 C 5.89 g/m*3 3.08 C 9.7 km/h
6 21-12-2013 00:25:00 5.2 C 5.85 g/m*3 5.2 C 4.8 km/h
7 21-12-2013 00:30:00 4.9 C 5.74 g/m*3 4.9 C 4.8 km/h
8 21-12-2013 00:35:00 4.6 C 5.76 g/m*3 4.6 C 4.8 km/h
9 21-12-2013 00:40:00 4.5 C 5.78 g/m*3 4.5 C 4.8 km/h
10 21-12-2013 00:45:00 4.4 C 5.81 g/m*3 4.4 C 1.6 km/h
11 21-12-2013 00:50:00 4.4 C 5.75 g/m*3 2.01 C 9.7 km/h
12 21-12-2013 00:55:00 4.7 C 5.86 g/m*3 1.46 C 14.5 km/h
13 21-12-2013 01:00:00 4.8 C 5.83 g/m*3 4.8 C 4.8 km/h
14 21-12-2013 01:05:00 4.8 C 5.83 g/m*3 4.8 C 3.2 km/h
15 21-12-2013 01:10:00 4.9 C 5.87 g/m*3 4.9 C 4.8 km/h
16 21-12-2013 01:15:00 5 C 5.84 g/m*3 3.59 C 6.4 km/h
17 21-12-2013 01:20:00 5.2 C 5.92 g/m*3 5.2 C 4.8 km/h
18 21-12-2013 01:25:00 5.2 C 5.92 g/m*3 5.2 C 3.2 km/h
19 21-12-2013 01:30:00 5.2 C 5.92 g/m*3 3.82 C 6.4 km/h
20 21-12-2013 01:35:00 5.3 C 5.89 g/m*3 2.75 C 11.3 km/h
21 21-12-2013 01:40:00 5.3 C 5.89 g/m*3 3.94 C 6.4 km/h
22 21-12-2013 01:45:00 5.3 C 5.89 g/m*3 5.3 C 4.8 km/h
23 21-12-2013 01:50:00 5.3 C 5.89 g/m*3 3.94 C 6.4 km/h
24 21-12-2013 01:55:00 5.2 C 5.85 g/m*3 2.96 C 9.7 km/h
25 21-12-2013 02:00:00 5.1 C 5.88 g/m*3 3.71 C 6.4 km/h
Sensor: Nr:Datum:Temp:Abs-Feuchte:Windchill:Wind:
Aussen-T/F 26 21-12-2013 02:05:00 5 C 5.84 g/m*3 5 C 4.8 km/h
27 21-12-2013 02:10:00 4.9 C 5.81 g/m*3 4.9 C 4.8 km/h
28 21-12-2013 02:15:00 4.8 C 5.77 g/m*3 4.8 C 4.8 km/h
29 21-12-2013 02:20:00 4.7 C 5.73 g/m*3 4.7 C 4.8 km/h
30 21-12-2013 02:25:00 4.7 C 5.73 g/m*3 3.25 C 6.4 km/h
31 21-12-2013 02:30:00 4.7 C 5.73 g/m*3 4.7 C 4.8 km/h
32 21-12-2013 02:35:00 4.8 C 5.77 g/m*3 4.8 C 3.2 km/h
33 21-12-2013 02:40:00 4.6 C 5.69 g/m*3 4.6 C 3.2 km/h
34 21-12-2013 02:45:00 4.3 C 5.64 g/m*3 4.3 C 4.8 km/h
35 21-12-2013 02:50:00 4.1 C 5.63 g/m*3 4.1 C 3.2 km/h
36 21-12-2013 02:55:00 3.8 C 5.58 g/m*3 3.8 C 3.2 km/h
37 21-12-2013 03:00:00 3.9 C 5.62 g/m*3 3.9 C 3.2 km/h
38 21-12-2013 03:05:00 3.8 C 5.58 g/m*3 3.8 C 4.8 km/h
39 21-12-2013 03:10:00 3.8 C 5.58 g/m*3 3.8 C 1.6 km/h
40 21-12-2013 03:15:00 3.6 C 5.51 g/m*3 3.6 C 1.6 km/h
41 21-12-2013 03:20:00 3.4 C 5.5 g/m*3 3.4 C 3.2 km/h
42 21-12-2013 03:25:00 3.3 C 5.46 g/m*3 3.3 C 4.8 km/h
43 21-12-2013 03:30:00 3.1 C 5.45 g/m*3 3.1 C 0 km/h
44 21-12-2013 03:35:00 3 C 5.41 g/m*3 3 C 3.2 km/h
45 21-12-2013 03:40:00 2.9 C 5.43 g/m*3 2.9 C 3.2 km/h
46 21-12-2013 03:45:00 2.9 C 5.43 g/m*3 2.9 C 3.2 km/h
47 21-12-2013 03:50:00 2.9 C 5.43 g/m*3 2.9 C 1.6 km/h
48 21-12-2013 03:55:00 2.8 C 5.4 g/m*3 2.8 C 3.2 km/h
49 21-12-2013 04:00:00 2.8 C 5.4 g/m*3 2.8 C 3.2 km/h
50 21-12-2013 04:05:00 2.7 C 5.36 g/m*3 2.7 C 3.2 km/h
Sensor: Nr:Datum:Temp:Abs-Feuchte:Windchill:Wind:
Aussen-T/F 51 21-12-2013 04:10:00 2.7 C 5.42 g/m*3 2.7 C 1.6 km/h
52 21-12-2013 04:15:00 2.7 C 5.42 g/m*3 2.7 C 4.8 km/h
53 21-12-2013 04:20:00 2.6 C 5.38 g/m*3 2.6 C 3.2 km/h
54 21-12-2013 04:25:00 2.5 C 5.35 g/m*3 2.5 C 3.2 km/h
55 21-12-2013 04:30:00 2.5 C 5.35 g/m*3 2.5 C 4.8 km/h
56 21-12-2013 04:35:00 2.6 C 5.44 g/m*3 2.6 C 4.8 km/h
57 21-12-2013 04:40:00 2.6 C 5.38 g/m*3 2.6 C 3.2 km/h
58 21-12-2013 04:45:00 2.7 C 5.42 g/m*3 2.7 C 4.8 km/h
59 21-12-2013 04:50:00 2.8 C 5.46 g/m*3 2.8 C 1.6 km/h
60 21-12-2013 04:55:00 2.9 C 5.49 g/m*3 2.9 C 1.6 km/h
61 21-12-2013 05:00:00 2.9 C 5.49 g/m*3 2.9 C 1.6 km/h
62 21-12-2013 05:05:00 2.8 C 5.4 g/m*3 2.8 C 1.6 km/h
63 21-12-2013 05:10:00 2.8 C 5.46 g/m*3 2.8 C 3.2 km/h
64 21-12-2013 05:15:00 2.7 C 5.42 g/m*3 2.7 C 1.6 km/h
65 21-12-2013 05:20:00 2.7 C 5.42 g/m*3 2.7 C 0 km/h
66 21-12-2013 05:25:00 2.7 C 5.42 g/m*3 2.7 C 0 km/h
67 21-12-2013 05:30:00 2.7 C 5.42 g/m*3 2.7 C 1.6 km/h
68 21-12-2013 05:35:00 2.7 C 5.42 g/m*3 2.7 C 0 km/h
69 21-12-2013 05:40:00 2.7 C 5.42 g/m*3 2.7 C 0 km/h
70 21-12-2013 05:45:00 2.8 C 5.46 g/m*3 2.8 C 0 km/h
71 21-12-2013 05:50:00 2.8 C 5.46 g/m*3 2.8 C 3.2 km/h
72 21-12-2013 05:55:00 2.9 C 5.49 g/m*3 2.9 C 3.2 km/h
73 21-12-2013 06:00:00 3 C 5.47 g/m*3 3 C 1.6 km/h
74 21-12-2013 06:05:00 3.1 C 5.51 g/m*3 3.1 C 3.2 km/h
75 21-12-2013 06:10:00 3.1 C 5.51 g/m*3 3.1 C 0 km/h
Sensor: Nr:Datum:Temp:Abs-Feuchte:Windchill:Wind:
Aussen-T/F 76 21-12-2013 06:15:00 3.2 C 5.54 g/m*3 3.2 C 0 km/h
77 21-12-2013 06:20:00 3.2 C 5.54 g/m*3 3.2 C 3.2 km/h
78 21-12-2013 06:25:00 3.2 C 5.54 g/m*3 3.2 C 0 km/h
79 21-12-2013 06:30:00 3.2 C 5.54 g/m*3 3.2 C 0 km/h
80 21-12-2013 06:35:00 3.3 C 5.58 g/m*3 3.3 C 0 km/h
81 21-12-2013 06:40:00 3.3 C 5.58 g/m*3 3.3 C 0 km/h
82 21-12-2013 06:45:00 3.4 C 5.62 g/m*3 3.4 C 3.2 km/h
83 21-12-2013 06:50:00 3.6 C 5.63 g/m*3 3.6 C 3.2 km/h
84 21-12-2013 06:55:00 3.8 C 5.65 g/m*3 3.8 C 4.8 km/h
85 21-12-2013 07:00:00 3.9 C 5.62 g/m*3 3.9 C 3.2 km/h
86 21-12-2013 07:05:00 4.1 C 5.63 g/m*3 4.1 C 3.2 km/h
87 21-12-2013 07:10:00 4.2 C 5.67 g/m*3 4.2 C 3.2 km/h
88 21-12-2013 07:15:00 4.2 C 5.61 g/m*3 4.2 C 3.2 km/h
89 21-12-2013 07:20:00 4.2 C 5.67 g/m*3 2.17 C 8.1 km/h
90 21-12-2013 07:25:00 4.2 C 5.61 g/m*3 4.2 C 4.8 km/h
91 21-12-2013 07:30:00 4.1 C 5.63 g/m*3 4.1 C 1.6 km/h
92 21-12-2013 07:35:00 3.9 C 5.56 g/m*3 3.9 C 0 km/h
93 21-12-2013 07:40:00 3.7 C 5.48 g/m*3 3.7 C 0 km/h
94 21-12-2013 07:45:00 3.6 C 5.51 g/m*3 3.6 C 1.6 km/h
95 21-12-2013 07:50:00 3.5 C 5.53 g/m*3 3.5 C 0 km/h
96 21-12-2013 07:55:00 3.5 C 5.53 g/m*3 3.5 C 1.6 km/h
97 21-12-2013 08:00:00 3.6 C 5.63 g/m*3 3.6 C 1.6 km/h
98 21-12-2013 08:05:00 3.5 C 5.6 g/m*3 3.5 C 0 km/h
99 21-12-2013 08:10:00 3.6 C 5.63 g/m*3 3.6 C 0 km/h
100 21-12-2013 08:15:00 3.6 C 5.57 g/m*3 3.6 C 3.2 km/h
Sensor: Nr:Datum:Temp:Abs-Feuchte:Windchill:Wind:
Aussen-T/F 101 21-12-2013 08:20:00 3.7 C 5.61 g/m*3 3.7 C 0 km/h
102 21-12-2013 08:25:00 3.7 C 5.55 g/m*3 3.7 C 0 km/h
103 21-12-2013 08:30:00 3.7 C 5.55 g/m*3 3.7 C 0 km/h
104 21-12-2013 08:35:00 3.5 C 5.47 g/m*3 3.5 C 0 km/h
105 21-12-2013 08:40:00 3.4 C 5.44 g/m*3 3.4 C 1.6 km/h
106 21-12-2013 08:45:00 3.2 C 5.42 g/m*3 3.2 C 0 km/h
107 21-12-2013 08:50:00 3.1 C 5.39 g/m*3 3.1 C 1.6 km/h
108 21-12-2013 08:55:00 2.9 C 5.32 g/m*3 2.9 C 1.6 km/h
109 21-12-2013 09:00:00 2.8 C 5.34 g/m*3 2.8 C 1.6 km/h
110 21-12-2013 09:05:00 2.8 C 5.34 g/m*3 2.8 C 0 km/h
111 21-12-2013 09:10:00 2.7 C 5.3 g/m*3 2.7 C 3.2 km/h
112 21-12-2013 09:15:00 2.7 C 5.36 g/m*3 2.7 C 1.6 km/h
113 21-12-2013 09:20:00 2.7 C 5.36 g/m*3 2.7 C 0 km/h
114 21-12-2013 09:25:00 2.7 C 5.36 g/m*3 2.7 C 1.6 km/h
115 21-12-2013 09:30:00 2.8 C 5.46 g/m*3 2.8 C 0 km/h
116 21-12-2013 09:35:00 2.9 C 5.49 g/m*3 2.9 C 0 km/h
117 21-12-2013 09:40:00 3.1 C 5.57 g/m*3 3.1 C 0 km/h
118 21-12-2013 09:45:00 3.2 C 5.6 g/m*3 3.2 C 0 km/h
119 21-12-2013 09:50:00 3.3 C 5.64 g/m*3 3.3 C 0 km/h
120 21-12-2013 09:55:00 3.5 C 5.66 g/m*3 3.5 C 1.6 km/h
121 21-12-2013 10:00:00 3.6 C 5.63 g/m*3 3.6 C 0 km/h
122 21-12-2013 10:05:00 3.7 C 5.61 g/m*3 3.7 C 0 km/h
123 21-12-2013 10:10:00 3.9 C 5.62 g/m*3 3.9 C 0 km/h
124 21-12-2013 10:15:00 4.1 C 5.7 g/m*3 4.1 C 0 km/h
125 21-12-2013 10:20:00 4.2 C 5.73 g/m*3 4.2 C 0 km/h
Sensor: Nr:Datum:Temp:Abs-Feuchte:Windchill:Wind:
Aussen-T/F 126 21-12-2013 10:25:00 4.4 C 5.75 g/m*3 4.4 C 3.2 km/h
127 21-12-2013 10:30:00 4.7 C 5.73 g/m*3 4.7 C 1.6 km/h
128 21-12-2013 10:35:00 4.8 C 5.77 g/m*3 4.8 C 1.6 km/h
129 21-12-2013 10:40:00 5 C 5.71 g/m*3 5 C 4.8 km/h
130 21-12-2013 10:45:00 5.1 C 5.75 g/m*3 5.1 C 0 km/h
131 21-12-2013 10:50:00 5.2 C 5.71 g/m*3 5.2 C 1.6 km/h
132 21-12-2013 10:55:00 5.3 C 5.82 g/m*3 5.3 C 1.6 km/h
133 21-12-2013 11:00:00 5.4 C 5.86 g/m*3 5.4 C 1.6 km/h
134 21-12-2013 11:05:00 5.6 C 5.87 g/m*3 5.6 C 3.2 km/h
135 21-12-2013 11:10:00 5.7 C 5.91 g/m*3 5.7 C 1.6 km/h
136 21-12-2013 11:15:00 5.8 C 5.95 g/m*3 5.8 C 1.6 km/h
137 21-12-2013 11:20:00 5.9 C 5.84 g/m*3 5.9 C 1.6 km/h
138 21-12-2013 11:25:00 5.9 C 5.7 g/m*3 5.9 C 3.2 km/h
139 21-12-2013 11:30:00 6.1 C 5.92 g/m*3 6.1 C 3.2 km/h
140 21-12-2013 11:35:00 6.2 C 5.81 g/m*3 6.2 C 4.8 km/h
141 21-12-2013 11:40:00 6.2 C 5.74 g/m*3 6.2 C 4.8 km/h
142 21-12-2013 11:45:00 6.3 C 5.7 g/m*3 6.3 C 1.6 km/h
143 21-12-2013 11:50:00 6.4 C 5.74 g/m*3 5.21 C 6.4 km/h
144 21-12-2013 11:55:00 6.5 C 5.7 g/m*3 5.33 C 6.4 km/h
145 21-12-2013 12:00:00 6.6 C 5.66 g/m*3 5.44 C 6.4 km/h
146 21-12-2013 12:05:00 6.7 C 5.77 g/m*3 6.7 C 3.2 km/h
147 21-12-2013 12:10:00 6.7 C 5.62 g/m*3 5.56 C 6.4 km/h
148 21-12-2013 12:15:00 6.8 C 5.58 g/m*3 4.87 C 9.7 km/h
149 21-12-2013 12:20:00 6.9 C 5.62 g/m*3 4.99 C 9.7 km/h
150 21-12-2013 12:25:00 6.9 C 5.54 g/m*3 4.99 C 9.7 km/h
Sensor: Nr:Datum:Temp:Abs-Feuchte:Windchill:Wind:
Aussen-T/F 151 21-12-2013 12:30:00 7 C 5.5 g/m*3 7 C 4.8 km/h
152 21-12-2013 12:35:00 7.1 C 5.54 g/m*3 4.65 C 12.9 km/h
153 21-12-2013 12:40:00 7.1 C 5.54 g/m*3 6.02 C 6.4 km/h
154 21-12-2013 12:45:00 7.2 C 5.49 g/m*3 5.35 C 9.7 km/h
155 21-12-2013 12:50:00 7.2 C 5.42 g/m*3 4.53 C 14.5 km/h
156 21-12-2013 12:55:00 7.2 C 5.49 g/m*3 6.13 C 6.4 km/h
157 21-12-2013 13:00:00 7.2 C 5.42 g/m*3 5.35 C 9.7 km/h
158 21-12-2013 13:05:00 7.2 C 5.49 g/m*3 5.69 C 8.1 km/h
159 21-12-2013 13:10:00 7.2 C 5.49 g/m*3 7.2 C 3.2 km/h
160 21-12-2013 13:15:00 7.3 C 5.61 g/m*3 7.3 C 3.2 km/h
161 21-12-2013 13:20:00 7.2 C 5.42 g/m*3 5.04 C 11.3 km/h
162 21-12-2013 13:25:00 7.2 C 5.42 g/m*3 6.13 C 6.4 km/h
163 21-12-2013 13:30:00 7.2 C 5.42 g/m*3 7.2 C 3.2 km/h
164 21-12-2013 13:35:00 7.3 C 5.69 g/m*3 7.3 C 1.6 km/h
165 21-12-2013 13:40:00 7.2 C 5.49 g/m*3 7.2 C 3.2 km/h
166 21-12-2013 13:45:00 7.2 C 5.49 g/m*3 7.2 C 3.2 km/h
167 21-12-2013 13:50:00 7.2 C 5.57 g/m*3 7.2 C 4.8 km/h
168 21-12-2013 13:55:00 7.2 C 5.57 g/m*3 7.2 C 3.2 km/h
169 21-12-2013 14:00:00 7.1 C 5.69 g/m*3 7.1 C 1.6 km/h
170 21-12-2013 14:05:00 7.1 C 5.54 g/m*3 7.1 C 0 km/h
171 21-12-2013 14:10:00 7.1 C 5.62 g/m*3 7.1 C 1.6 km/h
172 21-12-2013 14:15:00 7 C 5.66 g/m*3 7 C 0 km/h
173 21-12-2013 14:20:00 7 C 5.58 g/m*3 7 C 3.2 km/h
174 21-12-2013 14:25:00 6.9 C 5.47 g/m*3 6.9 C 3.2 km/h
175 21-12-2013 14:30:00 6.9 C 5.62 g/m*3 6.9 C 3.2 km/h
Sensor: Nr:Datum:Temp:Abs-Feuchte:Windchill:Wind:
Aussen-T/F 176 21-12-2013 14:35:00 6.8 C 5.51 g/m*3 6.8 C 1.6 km/h
177 21-12-2013 14:40:00 6.8 C 5.51 g/m*3 6.8 C 1.6 km/h
178 21-12-2013 14:45:00 6.8 C 5.66 g/m*3 6.8 C 3.2 km/h
179 21-12-2013 14:50:00 6.7 C 5.77 g/m*3 6.7 C 0 km/h
180 21-12-2013 14:55:00 6.6 C 5.44 g/m*3 6.6 C 3.2 km/h
181 21-12-2013 15:00:00 6.6 C 5.51 g/m*3 6.6 C 3.2 km/h
182 21-12-2013 15:05:00 6.5 C 5.55 g/m*3 6.5 C 0 km/h
183 21-12-2013 15:10:00 6.4 C 5.66 g/m*3 6.4 C 0 km/h
184 21-12-2013 15:15:00 6.4 C 5.66 g/m*3 6.4 C 1.6 km/h
185 21-12-2013 15:20:00 6.3 C 5.33 g/m*3 6.3 C 1.6 km/h
186 21-12-2013 15:25:00 6.3 C 5.4 g/m*3 6.3 C 3.2 km/h
187 21-12-2013 15:30:00 6.3 C 5.33 g/m*3 6.3 C 3.2 km/h
188 21-12-2013 15:35:00 6.3 C 5.55 g/m*3 6.3 C 0 km/h
189 21-12-2013 15:40:00 6.2 C 5.37 g/m*3 6.2 C 1.6 km/h
190 21-12-2013 15:45:00 6.2 C 5.29 g/m*3 6.2 C 4.8 km/h
191 21-12-2013 15:50:00 6.2 C 5.37 g/m*3 6.2 C 3.2 km/h
192 21-12-2013 15:55:00 6.1 C 5.33 g/m*3 6.1 C 3.2 km/h
193 21-12-2013 16:00:00 6.1 C 5.26 g/m*3 6.1 C 3.2 km/h
194 21-12-2013 16:05:00 6.1 C 5.48 g/m*3 6.1 C 3.2 km/h
195 21-12-2013 16:10:00 5.9 C 5.34 g/m*3 5.9 C 1.6 km/h
196 21-12-2013 16:15:00 5.8 C 5.3 g/m*3 5.8 C 0 km/h
197 21-12-2013 16:20:00 5.7 C 5.41 g/m*3 5.7 C 1.6 km/h
198 21-12-2013 16:25:00 5.6 C 5.37 g/m*3 5.6 C 0 km/h
199 21-12-2013 16:30:00 5.5 C 5.41 g/m*3 4.17 C 6.4 km/h
200 21-12-2013 16:35:00 5.5 C 5.2 g/m*3 5.5 C 4.8 km/h
Sensor: Nr:Datum:Temp:Abs-Feuchte:Windchill:Wind:
Aussen-T/F 201 21-12-2013 16:40:00 5.6 C 5.3 g/m*3 5.6 C 0 km/h
202 21-12-2013 16:45:00 5.5 C 5.34 g/m*3 5.5 C 0 km/h
203 21-12-2013 16:50:00 5.3 C 5.2 g/m*3 5.3 C 1.6 km/h
204 21-12-2013 16:55:00 5.3 C 5.27 g/m*3 5.3 C 3.2 km/h
205 21-12-2013 17:00:00 5.3 C 5.41 g/m*3 5.3 C 0 km/h
206 21-12-2013 17:05:00 5.1 C 5.4 g/m*3 5.1 C 0 km/h
207 21-12-2013 17:10:00 5.1 C 5.27 g/m*3 5.1 C 1.6 km/h
208 21-12-2013 17:15:00 5.1 C 5.2 g/m*3 5.1 C 3.2 km/h
209 21-12-2013 17:20:00 5.1 C 5.27 g/m*3 5.1 C 3.2 km/h
210 21-12-2013 17:25:00 5.2 C 5.44 g/m*3 5.2 C 4.8 km/h
211 21-12-2013 17:30:00 5.1 C 5.34 g/m*3 5.1 C 1.6 km/h
212 21-12-2013 17:35:00 5 C 5.37 g/m*3 5 C 0 km/h
213 21-12-2013 17:40:00 4.9 C 5.2 g/m*3 4.9 C 3.2 km/h
214 21-12-2013 17:45:00 4.8 C 5.23 g/m*3 4.8 C 0 km/h
215 21-12-2013 17:50:00 4.8 C 5.16 g/m*3 4.8 C 3.2 km/h
216 21-12-2013 17:55:00 4.8 C 5.3 g/m*3 4.8 C 3.2 km/h
217 21-12-2013 18:00:00 4.8 C 5.03 g/m*3 4.8 C 1.6 km/h
218 21-12-2013 18:05:00 4.9 C 5 g/m*3 4.9 C 4.8 km/h
219 21-12-2013 18:10:00 5 C 5.23 g/m*3 5 C 1.6 km/h
220 21-12-2013 18:15:00 4.9 C 5.33 g/m*3 4.9 C 3.2 km/h
221 21-12-2013 18:20:00 4.8 C 5.16 g/m*3 4.8 C 1.6 km/h
222 21-12-2013 18:25:00 4.8 C 5.3 g/m*3 4.8 C 3.2 km/h
223 21-12-2013 18:30:00 4.8 C 5.1 g/m*3 4.8 C 3.2 km/h
224 21-12-2013 18:35:00 4.8 C 5.16 g/m*3 4.8 C 3.2 km/h
225 21-12-2013 18:40:00 4.9 C 5.06 g/m*3 4.9 C 0 km/h
Sensor: Nr:Datum:Temp:Abs-Feuchte:Windchill:Wind:
Aussen-T/F 226 21-12-2013 18:45:00 4.9 C 5.13 g/m*3 4.9 C 0 km/h
227 21-12-2013 18:50:00 4.9 C 5.2 g/m*3 4.9 C 1.6 km/h
228 21-12-2013 18:55:00 4.9 C 5.06 g/m*3 4.9 C 1.6 km/h
229 21-12-2013 19:00:00 4.9 C 5.06 g/m*3 4.9 C 3.2 km/h
230 21-12-2013 19:05:00 4.9 C 5.27 g/m*3 4.9 C 1.6 km/h
231 21-12-2013 19:10:00 4.9 C 5.13 g/m*3 3.48 C 6.4 km/h
232 21-12-2013 19:15:00 4.9 C 5.13 g/m*3 4.9 C 3.2 km/h
233 21-12-2013 19:20:00 4.8 C 5.3 g/m*3 4.8 C 1.6 km/h
234 21-12-2013 19:25:00 4.8 C 5.23 g/m*3 4.8 C 1.6 km/h
235 21-12-2013 19:30:00 4.7 C 5.33 g/m*3 4.7 C 0 km/h
236 21-12-2013 19:35:00 4.7 C 5.13 g/m*3 4.7 C 3.2 km/h
237 21-12-2013 19:40:00 4.8 C 5.16 g/m*3 4.8 C 1.6 km/h
238 21-12-2013 19:45:00 4.8 C 5.23 g/m*3 4.8 C 3.2 km/h
239 21-12-2013 19:50:00 4.8 C 5.16 g/m*3 4.8 C 3.2 km/h
240 21-12-2013 19:55:00 4.8 C 5.23 g/m*3 4.8 C 3.2 km/h
241 21-12-2013 20:00:00 4.8 C 5.23 g/m*3 4.8 C 3.2 km/h
242 21-12-2013 20:05:00 4.8 C 5.1 g/m*3 4.8 C 4.8 km/h
243 21-12-2013 20:10:00 4.9 C 5.2 g/m*3 4.9 C 3.2 km/h
244 21-12-2013 20:15:00 5 C 5.16 g/m*3 3.11 C 8.1 km/h
245 21-12-2013 20:20:00 5.1 C 5.2 g/m*3 2.51 C 11.3 km/h
246 21-12-2013 20:25:00 5.2 C 5.3 g/m*3 5.2 C 4.8 km/h
247 21-12-2013 20:30:00 5.2 C 5.23 g/m*3 5.2 C 4.8 km/h
248 21-12-2013 20:35:00 5.2 C 5.23 g/m*3 5.2 C 3.2 km/h
249 21-12-2013 20:40:00 5.2 C 5.23 g/m*3 5.2 C 3.2 km/h
250 21-12-2013 20:45:00 5.1 C 5.34 g/m*3 5.1 C 0 km/h
Sensor: Nr:Datum:Temp:Abs-Feuchte:Windchill:Wind:
Aussen-T/F 251 21-12-2013 20:50:00 4.9 C 5.4 g/m*3 4.9 C 0 km/h
252 21-12-2013 20:55:00 4.7 C 5.4 g/m*3 4.7 C 1.6 km/h
253 21-12-2013 21:00:00 4.7 C 5.33 g/m*3 4.7 C 0 km/h
254 21-12-2013 21:05:00 4.7 C 5.33 g/m*3 4.7 C 4.8 km/h
255 21-12-2013 21:10:00 4.7 C 5.4 g/m*3 4.7 C 1.6 km/h
256 21-12-2013 21:15:00 4.7 C 5.4 g/m*3 4.7 C 1.6 km/h
257 21-12-2013 21:20:00 4.7 C 5.33 g/m*3 4.7 C 1.6 km/h
258 21-12-2013 21:25:00 4.7 C 5.26 g/m*3 4.7 C 4.8 km/h
259 21-12-2013 21:30:00 4.7 C 5.26 g/m*3 4.7 C 1.6 km/h
260 21-12-2013 21:35:00 4.8 C 5.23 g/m*3 4.8 C 3.2 km/h
261 21-12-2013 21:40:00 4.9 C 5.2 g/m*3 4.9 C 4.8 km/h
262 21-12-2013 21:45:00 5 C 5.37 g/m*3 5 C 3.2 km/h
263 21-12-2013 21:50:00 4.9 C 5.27 g/m*3 4.9 C 4.8 km/h
264 21-12-2013 21:55:00 4.9 C 5.33 g/m*3 4.9 C 1.6 km/h
265 21-12-2013 22:00:00 4.8 C 5.3 g/m*3 4.8 C 0 km/h
266 21-12-2013 22:05:00 4.8 C 5.3 g/m*3 4.8 C 1.6 km/h
267 21-12-2013 22:10:00 4.7 C 5.4 g/m*3 4.7 C 3.2 km/h
268 21-12-2013 22:15:00 4.6 C 5.29 g/m*3 4.6 C 4.8 km/h
269 21-12-2013 22:20:00 4.6 C 5.36 g/m*3 4.6 C 1.6 km/h
270 21-12-2013 22:25:00 4.6 C 5.36 g/m*3 4.6 C 4.8 km/h
271 21-12-2013 22:30:00 4.6 C 5.1 g/m*3 4.6 C 1.6 km/h
272 21-12-2013 22:35:00 4.8 C 5.23 g/m*3 4.8 C 3.2 km/h
273 21-12-2013 22:40:00 4.8 C 5.23 g/m*3 4.8 C 3.2 km/h
274 21-12-2013 22:45:00 4.9 C 5.06 g/m*3 4.9 C 4.8 km/h
275 21-12-2013 22:50:00 5 C 5.1 g/m*3 5 C 3.2 km/h
Sensor: Nr:Datum:Temp:Abs-Feuchte:Windchill:Wind:
Aussen-T/F 276 21-12-2013 22:55:00 5.3 C 4.99 g/m*3 5.3 C 4.8 km/h
277 21-12-2013 23:00:00 5.5 C 5.2 g/m*3 5.5 C 4.8 km/h
278 21-12-2013 23:05:00 5.3 C 5.27 g/m*3 5.3 C 3.2 km/h
279 21-12-2013 23:10:00 5.3 C 5.13 g/m*3 5.3 C 4.8 km/h
280 21-12-2013 23:15:00 5.4 C 4.95 g/m*3 5.4 C 4.8 km/h
281 21-12-2013 23:20:00 5.6 C 5.16 g/m*3 3.81 C 8.1 km/h
282 21-12-2013 23:25:00 5.8 C 4.73 g/m*3 4.52 C 6.4 km/h
283 21-12-2013 23:30:00 5.8 C 4.94 g/m*3 5.8 C 3.2 km/h
284 21-12-2013 23:35:00 6 C 4.57 g/m*3 6 C 3.2 km/h
285 21-12-2013 23:40:00 6.2 C 4.93 g/m*3 6.2 C 3.2 km/h
286 21-12-2013 23:45:00 6.1 C 4.82 g/m*3 6.1 C 3.2 km/h
287 21-12-2013 23:50:00 5.9 C 5.12 g/m*3 5.9 C 4.8 km/h
288 21-12-2013 23:55:00 5.8 C 5.01 g/m*3 5.8 C 3.2 km/h
289 22-12-2013 00:00:00 5.7 C 4.84 g/m*3 5.7 C 3.2 km/h
290 22-12-2013 00:05:00 5.7 C 4.7 g/m*3 5.7 C 3.2 km/h
291 22-12-2013 00:10:00 6 C 5.01 g/m*3 6 C 4.8 km/h
292 22-12-2013 00:15:00 6.1 C 4.97 g/m*3 6.1 C 3.2 km/h
293 22-12-2013 00:20:00 6.2 C 5.15 g/m*3 4.98 C 6.4 km/h
294 22-12-2013 00:25:00 6.1 C 4.46 g/m*3 6.1 C 4.8 km/h
295 22-12-2013 00:30:00 6.4 C 4.25 g/m*3 4.39 C 9.7 km/h
296 22-12-2013 00:35:00 6.6 C 4.45 g/m*3 5.44 C 6.4 km/h
297 22-12-2013 00:40:00 6.8 C 4.51 g/m*3 5.67 C 6.4 km/h
298 22-12-2013 00:45:00 6.8 C 4.36 g/m*3 6.8 C 3.2 km/h
299 22-12-2013 00:50:00 6.9 C 3.85 g/m*3 4.16 C 14.5 km/h
300 22-12-2013 00:55:00 7.4 C 4.21 g/m*3 4.78 C 14.5 km/h
Sensor: Nr:Datum:Temp:Abs-Feuchte:Windchill:Wind:
Aussen-T/F 301 22-12-2013 01:00:00 7.3 C 4.27 g/m*3 6.25 C 6.4 km/h
302 22-12-2013 01:05:00 7.2 C 4.32 g/m*3 5.35 C 9.7 km/h
303 22-12-2013 01:10:00 7.2 C 4.32 g/m*3 6.13 C 6.4 km/h
304 22-12-2013 01:15:00 7.2 C 4.47 g/m*3 7.2 C 1.6 km/h
305 22-12-2013 01:20:00 7.2 C 4.4 g/m*3 7.2 C 3.2 km/h
306 22-12-2013 01:25:00 7.3 C 4.03 g/m*3 5.81 C 8.1 km/h
307 22-12-2013 01:30:00 7.6 C 4.27 g/m*3 7.6 C 4.8 km/h
308 22-12-2013 01:35:00 7.4 C 4.61 g/m*3 7.4 C 3.2 km/h
309 22-12-2013 01:40:00 7.3 C 4.35 g/m*3 7.3 C 3.2 km/h
310 22-12-2013 01:45:00 7.2 C 4.24 g/m*3 7.2 C 3.2 km/h
311 22-12-2013 01:50:00 7.3 C 4.35 g/m*3 6.25 C 6.4 km/h
312 22-12-2013 01:55:00 7.4 C 4.14 g/m*3 6.37 C 6.4 km/h
313 22-12-2013 02:00:00 7.7 C 4.14 g/m*3 5.65 C 11.3 km/h
314 22-12-2013 02:05:00 7.8 C 4.16 g/m*3 7.8 C 4.8 km/h
315 22-12-2013 02:10:00 7.7 C 4.95 g/m*3 6.28 C 8.1 km/h
316 22-12-2013 02:15:00 7.4 C 4.37 g/m*3 7.4 C 4.8 km/h
317 22-12-2013 02:20:00 7.4 C 4.77 g/m*3 7.4 C 3.2 km/h
318 22-12-2013 02:25:00 7.3 C 4.9 g/m*3 7.3 C 3.2 km/h
319 22-12-2013 02:30:00 7.3 C 5.14 g/m*3 7.3 C 1.6 km/h
320 22-12-2013 02:35:00 7.2 C 5.34 g/m*3 7.2 C 4.8 km/h
321 22-12-2013 02:40:00 7 C 5.35 g/m*3 7 C 3.2 km/h
322 22-12-2013 02:45:00 7.1 C 5.07 g/m*3 7.1 C 4.8 km/h
323 22-12-2013 02:50:00 7.3 C 5.21 g/m*3 5.16 C 11.3 km/h
324 22-12-2013 02:55:00 7.9 C 5.34 g/m*3 4.8 C 19.3 km/h
325 22-12-2013 03:00:00 8.3 C 5.31 g/m*3 5.31 C 19.3 km/h
Sensor: Nr:Datum:Temp:Abs-Feuchte:Windchill:Wind:
Aussen-T/F 326 22-12-2013 03:05:00 8.5 C 5.46 g/m*3 5.73 C 17.7 km/h
327 22-12-2013 03:10:00 8.6 C 5.59 g/m*3 6.05 C 16.1 km/h
328 22-12-2013 03:15:00 8.5 C 5.64 g/m*3 6.36 C 12.9 km/h
329 22-12-2013 03:20:00 8.4 C 5.68 g/m*3 6.24 C 12.9 km/h
330 22-12-2013 03:25:00 8.3 C 5.73 g/m*3 4.84 C 24.1 km/h
331 22-12-2013 03:30:00 8.3 C 5.82 g/m*3 5.68 C 16.1 km/h
332 22-12-2013 03:35:00 8.3 C 5.9 g/m*3 5.31 C 19.3 km/h
333 22-12-2013 03:40:00 8.3 C 5.98 g/m*3 5.89 C 14.5 km/h
334 22-12-2013 03:45:00 8.3 C 6.07 g/m*3 6.37 C 11.3 km/h
335 22-12-2013 03:50:00 8.2 C 6.03 g/m*3 4.57 C 25.7 km/h
336 22-12-2013 03:55:00 8.2 C 6.11 g/m*3 4.18 C 30.6 km/h
337 22-12-2013 04:00:00 8.3 C 6.15 g/m*3 4.31 C 30.6 km/h
338 22-12-2013 04:05:00 8.2 C 6.11 g/m*3 4.57 C 25.7 km/h
339 22-12-2013 04:10:00 8.2 C 6.2 g/m*3 5.55 C 16.1 km/h
340 22-12-2013 04:15:00 8.2 C 6.2 g/m*3 5.76 C 14.5 km/h
341 22-12-2013 04:20:00 8.1 C 6.16 g/m*3 5.87 C 12.9 km/h
342 22-12-2013 04:25:00 8.1 C 6.24 g/m*3 5.87 C 12.9 km/h
343 22-12-2013 04:30:00 7.9 C 6.16 g/m*3 6.94 C 6.4 km/h
344 22-12-2013 04:35:00 7.9 C 6.24 g/m*3 6.18 C 9.7 km/h
345 22-12-2013 04:40:00 7.8 C 6.28 g/m*3 6.4 C 8.1 km/h
346 22-12-2013 04:45:00 7.8 C 6.37 g/m*3 4.86 C 17.7 km/h
347 22-12-2013 04:50:00 7.9 C 6.49 g/m*3 4.8 C 19.3 km/h
348 22-12-2013 04:55:00 7.8 C 6.53 g/m*3 4.86 C 17.7 km/h
349 22-12-2013 05:00:00 7.7 C 6.65 g/m*3 4.55 C 19.3 km/h
350 22-12-2013 05:05:00 7.6 C 6.77 g/m*3 5.02 C 14.5 km/h
Sensor: Nr:Datum:Temp:Abs-Feuchte:Windchill:Wind:
Aussen-T/F 351 22-12-2013 05:10:00 7.4 C 6.76 g/m*3 4.36 C 17.7 km/h
352 22-12-2013 05:15:00 7.3 C 6.87 g/m*3 4.66 C 14.5 km/h
353 22-12-2013 05:20:00 7.2 C 6.83 g/m*3 4.77 C 12.9 km/h
354 22-12-2013 05:25:00 7.2 C 6.83 g/m*3 4.31 C 16.1 km/h
355 22-12-2013 05:30:00 7.2 C 6.91 g/m*3 5.04 C 11.3 km/h
356 22-12-2013 05:35:00 7.2 C 6.91 g/m*3 4.11 C 17.7 km/h
357 22-12-2013 05:40:00 7.1 C 6.86 g/m*3 5.23 C 9.7 km/h
358 22-12-2013 05:45:00 7.1 C 6.86 g/m*3 4.41 C 14.5 km/h
359 22-12-2013 05:50:00 7.2 C 6.91 g/m*3 4.31 C 16.1 km/h
360 22-12-2013 05:55:00 7.2 C 6.91 g/m*3 3.75 C 20.9 km/h
361 22-12-2013 06:00:00 7.3 C 6.95 g/m*3 3.87 C 20.9 km/h
362 22-12-2013 06:05:00 7.3 C 6.95 g/m*3 4.44 C 16.1 km/h
363 22-12-2013 06:10:00 7.3 C 6.95 g/m*3 3.71 C 22.5 km/h
364 22-12-2013 06:15:00 7.3 C 6.95 g/m*3 3.71 C 22.5 km/h
365 22-12-2013 06:20:00 7.3 C 6.95 g/m*3 3.87 C 20.9 km/h
366 22-12-2013 06:25:00 7.3 C 6.95 g/m*3 3.87 C 20.9 km/h
367 22-12-2013 06:30:00 7.3 C 7.03 g/m*3 3.87 C 20.9 km/h
368 22-12-2013 06:35:00 7.3 C 7.03 g/m*3 4.23 C 17.7 km/h
369 22-12-2013 06:40:00 7.4 C 7.08 g/m*3 4.17 C 19.3 km/h
370 22-12-2013 06:45:00 7.4 C 7.08 g/m*3 4.78 C 14.5 km/h
371 22-12-2013 06:50:00 7.4 C 7.08 g/m*3 5.02 C 12.9 km/h
372 22-12-2013 06:55:00 7.5 C 7.12 g/m*3 4.48 C 17.7 km/h
373 22-12-2013 07:00:00 7.6 C 7.17 g/m*3 5.02 C 14.5 km/h
374 22-12-2013 07:05:00 7.6 C 7.17 g/m*3 4.81 C 16.1 km/h
375 22-12-2013 07:10:00 7.7 C 7.22 g/m*3 5.38 C 12.9 km/h
Sensor: Nr:Datum:Temp:Abs-Feuchte:Windchill:Wind:
Aussen-T/F 376 22-12-2013 07:15:00 7.7 C 7.22 g/m*3 4.93 C 16.1 km/h
377 22-12-2013 07:20:00 7.8 C 7.26 g/m*3 4.86 C 17.7 km/h
378 22-12-2013 07:25:00 7.8 C 7.35 g/m*3 5.06 C 16.1 km/h
379 22-12-2013 07:30:00 7.8 C 7.35 g/m*3 5.51 C 12.9 km/h
380 22-12-2013 07:35:00 7.7 C 7.38 g/m*3 5.94 C 9.7 km/h
381 22-12-2013 07:40:00 7.6 C 7.33 g/m*3 5.53 C 11.3 km/h
382 22-12-2013 07:45:00 7.6 C 7.41 g/m*3 7.6 C 4.8 km/h
383 22-12-2013 07:50:00 7.6 C 7.41 g/m*3 6.6 C 6.4 km/h
384 22-12-2013 07:55:00 7.5 C 7.36 g/m*3 7.5 C 4.8 km/h
385 22-12-2013 08:00:00 7.4 C 7.4 g/m*3 7.4 C 3.2 km/h
386 22-12-2013 08:05:00 7.3 C 7.35 g/m*3 7.3 C 0 km/h
387 22-12-2013 08:10:00 7.3 C 7.35 g/m*3 7.3 C 0 km/h
388 22-12-2013 08:15:00 7.3 C 7.43 g/m*3 7.3 C 4.8 km/h
389 22-12-2013 08:20:00 7.3 C 7.43 g/m*3 7.3 C 4.8 km/h
390 22-12-2013 08:25:00 7.3 C 7.43 g/m*3 7.3 C 1.6 km/h
391 22-12-2013 08:30:00 7.3 C 7.43 g/m*3 7.3 C 0 km/h
392 22-12-2013 08:35:00 7.3 C 7.43 g/m*3 7.3 C 1.6 km/h
393 22-12-2013 08:40:00 7.3 C 7.51 g/m*3 7.3 C 1.6 km/h
394 22-12-2013 08:45:00 7.4 C 7.55 g/m*3 7.4 C 1.6 km/h
395 22-12-2013 08:50:00 7.5 C 7.6 g/m*3 7.5 C 3.2 km/h
396 22-12-2013 08:55:00 7.6 C 7.65 g/m*3 7.6 C 3.2 km/h
397 22-12-2013 09:00:00 7.7 C 7.7 g/m*3 7.7 C 4.8 km/h
398 22-12-2013 09:05:00 7.8 C 7.67 g/m*3 7.8 C 4.8 km/h
399 22-12-2013 09:10:00 7.9 C 7.72 g/m*3 7.9 C 4.8 km/h
400 22-12-2013 09:15:00 8 C 7.77 g/m*3 8 C 0 km/h
Sensor: Nr:Datum:Temp:Abs-Feuchte:Windchill:Wind:
Aussen-T/F 401 22-12-2013 09:20:00 8.1 C 7.74 g/m*3 8.1 C 1.6 km/h
402 22-12-2013 09:25:00 8.2 C 7.79 g/m*3 7.29 C 6.4 km/h
403 22-12-2013 09:30:00 8.3 C 7.84 g/m*3 8.3 C 3.2 km/h
404 22-12-2013 09:35:00 8.2 C 7.79 g/m*3 8.2 C 3.2 km/h
405 22-12-2013 09:40:00 8.2 C 7.79 g/m*3 8.2 C 3.2 km/h
406 22-12-2013 09:45:00 8.2 C 7.79 g/m*3 6.87 C 8.1 km/h
407 22-12-2013 09:50:00 8.4 C 7.8 g/m*3 7.11 C 8.1 km/h
408 22-12-2013 09:55:00 8.6 C 7.91 g/m*3 5.86 C 17.7 km/h
409 22-12-2013 10:00:00 8.7 C 7.87 g/m*3 7.13 C 9.7 km/h
410 22-12-2013 10:05:00 8.9 C 7.88 g/m*3 6.85 C 12.9 km/h
411 22-12-2013 10:10:00 9 C 7.93 g/m*3 7.21 C 11.3 km/h
412 22-12-2013 10:15:00 9.1 C 7.9 g/m*3 7.09 C 12.9 km/h
413 22-12-2013 10:20:00 9.2 C 7.86 g/m*3 6.44 C 19.3 km/h
414 22-12-2013 10:25:00 9.3 C 7.91 g/m*3 8.56 C 6.4 km/h
415 22-12-2013 10:30:00 9.3 C 7.91 g/m*3 9.3 C 4.8 km/h
416 22-12-2013 10:35:00 9.3 C 7.91 g/m*3 7.85 C 9.7 km/h
417 22-12-2013 10:40:00 9.3 C 8 g/m*3 9.3 C 3.2 km/h
418 22-12-2013 10:45:00 9.3 C 7.91 g/m*3 8.56 C 6.4 km/h
419 22-12-2013 10:50:00 9.3 C 7.91 g/m*3 9.3 C 4.8 km/h
420 22-12-2013 10:55:00 9.3 C 7.91 g/m*3 9.3 C 3.2 km/h
421 22-12-2013 11:00:00 9.3 C 7.91 g/m*3 7.12 C 14.5 km/h
422 22-12-2013 11:05:00 9.3 C 7.91 g/m*3 9.3 C 4.8 km/h
423 22-12-2013 11:10:00 9.4 C 7.96 g/m*3 9.4 C 4.8 km/h
424 22-12-2013 11:15:00 9.4 C 7.96 g/m*3 7.46 C 12.9 km/h
425 22-12-2013 11:20:00 9.4 C 7.87 g/m*3 8.28 C 8.1 km/h
Sensor: Nr:Datum:Temp:Abs-Feuchte:Windchill:Wind:
Aussen-T/F 426 22-12-2013 11:25:00 9.5 C 7.92 g/m*3 8.79 C 6.4 km/h
427 22-12-2013 11:30:00 9.5 C 7.92 g/m*3 9.5 C 4.8 km/h
428 22-12-2013 11:35:00 9.5 C 7.92 g/m*3 8.09 C 9.7 km/h
429 22-12-2013 11:40:00 9.6 C 7.97 g/m*3 9.6 C 4.8 km/h
430 22-12-2013 11:45:00 9.6 C 7.97 g/m*3 9.6 C 4.8 km/h
431 22-12-2013 11:50:00 9.6 C 7.97 g/m*3 9.6 C 4.8 km/h
432 22-12-2013 11:55:00 9.5 C 8.01 g/m*3 9.5 C 1.6 km/h
433 22-12-2013 12:00:00 9.5 C 8.01 g/m*3 9.5 C 4.8 km/h
434 22-12-2013 12:05:00 9.5 C 8.01 g/m*3 9.5 C 3.2 km/h
435 22-12-2013 12:10:00 9.5 C 8.01 g/m*3 9.5 C 3.2 km/h
436 22-12-2013 12:15:00 9.5 C 8.01 g/m*3 9.5 C 3.2 km/h
437 22-12-2013 12:20:00 9.6 C 8.06 g/m*3 9.6 C 0 km/h
438 22-12-2013 12:25:00 9.6 C 8.06 g/m*3 9.6 C 3.2 km/h
439 22-12-2013 12:30:00 9.7 C 8.11 g/m*3 9.7 C 4.8 km/h
440 22-12-2013 12:35:00 9.8 C 8.07 g/m*3 9.8 C 1.6 km/h
441 22-12-2013 12:40:00 9.8 C 8.07 g/m*3 7.73 C 14.5 km/h
442 22-12-2013 12:45:00 9.9 C 8.03 g/m*3 9.25 C 6.4 km/h
443 22-12-2013 12:50:00 10.1 C 8.04 g/m*3 8.8 C 9.7 km/h
444 22-12-2013 12:55:00 10.1 C 8.04 g/m*3 8.8 C 9.7 km/h
445 22-12-2013 13:00:00 10.1 C 8.04 g/m*3 8.31 C 12.9 km/h
446 22-12-2013 13:05:00 10.1 C 8.04 g/m*3 9.48 C 6.4 km/h
447 22-12-2013 13:10:00 10.1 C 8.04 g/m*3 8.54 C 11.3 km/h
448 22-12-2013 13:15:00 10.1 C 8.04 g/m*3 8.31 C 12.9 km/h
449 22-12-2013 13:20:00 10.2 C 7.99 g/m*3 8.92 C 9.7 km/h
450 22-12-2013 13:25:00 10.2 C 7.99 g/m*3 8.92 C 9.7 km/h
Sensor: Nr:Datum:Temp:Abs-Feuchte:Windchill:Wind:
Aussen-T/F 451 22-12-2013 13:30:00 10.2 C 7.99 g/m*3 8.22 C 14.5 km/h
452 22-12-2013 13:35:00 10.2 C 7.99 g/m*3 8.43 C 12.9 km/h
453 22-12-2013 13:40:00 10.2 C 7.99 g/m*3 9.6 C 6.4 km/h
454 22-12-2013 13:45:00 10.2 C 7.99 g/m*3 8.43 C 12.9 km/h
455 22-12-2013 13:50:00 10.2 C 7.99 g/m*3 8.66 C 11.3 km/h
456 22-12-2013 13:55:00 10.2 C 7.99 g/m*3 8.92 C 9.7 km/h
457 22-12-2013 14:00:00 10.2 C 7.99 g/m*3 8.03 C 16.1 km/h
458 22-12-2013 14:05:00 10.2 C 7.99 g/m*3 8.66 C 11.3 km/h
459 22-12-2013 14:10:00 10.2 C 7.99 g/m*3 9.22 C 8.1 km/h
460 22-12-2013 14:15:00 10.2 C 8.09 g/m*3 8.66 C 11.3 km/h
461 22-12-2013 14:20:00 10.2 C 7.99 g/m*3 8.22 C 14.5 km/h
462 22-12-2013 14:25:00 10.2 C 7.99 g/m*3 8.66 C 11.3 km/h
463 22-12-2013 14:30:00 10.2 C 7.99 g/m*3 7.54 C 20.9 km/h
464 22-12-2013 14:35:00 10.3 C 8.04 g/m*3 8.16 C 16.1 km/h
465 22-12-2013 14:40:00 10.3 C 7.95 g/m*3 8.78 C 11.3 km/h
466 22-12-2013 14:45:00 10.2 C 7.99 g/m*3 8.03 C 16.1 km/h
467 22-12-2013 14:50:00 10.2 C 7.9 g/m*3 8.22 C 14.5 km/h
468 22-12-2013 14:55:00 10.2 C 7.9 g/m*3 8.43 C 12.9 km/h
469 22-12-2013 15:00:00 10.2 C 7.99 g/m*3 8.66 C 11.3 km/h
470 22-12-2013 15:05:00 10.2 C 7.99 g/m*3 8.43 C 12.9 km/h
471 22-12-2013 15:10:00 10.2 C 8.09 g/m*3 8.22 C 14.5 km/h
472 22-12-2013 15:15:00 10.1 C 8.04 g/m*3 6.89 C 27.4 km/h
473 22-12-2013 15:20:00 9.9 C 8.03 g/m*3 8.06 C 12.9 km/h
474 22-12-2013 15:25:00 9.9 C 8.12 g/m*3 7.85 C 14.5 km/h
475 22-12-2013 15:30:00 9.8 C 8.07 g/m*3 8.18 C 11.3 km/h
Sensor: Nr:Datum:Temp:Abs-Feuchte:Windchill:Wind:
Aussen-T/F 476 22-12-2013 15:35:00 9.8 C 8.07 g/m*3 9.14 C 6.4 km/h
477 22-12-2013 15:40:00 9.8 C 8.07 g/m*3 8.45 C 9.7 km/h
478 22-12-2013 15:45:00 9.8 C 8.07 g/m*3 7.54 C 16.1 km/h
479 22-12-2013 15:50:00 9.9 C 8.03 g/m*3 7.85 C 14.5 km/h
480 22-12-2013 15:55:00 10 C 7.99 g/m*3 8.42 C 11.3 km/h
481 22-12-2013 16:00:00 10.1 C 8.04 g/m*3 8.31 C 12.9 km/h
482 22-12-2013 16:05:00 10.1 C 8.04 g/m*3 8.54 C 11.3 km/h
483 22-12-2013 16:10:00 10.1 C 7.94 g/m*3 8.31 C 12.9 km/h
484 22-12-2013 16:15:00 10.1 C 7.94 g/m*3 7.91 C 16.1 km/h
485 22-12-2013 16:20:00 10.2 C 7.99 g/m*3 8.43 C 12.9 km/h
486 22-12-2013 16:25:00 10.1 C 7.94 g/m*3 7.42 C 20.9 km/h
487 22-12-2013 16:30:00 10.1 C 7.94 g/m*3 7.42 C 20.9 km/h
488 22-12-2013 16:35:00 10.1 C 7.94 g/m*3 7.02 C 25.7 km/h
489 22-12-2013 16:40:00 10.1 C 7.94 g/m*3 8.54 C 11.3 km/h
490 22-12-2013 16:45:00 10.1 C 7.94 g/m*3 9.1 C 8.1 km/h
491 22-12-2013 16:50:00 10 C 7.89 g/m*3 8.99 C 8.1 km/h
492 22-12-2013 16:55:00 10 C 7.89 g/m*3 8.68 C 9.7 km/h
493 22-12-2013 17:00:00 10.1 C 7.94 g/m*3 7.73 C 17.7 km/h
494 22-12-2013 17:05:00 10 C 7.89 g/m*3 8.42 C 11.3 km/h
495 22-12-2013 17:10:00 10 C 7.89 g/m*3 8.42 C 11.3 km/h
496 22-12-2013 17:15:00 10 C 7.89 g/m*3 8.19 C 12.9 km/h
497 22-12-2013 17:20:00 10 C 7.99 g/m*3 8.19 C 12.9 km/h
498 22-12-2013 17:25:00 9.9 C 7.94 g/m*3 7.85 C 14.5 km/h
499 22-12-2013 17:30:00 10 C 7.89 g/m*3 8.19 C 12.9 km/h
500 22-12-2013 17:35:00 10 C 7.99 g/m*3 7.61 C 17.7 km/h
Sensor: Nr:Datum:Temp:Abs-Feuchte:Windchill:Wind:
Aussen-T/F 501 22-12-2013 17:40:00 10 C 7.89 g/m*3 7.98 C 14.5 km/h
502 22-12-2013 17:45:00 10 C 7.89 g/m*3 7.61 C 17.7 km/h
503 22-12-2013 17:50:00 10 C 7.89 g/m*3 8.19 C 12.9 km/h
504 22-12-2013 17:55:00 10 C 7.89 g/m*3 7.15 C 22.5 km/h
505 22-12-2013 18:00:00 10 C 7.89 g/m*3 7.44 C 19.3 km/h
506 22-12-2013 18:05:00 10 C 7.89 g/m*3 7.61 C 17.7 km/h
507 22-12-2013 18:10:00 10 C 7.99 g/m*3 7.44 C 19.3 km/h
508 22-12-2013 18:15:00 9.9 C 7.94 g/m*3 7.85 C 14.5 km/h
509 22-12-2013 18:20:00 9.9 C 7.94 g/m*3 8.06 C 12.9 km/h
510 22-12-2013 18:25:00 9.9 C 7.94 g/m*3 7.16 C 20.9 km/h
511 22-12-2013 18:30:00 9.9 C 7.94 g/m*3 7.85 C 14.5 km/h
512 22-12-2013 18:35:00 9.9 C 7.94 g/m*3 7.66 C 16.1 km/h
513 22-12-2013 18:40:00 9.9 C 7.94 g/m*3 6.89 C 24.1 km/h
514 22-12-2013 18:45:00 9.9 C 7.94 g/m*3 7.48 C 17.7 km/h
515 22-12-2013 18:50:00 9.9 C 7.94 g/m*3 7.48 C 17.7 km/h
516 22-12-2013 18:55:00 9.9 C 7.94 g/m*3 7.48 C 17.7 km/h
517 22-12-2013 19:00:00 10 C 7.99 g/m*3 6.89 C 25.7 km/h
518 22-12-2013 19:05:00 10 C 7.99 g/m*3 7.44 C 19.3 km/h
519 22-12-2013 19:10:00 10 C 7.89 g/m*3 7.01 C 24.1 km/h
520 22-12-2013 19:15:00 10 C 7.89 g/m*3 6.53 C 30.6 km/h
521 22-12-2013 19:20:00 9.9 C 7.94 g/m*3 7.85 C 14.5 km/h
522 22-12-2013 19:25:00 9.9 C 7.94 g/m*3 8.06 C 12.9 km/h
523 22-12-2013 19:30:00 9.8 C 7.98 g/m*3 7.73 C 14.5 km/h
524 22-12-2013 19:35:00 9.8 C 7.98 g/m*3 7.54 C 16.1 km/h
525 22-12-2013 19:40:00 9.8 C 7.98 g/m*3 7.04 C 20.9 km/h
Sensor: Nr:Datum:Temp:Abs-Feuchte:Windchill:Wind:
Aussen-T/F 526 22-12-2013 19:45:00 9.8 C 7.98 g/m*3 6.5 C 27.4 km/h
527 22-12-2013 19:50:00 9.9 C 7.94 g/m*3 7.02 C 22.5 km/h
528 22-12-2013 19:55:00 9.9 C 7.94 g/m*3 7.32 C 19.3 km/h
529 22-12-2013 20:00:00 10 C 7.99 g/m*3 7.44 C 19.3 km/h
530 22-12-2013 20:05:00 10 C 7.99 g/m*3 7.01 C 24.1 km/h
531 22-12-2013 20:10:00 10 C 7.99 g/m*3 7.44 C 19.3 km/h
532 22-12-2013 20:15:00 10 C 7.99 g/m*3 7.44 C 19.3 km/h
533 22-12-2013 20:20:00 10 C 7.99 g/m*3 7.29 C 20.9 km/h
534 22-12-2013 20:25:00 9.9 C 7.94 g/m*3 7.16 C 20.9 km/h
535 22-12-2013 20:30:00 9.9 C 7.94 g/m*3 7.48 C 17.7 km/h
536 22-12-2013 20:35:00 9.9 C 7.94 g/m*3 6.89 C 24.1 km/h
537 22-12-2013 20:40:00 9.9 C 7.94 g/m*3 6.76 C 25.7 km/h
538 22-12-2013 20:45:00 9.9 C 7.84 g/m*3 7.02 C 22.5 km/h
539 22-12-2013 20:50:00 9.9 C 7.84 g/m*3 7.32 C 19.3 km/h
540 22-12-2013 20:55:00 9.8 C 7.89 g/m*3 7.73 C 14.5 km/h
541 22-12-2013 21:00:00 9.8 C 7.89 g/m*3 7.94 C 12.9 km/h
542 22-12-2013 21:05:00 9.8 C 7.89 g/m*3 7.54 C 16.1 km/h
543 22-12-2013 21:10:00 9.8 C 7.89 g/m*3 7.04 C 20.9 km/h
544 22-12-2013 21:15:00 9.8 C 7.89 g/m*3 6.89 C 22.5 km/h
545 22-12-2013 21:20:00 9.8 C 7.98 g/m*3 7.54 C 16.1 km/h
546 22-12-2013 21:25:00 9.8 C 8.07 g/m*3 8.75 C 8.1 km/h
547 22-12-2013 21:30:00 9.7 C 8.02 g/m*3 8.06 C 11.3 km/h
548 22-12-2013 21:35:00 9.7 C 8.11 g/m*3 7.82 C 12.9 km/h
549 22-12-2013 21:40:00 9.7 C 8.11 g/m*3 7.82 C 12.9 km/h
550 22-12-2013 21:45:00 9.6 C 8.06 g/m*3 7.94 C 11.3 km/h
Sensor: Nr:Datum:Temp:Abs-Feuchte:Windchill:Wind:
Aussen-T/F 551 22-12-2013 21:50:00 9.6 C 8.06 g/m*3 7.29 C 16.1 km/h
552 22-12-2013 21:55:00 9.6 C 8.06 g/m*3 8.21 C 9.7 km/h
553 22-12-2013 22:00:00 9.6 C 8.06 g/m*3 8.52 C 8.1 km/h
554 22-12-2013 22:05:00 9.6 C 8.15 g/m*3 8.52 C 8.1 km/h
555 22-12-2013 22:10:00 9.6 C 8.15 g/m*3 7.7 C 12.9 km/h
556 22-12-2013 22:15:00 9.6 C 8.15 g/m*3 7.94 C 11.3 km/h
557 22-12-2013 22:20:00 9.6 C 8.24 g/m*3 7.7 C 12.9 km/h
558 22-12-2013 22:25:00 9.4 C 8.14 g/m*3 7.46 C 12.9 km/h
559 22-12-2013 22:30:00 9.3 C 8.18 g/m*3 7.33 C 12.9 km/h
560 22-12-2013 22:35:00 9.3 C 8.18 g/m*3 7.58 C 11.3 km/h
561 22-12-2013 22:40:00 9.2 C 8.13 g/m*3 9.2 C 4.8 km/h
562 22-12-2013 22:45:00 9.2 C 8.13 g/m*3 9.2 C 3.2 km/h
563 22-12-2013 22:50:00 9.1 C 8.16 g/m*3 7.93 C 8.1 km/h
564 22-12-2013 22:55:00 9.1 C 8.16 g/m*3 9.1 C 1.6 km/h
565 22-12-2013 23:00:00 9.1 C 8.16 g/m*3 9.1 C 3.2 km/h
566 22-12-2013 23:05:00 9 C 8.2 g/m*3 9 C 3.2 km/h
567 22-12-2013 23:10:00 8.9 C 8.15 g/m*3 8.9 C 1.6 km/h
568 22-12-2013 23:15:00 8.8 C 8.09 g/m*3 8.8 C 0 km/h
569 22-12-2013 23:20:00 8.8 C 8.18 g/m*3 8.8 C 1.6 km/h
570 22-12-2013 23:25:00 8.7 C 8.13 g/m*3 8.7 C 3.2 km/h
571 22-12-2013 23:30:00 8.6 C 8.08 g/m*3 7.34 C 8.1 km/h
572 22-12-2013 23:35:00 8.5 C 8.03 g/m*3 8.5 C 3.2 km/h
573 22-12-2013 23:40:00 8.4 C 7.97 g/m*3 8.4 C 4.8 km/h
574 22-12-2013 23:45:00 8.3 C 7.92 g/m*3 8.3 C 4.8 km/h
575 22-12-2013 23:50:00 8.3 C 7.92 g/m*3 8.3 C 4.8 km/h
Sensor: Nr:Datum:Temp:Abs-Feuchte:Windchill:Wind:
Aussen-T/F 576 22-12-2013 23:55:00 8.2 C 7.87 g/m*3 8.2 C 4.8 km/h
577 23-12-2013 00:00:00 8.2 C 7.87 g/m*3 8.2 C 4.8 km/h
578 23-12-2013 00:05:00 8.2 C 7.87 g/m*3 7.29 C 6.4 km/h
579 23-12-2013 00:10:00 8.2 C 7.87 g/m*3 8.2 C 3.2 km/h
580 23-12-2013 00:15:00 8.1 C 7.82 g/m*3 7.17 C 6.4 km/h
581 23-12-2013 00:20:00 8.1 C 7.82 g/m*3 8.1 C 4.8 km/h
582 23-12-2013 00:25:00 7.9 C 7.72 g/m*3 7.9 C 3.2 km/h
583 23-12-2013 00:30:00 7.9 C 7.8 g/m*3 7.9 C 3.2 km/h
584 23-12-2013 00:35:00 7.9 C 7.8 g/m*3 7.9 C 1.6 km/h
585 23-12-2013 00:40:00 7.8 C 7.75 g/m*3 7.8 C 3.2 km/h
586 23-12-2013 00:45:00 7.9 C 7.89 g/m*3 7.9 C 4.8 km/h
587 23-12-2013 00:50:00 8 C 7.94 g/m*3 8 C 3.2 km/h
588 23-12-2013 00:55:00 8.1 C 7.9 g/m*3 7.17 C 6.4 km/h
589 23-12-2013 01:00:00 8.3 C 7.92 g/m*3 6.37 C 11.3 km/h
590 23-12-2013 01:05:00 8.6 C 7.99 g/m*3 6.73 C 11.3 km/h
591 23-12-2013 01:10:00 8.7 C 7.96 g/m*3 6.38 C 14.5 km/h
592 23-12-2013 01:15:00 8.6 C 7.73 g/m*3 4.09 C 40.2 km/h
593 23-12-2013 01:20:00 8.3 C 7.5 g/m*3 5.68 C 16.1 km/h
594 23-12-2013 01:25:00 8.1 C 7.24 g/m*3 4.73 C 22.5 km/h
595 23-12-2013 01:30:00 7.8 C 7.1 g/m*3 4.86 C 17.7 km/h
596 23-12-2013 01:35:00 7.7 C 7.14 g/m*3 6.28 C 8.1 km/h
597 23-12-2013 01:40:00 7.4 C 7.16 g/m*3 6.37 C 6.4 km/h
598 23-12-2013 01:45:00 7.1 C 7.02 g/m*3 7.1 C 4.8 km/h
599 23-12-2013 01:50:00 6.8 C 7.04 g/m*3 5.67 C 6.4 km/h
600 23-12-2013 01:55:00 6.6 C 6.95 g/m*3 6.6 C 4.8 km/h
Sensor: Nr:Datum:Temp:Abs-Feuchte:Windchill:Wind:
Aussen-T/F 601 23-12-2013 02:00:00 6.4 C 6.93 g/m*3 6.4 C 4.8 km/h
602 23-12-2013 02:05:00 6.2 C 6.84 g/m*3 6.2 C 3.2 km/h
603 23-12-2013 02:10:00 6.1 C 6.79 g/m*3 6.1 C 3.2 km/h
604 23-12-2013 02:15:00 5.8 C 6.73 g/m*3 5.8 C 3.2 km/h
605 23-12-2013 02:20:00 5.8 C 6.81 g/m*3 5.8 C 4.8 km/h
606 23-12-2013 02:25:00 5.7 C 6.69 g/m*3 5.7 C 3.2 km/h
607 23-12-2013 02:30:00 5.6 C 6.72 g/m*3 5.6 C 4.8 km/h
608 23-12-2013 02:35:00 5.6 C 6.72 g/m*3 5.6 C 3.2 km/h
609 23-12-2013 02:40:00 5.6 C 6.72 g/m*3 5.6 C 3.2 km/h
610 23-12-2013 02:45:00 5.7 C 6.76 g/m*3 3.93 C 8.1 km/h
611 23-12-2013 02:50:00 5.7 C 6.76 g/m*3 5.7 C 3.2 km/h
612 23-12-2013 02:55:00 5.8 C 6.81 g/m*3 5.8 C 4.8 km/h
613 23-12-2013 03:00:00 6 C 6.9 g/m*3 4.75 C 6.4 km/h
614 23-12-2013 03:05:00 6 C 6.82 g/m*3 6 C 3.2 km/h
615 23-12-2013 03:10:00 5.9 C 6.78 g/m*3 5.9 C 4.8 km/h
616 23-12-2013 03:15:00 5.9 C 6.78 g/m*3 5.9 C 4.8 km/h
617 23-12-2013 03:20:00 6 C 6.82 g/m*3 6 C 4.8 km/h
618 23-12-2013 03:25:00 5.8 C 6.73 g/m*3 5.8 C 4.8 km/h
619 23-12-2013 03:30:00 5.8 C 6.81 g/m*3 5.8 C 4.8 km/h
620 23-12-2013 03:35:00 6.1 C 6.87 g/m*3 4.4 C 8.1 km/h
621 23-12-2013 03:40:00 6.2 C 6.91 g/m*3 4.98 C 6.4 km/h
622 23-12-2013 03:45:00 6.1 C 6.79 g/m*3 6.1 C 4.8 km/h
623 23-12-2013 03:50:00 5.9 C 6.78 g/m*3 4.63 C 6.4 km/h
624 23-12-2013 03:55:00 6 C 6.82 g/m*3 6 C 3.2 km/h
625 23-12-2013 04:00:00 5.8 C 6.73 g/m*3 5.8 C 4.8 km/h
Sensor: Nr:Datum:Temp:Abs-Feuchte:Windchill:Wind:
Aussen-T/F 626 23-12-2013 04:05:00 5.8 C 6.73 g/m*3 4.52 C 6.4 km/h
627 23-12-2013 04:10:00 5.8 C 6.73 g/m*3 5.8 C 4.8 km/h
628 23-12-2013 04:15:00 5.8 C 6.73 g/m*3 5.8 C 4.8 km/h
629 23-12-2013 04:20:00 5.8 C 6.81 g/m*3 5.8 C 3.2 km/h
630 23-12-2013 04:25:00 5.8 C 6.81 g/m*3 5.8 C 3.2 km/h
631 23-12-2013 04:30:00 5.8 C 6.81 g/m*3 5.8 C 3.2 km/h
632 23-12-2013 04:35:00 5.8 C 6.81 g/m*3 5.8 C 1.6 km/h
633 23-12-2013 04:40:00 6 C 6.9 g/m*3 6 C 4.8 km/h
634 23-12-2013 04:45:00 6.1 C 6.94 g/m*3 6.1 C 3.2 km/h
635 23-12-2013 04:50:00 6.1 C 6.87 g/m*3 6.1 C 4.8 km/h
636 23-12-2013 04:55:00 6.2 C 6.99 g/m*3 6.2 C 4.8 km/h
637 23-12-2013 05:00:00 6.4 C 7 g/m*3 5.21 C 6.4 km/h
638 23-12-2013 05:05:00 6.7 C 7.07 g/m*3 5.11 C 8.1 km/h
639 23-12-2013 05:10:00 6.8 C 7.04 g/m*3 5.22 C 8.1 km/h
640 23-12-2013 05:15:00 6.9 C 6.93 g/m*3 4.16 C 14.5 km/h
641 23-12-2013 05:20:00 7.1 C 6.94 g/m*3 4.19 C 16.1 km/h
642 23-12-2013 05:25:00 7.3 C 6.87 g/m*3 5.16 C 11.3 km/h
643 23-12-2013 05:30:00 7.5 C 6.88 g/m*3 4.9 C 14.5 km/h
644 23-12-2013 05:35:00 7.6 C 6.85 g/m*3 5.82 C 9.7 km/h
645 23-12-2013 05:40:00 7.6 C 6.77 g/m*3 5.53 C 11.3 km/h
646 23-12-2013 05:45:00 7.4 C 6.76 g/m*3 5.58 C 9.7 km/h
647 23-12-2013 05:50:00 7.4 C 6.76 g/m*3 5.93 C 8.1 km/h
648 23-12-2013 05:55:00 7.2 C 6.67 g/m*3 7.2 C 4.8 km/h
649 23-12-2013 06:00:00 7 C 6.74 g/m*3 5.46 C 8.1 km/h
650 23-12-2013 06:05:00 6.8 C 6.73 g/m*3 5.22 C 8.1 km/h
Sensor: Nr:Datum:Temp:Abs-Feuchte:Windchill:Wind:
Aussen-T/F 651 23-12-2013 06:10:00 6.7 C 6.69 g/m*3 4.75 C 9.7 km/h
652 23-12-2013 06:15:00 6.8 C 6.73 g/m*3 4.87 C 9.7 km/h
653 23-12-2013 06:20:00 6.7 C 6.69 g/m*3 6.7 C 4.8 km/h
654 23-12-2013 06:25:00 6.5 C 6.75 g/m*3 6.5 C 4.8 km/h
655 23-12-2013 06:30:00 6.3 C 6.74 g/m*3 6.3 C 4.8 km/h
656 23-12-2013 06:35:00 6.2 C 6.77 g/m*3 6.2 C 4.8 km/h
657 23-12-2013 06:40:00 6.1 C 6.72 g/m*3 6.1 C 4.8 km/h
658 23-12-2013 06:45:00 6.1 C 6.72 g/m*3 6.1 C 4.8 km/h
659 23-12-2013 06:50:00 6.1 C 6.72 g/m*3 6.1 C 3.2 km/h
660 23-12-2013 06:55:00 5.9 C 6.71 g/m*3 5.9 C 3.2 km/h
661 23-12-2013 07:00:00 5.9 C 6.71 g/m*3 5.9 C 3.2 km/h
662 23-12-2013 07:05:00 5.8 C 6.73 g/m*3 5.8 C 4.8 km/h
663 23-12-2013 07:10:00 5.8 C 6.73 g/m*3 5.8 C 4.8 km/h
664 23-12-2013 07:15:00 5.7 C 6.69 g/m*3 5.7 C 3.2 km/h
665 23-12-2013 07:20:00 5.7 C 6.69 g/m*3 5.7 C 4.8 km/h
666 23-12-2013 07:25:00 5.9 C 6.78 g/m*3 5.9 C 3.2 km/h
667 23-12-2013 07:30:00 6.1 C 6.79 g/m*3 6.1 C 3.2 km/h
668 23-12-2013 07:35:00 6.2 C 6.84 g/m*3 6.2 C 1.6 km/h
669 23-12-2013 07:40:00 6.2 C 6.77 g/m*3 6.2 C 3.2 km/h
670 23-12-2013 07:45:00 6.2 C 6.77 g/m*3 6.2 C 3.2 km/h
671 23-12-2013 07:50:00 6 C 6.68 g/m*3 6 C 3.2 km/h
672 23-12-2013 07:55:00 5.9 C 6.71 g/m*3 5.9 C 3.2 km/h
673 23-12-2013 08:00:00 5.8 C 6.66 g/m*3 5.8 C 4.8 km/h
674 23-12-2013 08:05:00 5.8 C 6.66 g/m*3 5.8 C 3.2 km/h
675 23-12-2013 08:10:00 5.8 C 6.66 g/m*3 5.8 C 3.2 km/h
Sensor: Nr:Datum:Temp:Abs-Feuchte:Windchill:Wind:
Aussen-T/F 676 23-12-2013 08:15:00 5.8 C 6.66 g/m*3 4.52 C 6.4 km/h
677 23-12-2013 08:20:00 5.6 C 6.57 g/m*3 5.6 C 0 km/h
678 23-12-2013 08:25:00 5.5 C 6.53 g/m*3 5.5 C 0 km/h
679 23-12-2013 08:30:00 5.4 C 6.56 g/m*3 5.4 C 3.2 km/h
680 23-12-2013 08:35:00 5.3 C 6.52 g/m*3 5.3 C 3.2 km/h
681 23-12-2013 08:40:00 5.3 C 6.52 g/m*3 5.3 C 0 km/h
682 23-12-2013 08:45:00 5.3 C 6.52 g/m*3 5.3 C 0 km/h
683 23-12-2013 08:50:00 5.3 C 6.52 g/m*3 5.3 C 0 km/h
684 23-12-2013 08:55:00 5.3 C 6.58 g/m*3 5.3 C 0 km/h
685 23-12-2013 09:00:00 5.3 C 6.58 g/m*3 5.3 C 0 km/h
686 23-12-2013 09:05:00 5.2 C 6.54 g/m*3 5.2 C 0 km/h
687 23-12-2013 09:10:00 5.1 C 6.5 g/m*3 5.1 C 1.6 km/h
688 23-12-2013 09:15:00 5.1 C 6.5 g/m*3 5.1 C 1.6 km/h
689 23-12-2013 10:20:00 5.9 C 6.92 g/m*3 5.9 C 4.8 km/h
690 23-12-2013 10:25:00 6.1 C 7.01 g/m*3 6.1 C 3.2 km/h
691 23-12-2013 10:30:00 6.2 C 7.06 g/m*3 6.2 C 1.6 km/h
692 23-12-2013 10:35:00 6.3 C 7.11 g/m*3 3.96 C 11.3 km/h
693 23-12-2013 10:40:00 6.7 C 7.22 g/m*3 4.44 C 11.3 km/h
694 23-12-2013 10:45:00 7.3 C 7.19 g/m*3 4.9 C 12.9 km/h
695 23-12-2013 10:50:00 7.9 C 7.31 g/m*3 5.89 C 11.3 km/h
696 23-12-2013 10:55:00 8.2 C 7.29 g/m*3 6.25 C 11.3 km/h
697 23-12-2013 11:00:00 8.3 C 7.16 g/m*3 6.66 C 9.7 km/h
698 23-12-2013 11:05:00 8.5 C 7.26 g/m*3 6.36 C 12.9 km/h
699 23-12-2013 11:10:00 8.7 C 7.26 g/m*3 6.85 C 11.3 km/h
700 23-12-2013 11:15:00 8.8 C 7.31 g/m*3 7.98 C 6.4 km/h
Sensor: Nr:Datum:Temp:Abs-Feuchte:Windchill:Wind:
Aussen-T/F 701 23-12-2013 11:20:00 8.9 C 7.36 g/m*3 7.69 C 8.1 km/h
702 23-12-2013 11:25:00 9.1 C 7.45 g/m*3 8.33 C 6.4 km/h
703 23-12-2013 11:30:00 9.1 C 7.45 g/m*3 8.33 C 6.4 km/h
704 23-12-2013 11:35:00 9.2 C 7.5 g/m*3 8.05 C 8.1 km/h
705 23-12-2013 11:40:00 9.3 C 7.55 g/m*3 7.85 C 9.7 km/h
706 23-12-2013 11:45:00 9.3 C 7.37 g/m*3 7.58 C 11.3 km/h
707 23-12-2013 11:50:00 9.4 C 7.51 g/m*3 8.68 C 6.4 km/h
708 23-12-2013 11:55:00 9.3 C 7.37 g/m*3 8.16 C 8.1 km/h
709 23-12-2013 12:00:00 9.4 C 7.51 g/m*3 7.97 C 9.7 km/h
710 23-12-2013 12:05:00 9.4 C 7.51 g/m*3 8.28 C 8.1 km/h
711 23-12-2013 12:10:00 9.5 C 7.46 g/m*3 8.09 C 9.7 km/h
712 23-12-2013 12:15:00 9.6 C 7.51 g/m*3 9.6 C 4.8 km/h
713 23-12-2013 12:20:00 9.6 C 7.79 g/m*3 8.91 C 6.4 km/h
714 23-12-2013 12:25:00 9.6 C 7.6 g/m*3 9.6 C 4.8 km/h
715 23-12-2013 12:30:00 9.5 C 7.55 g/m*3 8.79 C 6.4 km/h
716 23-12-2013 12:35:00 9.6 C 7.51 g/m*3 7.94 C 11.3 km/h
717 23-12-2013 12:40:00 9.6 C 7.42 g/m*3 8.21 C 9.7 km/h
718 23-12-2013 12:45:00 9.6 C 7.51 g/m*3 8.21 C 9.7 km/h
719 23-12-2013 12:50:00 9.6 C 7.51 g/m*3 8.52 C 8.1 km/h
720 23-12-2013 12:55:00 9.5 C 7.65 g/m*3 9.5 C 3.2 km/h
721 23-12-2013 13:00:00 9.6 C 7.51 g/m*3 8.91 C 6.4 km/h
722 23-12-2013 13:05:00 9.8 C 7.61 g/m*3 9.14 C 6.4 km/h
723 23-12-2013 13:10:00 9.9 C 7.47 g/m*3 8.87 C 8.1 km/h
724 23-12-2013 13:15:00 10 C 7.52 g/m*3 10 C 1.6 km/h
725 23-12-2013 13:20:00 10.2 C 7.52 g/m*3 10.2 C 4.8 km/h
Sensor: Nr:Datum:Temp:Abs-Feuchte:Windchill:Wind:
Aussen-T/F 726 23-12-2013 13:25:00 10.2 C 7.52 g/m*3 10.2 C 3.2 km/h
727 23-12-2013 13:50:00 10.6 C 7.52 g/m*3 9.69 C 8.1 km/h
728 23-12-2013 13:55:00 10.6 C 7.52 g/m*3 10.06 C 6.4 km/h
729 23-12-2013 14:00:00 10.6 C 7.61 g/m*3 10.6 C 4.8 km/h
730 23-12-2013 14:05:00 10.6 C 7.61 g/m*3 10.06 C 6.4 km/h
731 23-12-2013 14:10:00 10.6 C 7.61 g/m*3 10.06 C 6.4 km/h
732 23-12-2013 14:15:00 10.6 C 7.61 g/m*3 9.69 C 8.1 km/h
733 23-12-2013 14:20:00 10.6 C 7.61 g/m*3 10.6 C 4.8 km/h
734 23-12-2013 14:25:00 10.6 C 7.61 g/m*3 10.6 C 4.8 km/h
735 23-12-2013 14:30:00 10.6 C 7.52 g/m*3 9.4 C 9.7 km/h
736 23-12-2013 14:35:00 10.8 C 7.71 g/m*3 9.93 C 8.1 km/h
737 23-12-2013 14:40:00 10.8 C 7.71 g/m*3 9.16 C 12.9 km/h
738 23-12-2013 14:45:00 10.8 C 7.51 g/m*3 8.78 C 16.1 km/h
739 23-12-2013 14:50:00 10.8 C 7.51 g/m*3 9.93 C 8.1 km/h
740 23-12-2013 14:55:00 10.9 C 7.66 g/m*3 9.76 C 9.7 km/h
741 23-12-2013 15:00:00 10.9 C 7.56 g/m*3 9.08 C 14.5 km/h
742 23-12-2013 15:05:00 10.9 C 7.56 g/m*3 9.28 C 12.9 km/h
743 23-12-2013 15:10:00 10.9 C 7.56 g/m*3 10.41 C 6.4 km/h
744 23-12-2013 15:15:00 10.9 C 7.66 g/m*3 10.41 C 6.4 km/h
745 23-12-2013 15:20:00 10.9 C 7.66 g/m*3 10.9 C 4.8 km/h
746 23-12-2013 16:50:00 10.1 C 7.56 g/m*3 9.48 C 6.4 km/h
747 23-12-2013 16:55:00 10.1 C 7.66 g/m*3 9.48 C 6.4 km/h
748 23-12-2013 17:00:00 10.2 C 7.61 g/m*3 9.22 C 8.1 km/h
749 23-12-2013 17:05:00 10.3 C 7.66 g/m*3 9.34 C 8.1 km/h
750 23-12-2013 17:10:00 10.3 C 7.66 g/m*3 9.34 C 8.1 km/h
Sensor: Nr:Datum:Temp:Abs-Feuchte:Windchill:Wind:
Aussen-T/F 751 23-12-2013 17:15:00 10.6 C 7.81 g/m*3 9.4 C 9.7 km/h
752 23-12-2013 17:20:00 10.6 C 7.81 g/m*3 10.6 C 4.8 km/h
753 23-12-2013 17:25:00 10.6 C 7.81 g/m*3 9.4 C 9.7 km/h
754 23-12-2013 17:30:00 10.6 C 7.81 g/m*3 9.69 C 8.1 km/h
755 23-12-2013 17:35:00 10.6 C 7.81 g/m*3 9.14 C 11.3 km/h
756 23-12-2013 17:40:00 10.8 C 7.81 g/m*3 9.93 C 8.1 km/h
757 23-12-2013 17:45:00 10.8 C 7.91 g/m*3 10.8 C 3.2 km/h
758 23-12-2013 17:50:00 10.8 C 7.81 g/m*3 10.29 C 6.4 km/h
759 23-12-2013 17:55:00 10.8 C 7.81 g/m*3 10.8 C 3.2 km/h
760 23-12-2013 18:00:00 10.8 C 7.81 g/m*3 9.93 C 8.1 km/h
761 23-12-2013 18:05:00 10.9 C 7.86 g/m*3 10.41 C 6.4 km/h
762 23-12-2013 18:10:00 10.9 C 7.86 g/m*3 10.41 C 6.4 km/h
763 23-12-2013 18:15:00 10.9 C 7.86 g/m*3 10.9 C 4.8 km/h
764 23-12-2013 18:20:00 10.9 C 7.86 g/m*3 9.76 C 9.7 km/h
765 23-12-2013 18:25:00 10.8 C 7.81 g/m*3 10.8 C 3.2 km/h
766 23-12-2013 18:30:00 10.7 C 7.86 g/m*3 10.7 C 4.8 km/h
767 23-12-2013 18:35:00 10.6 C 7.81 g/m*3 10.6 C 3.2 km/h
768 23-12-2013 18:40:00 10.3 C 7.76 g/m*3 10.3 C 3.2 km/h
769 23-12-2013 18:45:00 10.1 C 7.75 g/m*3 10.1 C 3.2 km/h
770 23-12-2013 18:50:00 9.9 C 7.66 g/m*3 8.56 C 9.7 km/h
771 23-12-2013 18:55:00 9.9 C 7.66 g/m*3 9.9 C 4.8 km/h
772 23-12-2013 19:00:00 9.8 C 7.61 g/m*3 9.8 C 3.2 km/h
773 23-12-2013 19:05:00 9.9 C 7.66 g/m*3 8.56 C 9.7 km/h
774 23-12-2013 19:10:00 10.1 C 7.66 g/m*3 10.1 C 4.8 km/h
775 23-12-2013 19:15:00 10.2 C 7.71 g/m*3 10.2 C 3.2 km/h
Sensor: Nr:Datum:Temp:Abs-Feuchte:Windchill:Wind:
Aussen-T/F 776 23-12-2013 19:20:00 9.9 C 7.56 g/m*3 9.9 C 4.8 km/h
777 23-12-2013 19:25:00 9.9 C 7.56 g/m*3 9.9 C 4.8 km/h
778 23-12-2013 19:30:00 9.9 C 7.56 g/m*3 9.9 C 4.8 km/h
779 23-12-2013 19:50:00 10 C 7.52 g/m*3 8.68 C 9.7 km/h
780 23-12-2013 19:55:00 10.1 C 7.47 g/m*3 8.8 C 9.7 km/h
781 23-12-2013 20:00:00 10.3 C 7.57 g/m*3 9.72 C 6.4 km/h
782 23-12-2013 20:05:00 10.4 C 7.52 g/m*3 9.16 C 9.7 km/h
783 23-12-2013 20:10:00 10.4 C 7.52 g/m*3 10.4 C 4.8 km/h
784 23-12-2013 20:15:00 10.2 C 7.42 g/m*3 10.2 C 4.8 km/h
785 23-12-2013 20:20:00 10.3 C 7.47 g/m*3 9.72 C 6.4 km/h
786 23-12-2013 20:25:00 10.3 C 7.47 g/m*3 9.04 C 9.7 km/h
787 23-12-2013 20:30:00 10.3 C 7.47 g/m*3 9.04 C 9.7 km/h
788 23-12-2013 20:35:00 10.2 C 7.42 g/m*3 8.22 C 14.5 km/h
789 23-12-2013 20:40:00 10.2 C 7.42 g/m*3 9.6 C 6.4 km/h
790 23-12-2013 20:45:00 10.2 C 7.42 g/m*3 9.6 C 6.4 km/h
791 23-12-2013 20:50:00 10.2 C 7.42 g/m*3 8.43 C 12.9 km/h
792 23-12-2013 20:55:00 10.2 C 7.42 g/m*3 8.66 C 11.3 km/h
793 23-12-2013 21:00:00 10.1 C 7.38 g/m*3 9.1 C 8.1 km/h
794 23-12-2013 21:05:00 9.9 C 7.28 g/m*3 8.56 C 9.7 km/h
795 23-12-2013 21:10:00 10.1 C 7.38 g/m*3 8.8 C 9.7 km/h
796 23-12-2013 21:15:00 10.2 C 7.42 g/m*3 10.2 C 4.8 km/h
797 23-12-2013 21:20:00 10.2 C 7.33 g/m*3 9.6 C 6.4 km/h
798 23-12-2013 21:25:00 10.3 C 7.47 g/m*3 9.34 C 8.1 km/h
799 23-12-2013 21:30:00 10.3 C 7.47 g/m*3 9.34 C 8.1 km/h
800 23-12-2013 21:35:00 10.3 C 7.47 g/m*3 8.78 C 11.3 km/h
Sensor: Nr:Datum:Temp:Abs-Feuchte:Windchill:Wind:
Aussen-T/F 801 23-12-2013 21:40:00 10.3 C 7.47 g/m*3 10.3 C 4.8 km/h
802 23-12-2013 21:45:00 10.3 C 7.47 g/m*3 9.04 C 9.7 km/h
803 23-12-2013 21:50:00 10.3 C 7.47 g/m*3 9.34 C 8.1 km/h
804 23-12-2013 21:55:00 10.3 C 7.47 g/m*3 8.78 C 11.3 km/h
805 23-12-2013 22:00:00 10.3 C 7.47 g/m*3 9.34 C 8.1 km/h
806 23-12-2013 22:05:00 10.4 C 7.52 g/m*3 9.16 C 9.7 km/h
807 23-12-2013 22:10:00 10.4 C 7.52 g/m*3 8.9 C 11.3 km/h
808 23-12-2013 22:15:00 10.4 C 7.42 g/m*3 8.9 C 11.3 km/h
809 23-12-2013 22:20:00 10.3 C 7.37 g/m*3 8.78 C 11.3 km/h
810 23-12-2013 22:25:00 10.3 C 7.37 g/m*3 9.04 C 9.7 km/h
811 23-12-2013 22:30:00 10.4 C 7.42 g/m*3 10.4 C 4.8 km/h
812 23-12-2013 22:35:00 10.4 C 7.32 g/m*3 9.16 C 9.7 km/h
813 23-12-2013 22:40:00 10.6 C 7.42 g/m*3 9.14 C 11.3 km/h
814 23-12-2013 22:45:00 10.6 C 7.42 g/m*3 10.06 C 6.4 km/h
815 23-12-2013 22:50:00 10.6 C 7.42 g/m*3 8.71 C 14.5 km/h
816 23-12-2013 22:55:00 10.5 C 7.37 g/m*3 9.95 C 6.4 km/h
817 23-12-2013 23:00:00 10.4 C 7.32 g/m*3 8.47 C 14.5 km/h
818 23-12-2013 23:05:00 10.4 C 7.32 g/m*3 9.46 C 8.1 km/h
819 23-12-2013 23:10:00 10.3 C 7.28 g/m*3 9.04 C 9.7 km/h
820 23-12-2013 23:15:00 10.3 C 7.28 g/m*3 8.55 C 12.9 km/h
821 23-12-2013 23:20:00 10.3 C 7.28 g/m*3 9.34 C 8.1 km/h
822 23-12-2013 23:25:00 10.4 C 7.32 g/m*3 9.46 C 8.1 km/h
823 23-12-2013 23:30:00 10.3 C 7.28 g/m*3 9.04 C 9.7 km/h
824 23-12-2013 23:35:00 10.3 C 7.28 g/m*3 9.34 C 8.1 km/h
825 23-12-2013 23:40:00 10.2 C 7.23 g/m*3 8.92 C 9.7 km/h
Sensor: Nr:Datum:Temp:Abs-Feuchte:Windchill:Wind:
Aussen-T/F 826 23-12-2013 23:45:00 10.1 C 7.19 g/m*3 8.54 C 11.3 km/h
827 23-12-2013 23:50:00 10.1 C 7.19 g/m*3 8.8 C 9.7 km/h
828 23-12-2013 23:55:00 10 C 7.14 g/m*3 9.37 C 6.4 km/h
829 24-12-2013 00:00:00 10 C 7.05 g/m*3 8.42 C 11.3 km/h
830 24-12-2013 00:05:00 10.1 C 7.09 g/m*3 9.48 C 6.4 km/h
831 24-12-2013 00:10:00 10.1 C 7.09 g/m*3 9.1 C 8.1 km/h
832 24-12-2013 00:15:00 10 C 7.05 g/m*3 8.68 C 9.7 km/h
833 24-12-2013 00:20:00 9.9 C 7.1 g/m*3 9.25 C 6.4 km/h
834 24-12-2013 00:25:00 9.8 C 7.05 g/m*3 7.94 C 12.9 km/h
835 24-12-2013 00:30:00 9.7 C 6.91 g/m*3 8.63 C 8.1 km/h
836 24-12-2013 00:35:00 9.8 C 6.96 g/m*3 8.45 C 9.7 km/h
837 24-12-2013 00:40:00 9.9 C 7 g/m*3 9.25 C 6.4 km/h
838 24-12-2013 00:45:00 9.8 C 6.87 g/m*3 8.18 C 11.3 km/h
839 24-12-2013 00:50:00 9.8 C 6.87 g/m*3 9.8 C 4.8 km/h
840 24-12-2013 00:55:00 9.9 C 6.91 g/m*3 8.3 C 11.3 km/h
841 24-12-2013 01:00:00 10.1 C 7 g/m*3 8.1 C 14.5 km/h
842 24-12-2013 01:05:00 10 C 6.95 g/m*3 9.37 C 6.4 km/h
843 24-12-2013 01:10:00 9.9 C 6.82 g/m*3 8.87 C 8.1 km/h
844 24-12-2013 01:15:00 9.8 C 6.87 g/m*3 9.8 C 3.2 km/h
845 24-12-2013 01:20:00 9.8 C 6.87 g/m*3 9.8 C 4.8 km/h
846 24-12-2013 01:25:00 9.7 C 6.82 g/m*3 9.02 C 6.4 km/h
847 24-12-2013 01:30:00 9.5 C 6.92 g/m*3 8.79 C 6.4 km/h
848 24-12-2013 01:35:00 9.3 C 6.74 g/m*3 7.12 C 14.5 km/h
849 24-12-2013 01:40:00 9.2 C 6.79 g/m*3 9.2 C 4.8 km/h
850 24-12-2013 01:45:00 9.2 C 6.79 g/m*3 7.73 C 9.7 km/h
Sensor: Nr:Datum:Temp:Abs-Feuchte:Windchill:Wind:
Aussen-T/F 851 24-12-2013 01:50:00 9.3 C 6.83 g/m*3 8.56 C 6.4 km/h
852 24-12-2013 01:55:00 9.1 C 6.74 g/m*3 9.1 C 4.8 km/h
853 24-12-2013 02:00:00 8.9 C 6.75 g/m*3 8.1 C 6.4 km/h
854 24-12-2013 02:05:00 8.6 C 6.7 g/m*3 8.6 C 3.2 km/h
855 24-12-2013 02:10:00 8.5 C 6.66 g/m*3 7.64 C 6.4 km/h
856 24-12-2013 02:15:00 8.6 C 6.62 g/m*3 7.01 C 9.7 km/h
857 24-12-2013 02:20:00 8.9 C 6.66 g/m*3 8.1 C 6.4 km/h
858 24-12-2013 02:25:00 9 C 6.61 g/m*3 7.49 C 9.7 km/h
859 24-12-2013 02:30:00 9.2 C 6.7 g/m*3 8.05 C 8.1 km/h
860 24-12-2013 02:35:00 9.1 C 6.65 g/m*3 7.93 C 8.1 km/h
861 24-12-2013 02:40:00 8.9 C 6.66 g/m*3 8.9 C 3.2 km/h
862 24-12-2013 02:45:00 8.8 C 6.61 g/m*3 8.8 C 4.8 km/h
863 24-12-2013 02:50:00 8.9 C 6.66 g/m*3 7.37 C 9.7 km/h
864 24-12-2013 02:55:00 8.9 C 6.57 g/m*3 7.69 C 8.1 km/h
865 24-12-2013 03:00:00 9.2 C 6.61 g/m*3 8.45 C 6.4 km/h
866 24-12-2013 03:05:00 9.3 C 6.65 g/m*3 8.16 C 8.1 km/h
867 24-12-2013 03:10:00 9.2 C 6.7 g/m*3 8.45 C 6.4 km/h
868 24-12-2013 03:15:00 8.8 C 6.7 g/m*3 7.58 C 8.1 km/h
869 24-12-2013 03:20:00 8.6 C 6.7 g/m*3 7.75 C 6.4 km/h
870 24-12-2013 03:25:00 8.3 C 6.57 g/m*3 8.3 C 3.2 km/h
871 24-12-2013 03:30:00 8.2 C 6.62 g/m*3 8.2 C 3.2 km/h
872 24-12-2013 03:35:00 8.2 C 6.62 g/m*3 7.29 C 6.4 km/h
873 24-12-2013 03:40:00 8.2 C 6.7 g/m*3 8.2 C 4.8 km/h
874 24-12-2013 03:45:00 8.1 C 6.57 g/m*3 7.17 C 6.4 km/h
875 24-12-2013 03:50:00 8.1 C 6.74 g/m*3 8.1 C 3.2 km/h
Sensor: Nr:Datum:Temp:Abs-Feuchte:Windchill:Wind:
Aussen-T/F 876 24-12-2013 03:55:00 8 C 6.7 g/m*3 8 C 4.8 km/h
877 24-12-2013 04:00:00 7.9 C 6.65 g/m*3 7.9 C 3.2 km/h
878 24-12-2013 04:05:00 8.2 C 6.7 g/m*3 6.87 C 8.1 km/h
879 24-12-2013 04:10:00 8.4 C 6.7 g/m*3 8.4 C 4.8 km/h
880 24-12-2013 04:15:00 8.6 C 6.79 g/m*3 8.6 C 3.2 km/h
881 24-12-2013 04:20:00 8.5 C 6.74 g/m*3 8.5 C 3.2 km/h
882 24-12-2013 04:25:00 8.6 C 6.79 g/m*3 8.6 C 3.2 km/h
883 24-12-2013 04:30:00 8.4 C 6.7 g/m*3 7.11 C 8.1 km/h
884 24-12-2013 04:35:00 8.4 C 6.7 g/m*3 7.52 C 6.4 km/h
885 24-12-2013 04:40:00 8.7 C 6.75 g/m*3 7.13 C 9.7 km/h
886 24-12-2013 04:45:00 9 C 6.79 g/m*3 8.21 C 6.4 km/h
887 24-12-2013 04:50:00 9.3 C 6.83 g/m*3 8.56 C 6.4 km/h
888 24-12-2013 04:55:00 9.5 C 6.83 g/m*3 8.79 C 6.4 km/h
889 24-12-2013 05:00:00 9.6 C 6.78 g/m*3 8.52 C 8.1 km/h
890 24-12-2013 05:05:00 9.6 C 6.78 g/m*3 9.6 C 4.8 km/h
891 24-12-2013 05:10:00 9.4 C 6.78 g/m*3 8.28 C 8.1 km/h
892 24-12-2013 05:15:00 9.3 C 6.83 g/m*3 7.12 C 14.5 km/h
893 24-12-2013 05:20:00 9.6 C 6.87 g/m*3 9.6 C 4.8 km/h
894 24-12-2013 05:25:00 9.4 C 6.78 g/m*3 9.4 C 4.8 km/h
895 24-12-2013 05:30:00 9.5 C 6.83 g/m*3 9.5 C 3.2 km/h
896 24-12-2013 05:35:00 9.7 C 6.91 g/m*3 8.63 C 8.1 km/h
897 24-12-2013 05:40:00 9.8 C 6.87 g/m*3 9.8 C 4.8 km/h
898 24-12-2013 05:45:00 9.9 C 6.91 g/m*3 9.9 C 4.8 km/h
899 24-12-2013 05:50:00 9.8 C 6.87 g/m*3 8.75 C 8.1 km/h
900 24-12-2013 05:55:00 9.8 C 6.87 g/m*3 9.8 C 4.8 km/h
Sensor: Nr:Datum:Temp:Abs-Feuchte:Windchill:Wind:
Aussen-T/F 901 24-12-2013 06:00:00 9.9 C 6.91 g/m*3 9.25 C 6.4 km/h
902 24-12-2013 06:05:00 10.1 C 7 g/m*3 8.8 C 9.7 km/h
903 24-12-2013 06:10:00 10.1 C 7 g/m*3 9.48 C 6.4 km/h
904 24-12-2013 06:15:00 9.9 C 7 g/m*3 9.9 C 4.8 km/h
905 24-12-2013 06:20:00 9.8 C 6.96 g/m*3 9.8 C 4.8 km/h
906 24-12-2013 06:25:00 9.9 C 7 g/m*3 9.25 C 6.4 km/h
907 24-12-2013 06:30:00 9.9 C 7 g/m*3 9.9 C 3.2 km/h
908 24-12-2013 06:35:00 9.7 C 6.91 g/m*3 9.02 C 6.4 km/h
909 24-12-2013 06:40:00 9.6 C 6.96 g/m*3 7.7 C 12.9 km/h
910 24-12-2013 06:45:00 9.8 C 6.96 g/m*3 9.8 C 4.8 km/h
911 24-12-2013 06:50:00 9.7 C 7.01 g/m*3 9.7 C 3.2 km/h
912 24-12-2013 06:55:00 9.4 C 6.87 g/m*3 9.4 C 3.2 km/h
913 24-12-2013 07:00:00 9.4 C 6.96 g/m*3 9.4 C 3.2 km/h
914 24-12-2013 07:05:00 9.5 C 7.1 g/m*3 9.5 C 4.8 km/h
915 24-12-2013 07:10:00 9.4 C 6.96 g/m*3 8.28 C 8.1 km/h
916 24-12-2013 07:15:00 9.4 C 6.96 g/m*3 9.4 C 3.2 km/h
917 24-12-2013 07:20:00 9.4 C 7.05 g/m*3 8.68 C 6.4 km/h
918 24-12-2013 07:25:00 9.7 C 7.1 g/m*3 9.02 C 6.4 km/h
919 24-12-2013 07:30:00 9.8 C 7.05 g/m*3 8.75 C 8.1 km/h
920 24-12-2013 07:35:00 9.8 C 6.96 g/m*3 8.75 C 8.1 km/h
921 24-12-2013 07:40:00 10.1 C 7.09 g/m*3 10.1 C 4.8 km/h
922 24-12-2013 07:45:00 10.6 C 7.03 g/m*3 8.71 C 14.5 km/h
923 24-12-2013 07:50:00 11.2 C 7.2 g/m*3 11.2 C 11.3 km/h
924 24-12-2013 07:55:00 11.2 C 7.1 g/m*3 11.2 C 8.1 km/h
925 24-12-2013 08:00:00 11.6 C 7.17 g/m*3 11.6 C 17.7 km/h
Sensor: Nr:Datum:Temp:Abs-Feuchte:Windchill:Wind:
Aussen-T/F 926 24-12-2013 08:05:00 11.8 C 7.16 g/m*3 11.8 C 9.7 km/h
927 24-12-2013 08:10:00 11.9 C 7.2 g/m*3 11.9 C 6.4 km/h
928 24-12-2013 08:15:00 11.8 C 7.16 g/m*3 11.8 C 4.8 km/h
929 24-12-2013 08:20:00 11.8 C 7.16 g/m*3 11.8 C 3.2 km/h
930 24-12-2013 08:25:00 11.8 C 7.37 g/m*3 11.8 C 9.7 km/h
931 24-12-2013 08:30:00 11.7 C 7.43 g/m*3 11.7 C 4.8 km/h
932 24-12-2013 08:35:00 11.6 C 7.28 g/m*3 11.6 C 9.7 km/h
933 24-12-2013 08:40:00 11.8 C 7.16 g/m*3 11.8 C 8.1 km/h
934 24-12-2013 08:45:00 12 C 7.25 g/m*3 12 C 8.1 km/h
935 24-12-2013 08:50:00 12.1 C 7.29 g/m*3 12.1 C 9.7 km/h
936 24-12-2013 08:55:00 12.2 C 7.23 g/m*3 12.2 C 4.8 km/h
937 24-12-2013 09:00:00 12.3 C 7.28 g/m*3 12.3 C 11.3 km/h
938 24-12-2013 09:05:00 12.3 C 7.28 g/m*3 12.3 C 9.7 km/h
939 24-12-2013 09:10:00 12.3 C 7.28 g/m*3 12.3 C 4.8 km/h
940 24-12-2013 09:15:00 12.3 C 7.28 g/m*3 12.3 C 12.9 km/h
941 24-12-2013 09:20:00 12.3 C 7.38 g/m*3 12.3 C 4.8 km/h
942 24-12-2013 09:25:00 12.2 C 7.23 g/m*3 12.2 C 6.4 km/h
943 24-12-2013 09:30:00 12.3 C 7.49 g/m*3 12.3 C 4.8 km/h
944 24-12-2013 09:35:00 12.3 C 7.28 g/m*3 12.3 C 8.1 km/h
945 24-12-2013 09:40:00 12.3 C 7.38 g/m*3 12.3 C 3.2 km/h
946 24-12-2013 09:45:00 12.2 C 7.45 g/m*3 12.2 C 3.2 km/h
947 24-12-2013 09:50:00 12.1 C 7.61 g/m*3 12.1 C 16.1 km/h
948 24-12-2013 09:55:00 12.3 C 7.38 g/m*3 12.3 C 12.9 km/h
949 24-12-2013 10:00:00 12.5 C 7.48 g/m*3 12.5 C 8.1 km/h
950 24-12-2013 10:05:00 12.6 C 7.63 g/m*3 12.6 C 4.8 km/h
Sensor: Nr:Datum:Temp:Abs-Feuchte:Windchill:Wind:
Aussen-T/F 951 24-12-2013 10:10:00 12.6 C 7.63 g/m*3 12.6 C 6.4 km/h
952 24-12-2013 10:15:00 12.5 C 7.59 g/m*3 12.5 C 4.8 km/h
953 24-12-2013 10:20:00 12.6 C 7.52 g/m*3 12.6 C 4.8 km/h
954 24-12-2013 10:25:00 12.7 C 7.68 g/m*3 12.7 C 8.1 km/h
955 24-12-2013 10:30:00 12.7 C 7.46 g/m*3 12.7 C 8.1 km/h
956 24-12-2013 10:35:00 12.8 C 7.62 g/m*3 12.8 C 11.3 km/h
957 24-12-2013 10:40:00 12.9 C 7.66 g/m*3 12.9 C 14.5 km/h
958 24-12-2013 10:45:00 13.1 C 7.53 g/m*3 13.1 C 9.7 km/h
959 24-12-2013 10:50:00 13.2 C 7.46 g/m*3 13.2 C 12.9 km/h
960 24-12-2013 10:55:00 13.4 C 7.56 g/m*3 13.4 C 11.3 km/h
961 24-12-2013 11:00:00 13.5 C 7.6 g/m*3 13.5 C 11.3 km/h
962 24-12-2013 11:05:00 13.7 C 7.46 g/m*3 13.7 C 19.3 km/h
963 24-12-2013 11:10:00 13.8 C 7.39 g/m*3 13.8 C 27.4 km/h
964 24-12-2013 11:15:00 13.9 C 7.43 g/m*3 13.9 C 27.4 km/h
965 24-12-2013 11:20:00 13.9 C 7.55 g/m*3 13.9 C 20.9 km/h
966 24-12-2013 11:25:00 13.9 C 7.43 g/m*3 13.9 C 22.5 km/h
967 24-12-2013 11:30:00 13.9 C 7.43 g/m*3 13.9 C 16.1 km/h
968 24-12-2013 11:35:00 14 C 7.48 g/m*3 14 C 11.3 km/h
969 24-12-2013 11:40:00 14 C 7.48 g/m*3 14 C 6.4 km/h
970 24-12-2013 11:45:00 14 C 7.48 g/m*3 14 C 8.1 km/h
971 24-12-2013 11:50:00 14 C 7.6 g/m*3 14 C 8.1 km/h
972 24-12-2013 11:55:00 14 C 7.48 g/m*3 14 C 14.5 km/h
973 24-12-2013 12:00:00 14.1 C 7.52 g/m*3 14.1 C 12.9 km/h
974 24-12-2013 12:05:00 14.1 C 7.52 g/m*3 14.1 C 14.5 km/h
975 24-12-2013 12:10:00 14.2 C 7.57 g/m*3 14.2 C 12.9 km/h
Sensor: Nr:Datum:Temp:Abs-Feuchte:Windchill:Wind:
Aussen-T/F 976 24-12-2013 12:15:00 14.2 C 7.57 g/m*3 14.2 C 14.5 km/h
977 24-12-2013 12:20:00 14.1 C 7.52 g/m*3 14.1 C 12.9 km/h
978 24-12-2013 12:25:00 14.1 C 7.65 g/m*3 14.1 C 9.7 km/h
979 24-12-2013 12:30:00 14.1 C 7.77 g/m*3 14.1 C 4.8 km/h
980 24-12-2013 12:35:00 13.9 C 7.67 g/m*3 13.9 C 8.1 km/h
981 24-12-2013 12:40:00 13.8 C 7.74 g/m*3 13.8 C 4.8 km/h
982 24-12-2013 12:45:00 13.7 C 8.05 g/m*3 13.7 C 6.4 km/h
983 24-12-2013 12:50:00 13.7 C 7.93 g/m*3 13.7 C 9.7 km/h
984 24-12-2013 12:55:00 13.6 C 8 g/m*3 13.6 C 8.1 km/h
985 24-12-2013 13:00:00 13.4 C 8.14 g/m*3 13.4 C 4.8 km/h
986 24-12-2013 13:05:00 13.4 C 7.67 g/m*3 13.4 C 12.9 km/h
987 24-12-2013 13:10:00 13.6 C 7.89 g/m*3 13.6 C 12.9 km/h
988 24-12-2013 13:15:00 13.8 C 7.86 g/m*3 13.8 C 20.9 km/h
989 24-12-2013 13:20:00 13.9 C 7.67 g/m*3 13.9 C 14.5 km/h
990 24-12-2013 13:25:00 14.1 C 7.77 g/m*3 14.1 C 4.8 km/h
991 24-12-2013 13:30:00 14.1 C 7.89 g/m*3 14.1 C 6.4 km/h
992 24-12-2013 13:35:00 14 C 7.84 g/m*3 14 C 6.4 km/h
993 24-12-2013 13:40:00 13.9 C 7.79 g/m*3 13.9 C 14.5 km/h
994 24-12-2013 13:45:00 14 C 7.6 g/m*3 14 C 6.4 km/h
995 24-12-2013 13:50:00 14 C 7.72 g/m*3 14 C 6.4 km/h
996 24-12-2013 13:55:00 14.1 C 7.77 g/m*3 14.1 C 17.7 km/h
997 24-12-2013 14:00:00 14 C 7.84 g/m*3 14 C 9.7 km/h
998 24-12-2013 14:05:00 13.9 C 7.79 g/m*3 13.9 C 9.7 km/h
999 24-12-2013 14:10:00 13.9 C 7.79 g/m*3 13.9 C 8.1 km/h
1000 24-12-2013 14:15:00 13.9 C 7.67 g/m*3 13.9 C 14.5 km/h
Sensor: Nr:Datum:Temp:Abs-Feuchte:Windchill:Wind:
Aussen-T/F 1001 24-12-2013 14:20:00 14 C 7.72 g/m*3 14 C 11.3 km/h
1002 24-12-2013 14:25:00 14.1 C 7.89 g/m*3 14.1 C 6.4 km/h
1003 24-12-2013 14:30:00 14.1 C 7.77 g/m*3 14.1 C 9.7 km/h
1004 24-12-2013 14:35:00 14 C 7.84 g/m*3 14 C 9.7 km/h
1005 24-12-2013 14:40:00 13.9 C 7.91 g/m*3 13.9 C 9.7 km/h
1006 24-12-2013 14:45:00 13.8 C 8.22 g/m*3 13.8 C 8.1 km/h
1007 24-12-2013 14:50:00 13.7 C 8.29 g/m*3 13.7 C 8.1 km/h
1008 24-12-2013 14:55:00 13.6 C 8.24 g/m*3 13.6 C 17.7 km/h
1009 24-12-2013 15:00:00 13.4 C 8.49 g/m*3 13.4 C 6.4 km/h
1010 24-12-2013 15:05:00 13.1 C 8.67 g/m*3 13.1 C 3.2 km/h
1011 24-12-2013 15:10:00 12.8 C 8.74 g/m*3 12.8 C 4.8 km/h
1012 24-12-2013 15:15:00 12.8 C 8.29 g/m*3 12.8 C 11.3 km/h
1013 24-12-2013 15:20:00 13.1 C 8.44 g/m*3 13.1 C 8.1 km/h
1014 24-12-2013 15:25:00 13.1 C 8.22 g/m*3 13.1 C 9.7 km/h
1015 24-12-2013 15:30:00 13.2 C 8.27 g/m*3 13.2 C 6.4 km/h
1016 24-12-2013 15:35:00 13.2 C 8.27 g/m*3 13.2 C 12.9 km/h
1017 24-12-2013 15:40:00 13.2 C 8.27 g/m*3 13.2 C 14.5 km/h
1018 24-12-2013 15:45:00 13.2 C 8.38 g/m*3 13.2 C 9.7 km/h
1019 24-12-2013 15:50:00 13 C 8.28 g/m*3 13 C 4.8 km/h
1020 24-12-2013 15:55:00 12.9 C 8.34 g/m*3 12.9 C 9.7 km/h
1021 24-12-2013 16:00:00 12.9 C 8.23 g/m*3 12.9 C 6.4 km/h
1022 24-12-2013 16:05:00 13 C 8.28 g/m*3 13 C 12.9 km/h
1023 24-12-2013 16:10:00 13 C 8.28 g/m*3 13 C 3.2 km/h
1024 24-12-2013 16:15:00 12.9 C 8.34 g/m*3 12.9 C 11.3 km/h
1025 24-12-2013 16:20:00 12.8 C 8.4 g/m*3 12.8 C 4.8 km/h
Sensor: Nr:Datum:Temp:Abs-Feuchte:Windchill:Wind:
Aussen-T/F 1026 24-12-2013 16:25:00 12.6 C 8.52 g/m*3 12.6 C 3.2 km/h
1027 24-12-2013 16:30:00 12.4 C 8.3 g/m*3 12.4 C 11.3 km/h
1028 24-12-2013 16:35:00 12.6 C 8.3 g/m*3 12.6 C 16.1 km/h
1029 24-12-2013 16:40:00 12.7 C 8.35 g/m*3 12.7 C 8.1 km/h
1030 24-12-2013 16:45:00 12.7 C 8.35 g/m*3 12.7 C 8.1 km/h
1031 24-12-2013 16:50:00 12.7 C 8.24 g/m*3 12.7 C 8.1 km/h
1032 24-12-2013 16:55:00 12.7 C 8.24 g/m*3 12.7 C 9.7 km/h
1033 24-12-2013 17:00:00 12.8 C 8.29 g/m*3 12.8 C 8.1 km/h
1034 24-12-2013 17:05:00 12.7 C 8.35 g/m*3 12.7 C 12.9 km/h
1035 24-12-2013 17:10:00 12.7 C 8.35 g/m*3 12.7 C 4.8 km/h
1036 24-12-2013 17:15:00 12.6 C 8.3 g/m*3 12.6 C 4.8 km/h
1037 24-12-2013 17:20:00 12.7 C 8.24 g/m*3 12.7 C 4.8 km/h
1038 24-12-2013 17:25:00 12.7 C 8.24 g/m*3 12.7 C 11.3 km/h
1039 24-12-2013 17:30:00 12.8 C 8.29 g/m*3 12.8 C 9.7 km/h
1040 24-12-2013 17:35:00 12.7 C 8.35 g/m*3 12.7 C 11.3 km/h
1041 24-12-2013 17:40:00 12.8 C 8.29 g/m*3 12.8 C 17.7 km/h
1042 24-12-2013 17:45:00 12.8 C 8.29 g/m*3 12.8 C 8.1 km/h
1043 24-12-2013 17:50:00 12.8 C 8.29 g/m*3 12.8 C 6.4 km/h
1044 24-12-2013 17:55:00 12.8 C 8.29 g/m*3 12.8 C 11.3 km/h
1045 24-12-2013 18:00:00 12.8 C 8.29 g/m*3 12.8 C 3.2 km/h
1046 24-12-2013 18:05:00 12.8 C 8.29 g/m*3 12.8 C 3.2 km/h
1047 24-12-2013 18:10:00 12.8 C 8.18 g/m*3 12.8 C 6.4 km/h
1048 24-12-2013 18:15:00 12.8 C 8.18 g/m*3 12.8 C 4.8 km/h
1049 24-12-2013 18:20:00 12.7 C 8.24 g/m*3 12.7 C 4.8 km/h
1050 24-12-2013 18:25:00 12.7 C 8.24 g/m*3 12.7 C 9.7 km/h
Sensor: Nr:Datum:Temp:Abs-Feuchte:Windchill:Wind:
Aussen-T/F 1051 24-12-2013 18:30:00 12.7 C 8.24 g/m*3 12.7 C 8.1 km/h
1052 24-12-2013 18:35:00 12.8 C 8.18 g/m*3 12.8 C 9.7 km/h
1053 24-12-2013 18:40:00 12.8 C 8.18 g/m*3 12.8 C 6.4 km/h
1054 24-12-2013 18:45:00 12.8 C 8.18 g/m*3 12.8 C 6.4 km/h
1055 24-12-2013 18:50:00 12.8 C 8.29 g/m*3 12.8 C 9.7 km/h
1056 24-12-2013 18:55:00 12.9 C 8.23 g/m*3 12.9 C 8.1 km/h
1057 24-12-2013 19:00:00 12.9 C 8.23 g/m*3 12.9 C 8.1 km/h
1058 24-12-2013 19:05:00 12.9 C 8.34 g/m*3 12.9 C 8.1 km/h
1059 24-12-2013 19:10:00 12.9 C 8.23 g/m*3 12.9 C 6.4 km/h
1060 24-12-2013 19:15:00 12.8 C 8.4 g/m*3 12.8 C 3.2 km/h
1061 24-12-2013 19:20:00 12.7 C 8.24 g/m*3 12.7 C 6.4 km/h
1062 24-12-2013 19:25:00 12.6 C 8.19 g/m*3 12.6 C 6.4 km/h
1063 24-12-2013 19:30:00 12.6 C 8.3 g/m*3 12.6 C 3.2 km/h
1064 24-12-2013 19:35:00 12.6 C 8.19 g/m*3 12.6 C 12.9 km/h
1065 24-12-2013 19:40:00 12.7 C 8.24 g/m*3 12.7 C 9.7 km/h
1066 24-12-2013 19:45:00 12.7 C 8.24 g/m*3 12.7 C 9.7 km/h
1067 24-12-2013 19:50:00 12.7 C 8.24 g/m*3 12.7 C 6.4 km/h
1068 24-12-2013 19:55:00 12.7 C 8.24 g/m*3 12.7 C 16.1 km/h
1069 24-12-2013 20:00:00 12.8 C 8.18 g/m*3 12.8 C 11.3 km/h
1070 24-12-2013 20:05:00 12.7 C 8.13 g/m*3 12.7 C 11.3 km/h
1071 24-12-2013 20:10:00 12.7 C 8.13 g/m*3 12.7 C 12.9 km/h
1072 24-12-2013 20:15:00 12.7 C 8.13 g/m*3 12.7 C 8.1 km/h
1073 24-12-2013 20:20:00 12.7 C 8.24 g/m*3 12.7 C 8.1 km/h
1074 24-12-2013 20:25:00 12.7 C 8.24 g/m*3 12.7 C 6.4 km/h
1075 24-12-2013 20:30:00 12.7 C 8.35 g/m*3 12.7 C 9.7 km/h
Sensor: Nr:Datum:Temp:Abs-Feuchte:Windchill:Wind:
Aussen-T/F 1076 24-12-2013 20:35:00 12.7 C 8.35 g/m*3 12.7 C 6.4 km/h
1077 24-12-2013 20:40:00 12.4 C 8.3 g/m*3 12.4 C 6.4 km/h
1078 24-12-2013 20:45:00 12.3 C 8.36 g/m*3 12.3 C 6.4 km/h
1079 24-12-2013 20:50:00 12.3 C 8.36 g/m*3 12.3 C 8.1 km/h
1080 24-12-2013 20:55:00 12.3 C 8.47 g/m*3 12.3 C 8.1 km/h
1081 24-12-2013 21:00:00 12.2 C 8.52 g/m*3 12.2 C 8.1 km/h
1082 24-12-2013 21:05:00 12.2 C 8.52 g/m*3 12.2 C 8.1 km/h
1083 24-12-2013 21:10:00 12.2 C 8.52 g/m*3 12.2 C 6.4 km/h
1084 24-12-2013 21:15:00 12.2 C 8.74 g/m*3 12.2 C 11.3 km/h
1085 24-12-2013 21:20:00 11.8 C 8.53 g/m*3 11.8 C 9.7 km/h
1086 24-12-2013 21:25:00 11.9 C 8.58 g/m*3 11.9 C 12.9 km/h
1087 24-12-2013 21:30:00 11.9 C 8.58 g/m*3 11.9 C 16.1 km/h
1088 24-12-2013 21:35:00 11.9 C 8.58 g/m*3 11.9 C 4.8 km/h
1089 24-12-2013 21:40:00 11.9 C 8.58 g/m*3 11.9 C 8.1 km/h
1090 24-12-2013 21:45:00 11.8 C 8.63 g/m*3 11.8 C 12.9 km/h
1091 24-12-2013 21:50:00 11.8 C 8.63 g/m*3 11.8 C 9.7 km/h
1092 24-12-2013 22:10:00 11.4 C 8.72 g/m*3 11.4 C 4.8 km/h
1093 24-12-2013 22:15:00 11.4 C 8.72 g/m*3 11.4 C 8.1 km/h
1094 24-12-2013 22:20:00 11.5 C 8.78 g/m*3 11.5 C 9.7 km/h
1095 24-12-2013 22:25:00 11.6 C 8.83 g/m*3 11.6 C 4.8 km/h
1096 24-12-2013 22:30:00 11.3 C 8.77 g/m*3 11.3 C 4.8 km/h
1097 24-12-2013 22:35:00 11.2 C 8.82 g/m*3 11.2 C 4.8 km/h
1098 24-12-2013 22:40:00 10.9 C 8.75 g/m*3 10.9 C 3.2 km/h
1099 24-12-2013 22:45:00 10.8 C 8.7 g/m*3 10.29 C 6.4 km/h
1100 24-12-2013 22:50:00 10.8 C 8.8 g/m*3 10.8 C 1.6 km/h
Sensor: Nr:Datum:Temp:Abs-Feuchte:Windchill:Wind:
Aussen-T/F 1101 24-12-2013 22:55:00 10.7 C 8.74 g/m*3 10.7 C 4.8 km/h
1102 24-12-2013 23:00:00 10.6 C 8.69 g/m*3 10.6 C 3.2 km/h
1103 24-12-2013 23:05:00 10.4 C 8.67 g/m*3 10.4 C 4.8 km/h
1104 24-12-2013 23:10:00 10.4 C 8.67 g/m*3 10.4 C 3.2 km/h
1105 24-12-2013 23:15:00 10.5 C 8.63 g/m*3 10.5 C 3.2 km/h
1106 24-12-2013 23:20:00 10.4 C 8.67 g/m*3 10.4 C 4.8 km/h
1107 24-12-2013 23:25:00 10.5 C 8.53 g/m*3 10.5 C 4.8 km/h
1108 24-12-2013 23:30:00 10.6 C 8.69 g/m*3 10.6 C 4.8 km/h
1109 24-12-2013 23:35:00 10.5 C 8.53 g/m*3 10.5 C 3.2 km/h
1110 24-12-2013 23:40:00 10.6 C 8.49 g/m*3 9.69 C 8.1 km/h
1111 24-12-2013 23:45:00 10.8 C 8.6 g/m*3 10.8 C 4.8 km/h
1112 24-12-2013 23:50:00 10.8 C 8.6 g/m*3 10.8 C 3.2 km/h
1113 24-12-2013 23:55:00 10.8 C 8.6 g/m*3 9.64 C 9.7 km/h
1114 25-12-2013 00:00:00 10.8 C 8.5 g/m*3 9.93 C 8.1 km/h
1115 25-12-2013 00:05:00 11 C 8.61 g/m*3 10.16 C 8.1 km/h
1116 25-12-2013 00:10:00 11 C 8.61 g/m*3 9.4 C 12.9 km/h
1117 25-12-2013 00:15:00 11 C 8.61 g/m*3 9.4 C 12.9 km/h
1118 25-12-2013 00:20:00 11 C 8.51 g/m*3 10.52 C 6.4 km/h
1119 25-12-2013 00:25:00 10.9 C 8.55 g/m*3 10.9 C 4.8 km/h
1120 25-12-2013 00:30:00 10.8 C 8.5 g/m*3 10.8 C 4.8 km/h
1121 25-12-2013 00:35:00 10.8 C 8.5 g/m*3 10.29 C 6.4 km/h
1122 25-12-2013 00:40:00 10.7 C 8.55 g/m*3 9.81 C 8.1 km/h
1123 25-12-2013 00:45:00 10.7 C 8.45 g/m*3 10.18 C 6.4 km/h
1124 25-12-2013 00:50:00 10.7 C 8.45 g/m*3 9.52 C 9.7 km/h
1125 25-12-2013 00:55:00 10.9 C 8.55 g/m*3 10.04 C 8.1 km/h
Sensor: Nr:Datum:Temp:Abs-Feuchte:Windchill:Wind:
Aussen-T/F 1126 25-12-2013 01:00:00 10.9 C 8.55 g/m*3 10.41 C 6.4 km/h
1127 25-12-2013 01:05:00 10.8 C 8.5 g/m*3 10.29 C 6.4 km/h
1128 25-12-2013 01:10:00 10.8 C 8.6 g/m*3 10.29 C 6.4 km/h
1129 25-12-2013 01:15:00 10.8 C 8.7 g/m*3 10.29 C 6.4 km/h
1130 25-12-2013 01:20:00 10.7 C 8.64 g/m*3 10.7 C 4.8 km/h
1131 25-12-2013 01:25:00 10.6 C 8.59 g/m*3 10.6 C 4.8 km/h
1132 25-12-2013 01:30:00 10.6 C 8.59 g/m*3 9.4 C 9.7 km/h
1133 25-12-2013 01:35:00 10.6 C 8.69 g/m*3 10.6 C 3.2 km/h
1134 25-12-2013 01:40:00 10.6 C 8.69 g/m*3 10.6 C 4.8 km/h
1135 25-12-2013 01:45:00 10.4 C 8.58 g/m*3 10.4 C 3.2 km/h
1136 25-12-2013 01:50:00 10.4 C 8.58 g/m*3 8.9 C 11.3 km/h
1137 25-12-2013 01:55:00 10.5 C 8.53 g/m*3 9.57 C 8.1 km/h
1138 25-12-2013 02:00:00 10.6 C 8.59 g/m*3 10.06 C 6.4 km/h
1139 25-12-2013 02:05:00 10.7 C 8.55 g/m*3 9.26 C 11.3 km/h
1140 25-12-2013 02:10:00 10.8 C 8.6 g/m*3 9.93 C 8.1 km/h
1141 25-12-2013 02:15:00 10.8 C 8.6 g/m*3 10.8 C 4.8 km/h
1142 25-12-2013 02:20:00 10.7 C 8.55 g/m*3 9.81 C 8.1 km/h
1143 25-12-2013 02:25:00 10.8 C 8.6 g/m*3 9.16 C 12.9 km/h
1144 25-12-2013 02:30:00 10.7 C 8.55 g/m*3 9.81 C 8.1 km/h
1145 25-12-2013 02:35:00 10.7 C 8.55 g/m*3 10.18 C 6.4 km/h
1146 25-12-2013 02:40:00 10.6 C 8.49 g/m*3 10.06 C 6.4 km/h
1147 25-12-2013 02:45:00 10.5 C 8.53 g/m*3 9.95 C 6.4 km/h
1148 25-12-2013 02:50:00 10.6 C 8.49 g/m*3 10.06 C 6.4 km/h
1149 25-12-2013 02:55:00 10.6 C 8.59 g/m*3 10.6 C 4.8 km/h
1150 25-12-2013 03:00:00 10.7 C 8.55 g/m*3 9.52 C 9.7 km/h
Sensor: Nr:Datum:Temp:Abs-Feuchte:Windchill:Wind:
Aussen-T/F 1151 25-12-2013 03:05:00 10.8 C 8.6 g/m*3 10.8 C 3.2 km/h
1152 25-12-2013 03:10:00 10.8 C 8.6 g/m*3 10.8 C 4.8 km/h
1153 25-12-2013 03:15:00 10.8 C 8.7 g/m*3 10.8 C 4.8 km/h
1154 25-12-2013 03:20:00 10.8 C 8.7 g/m*3 10.8 C 3.2 km/h
1155 25-12-2013 03:25:00 10.8 C 8.7 g/m*3 10.8 C 3.2 km/h
1156 25-12-2013 03:30:00 10.7 C 8.74 g/m*3 9.52 C 9.7 km/h
1157 25-12-2013 03:35:00 10.7 C 8.64 g/m*3 10.7 C 3.2 km/h
1158 25-12-2013 03:40:00 10.7 C 8.74 g/m*3 9.81 C 8.1 km/h
1159 25-12-2013 03:45:00 10.9 C 8.75 g/m*3 9.51 C 11.3 km/h
1160 25-12-2013 03:50:00 11 C 8.81 g/m*3 9.21 C 14.5 km/h
1161 25-12-2013 03:55:00 10.9 C 8.85 g/m*3 10.9 C 4.8 km/h
1162 25-12-2013 04:00:00 10.8 C 8.8 g/m*3 10.29 C 6.4 km/h
1163 25-12-2013 04:05:00 10.7 C 8.74 g/m*3 9.81 C 8.1 km/h
1164 25-12-2013 04:10:00 10.8 C 8.8 g/m*3 10.29 C 6.4 km/h
1165 25-12-2013 04:15:00 10.8 C 8.9 g/m*3 10.8 C 4.8 km/h
1166 25-12-2013 04:20:00 10.8 C 8.8 g/m*3 9.93 C 8.1 km/h
1167 25-12-2013 04:25:00 10.8 C 8.9 g/m*3 10.8 C 3.2 km/h
1168 25-12-2013 04:30:00 10.8 C 8.8 g/m*3 9.93 C 8.1 km/h
1169 25-12-2013 04:35:00 10.9 C 8.85 g/m*3 10.04 C 8.1 km/h
1170 25-12-2013 04:40:00 10.8 C 8.9 g/m*3 10.29 C 6.4 km/h
1171 25-12-2013 04:45:00 10.8 C 8.9 g/m*3 10.8 C 3.2 km/h
1172 25-12-2013 04:50:00 10.7 C 8.94 g/m*3 10.7 C 4.8 km/h
1173 25-12-2013 04:55:00 10.6 C 8.88 g/m*3 9.4 C 9.7 km/h
1174 25-12-2013 05:00:00 10.6 C 8.98 g/m*3 9.69 C 8.1 km/h
1175 25-12-2013 05:05:00 10.5 C 8.92 g/m*3 9.57 C 8.1 km/h
Sensor: Nr:Datum:Temp:Abs-Feuchte:Windchill:Wind:
Aussen-T/F 1176 25-12-2013 05:10:00 10.6 C 8.88 g/m*3 10.06 C 6.4 km/h
1177 25-12-2013 05:15:00 10.6 C 8.98 g/m*3 10.6 C 3.2 km/h
1178 25-12-2013 05:20:00 10.5 C 8.92 g/m*3 9.95 C 6.4 km/h
1179 25-12-2013 05:25:00 10.5 C 8.83 g/m*3 8.8 C 12.9 km/h
1180 25-12-2013 05:30:00 10.6 C 8.88 g/m*3 8.92 C 12.9 km/h
1181 25-12-2013 05:35:00 10.6 C 8.88 g/m*3 9.14 C 11.3 km/h
1182 25-12-2013 05:40:00 10.6 C 8.88 g/m*3 9.4 C 9.7 km/h
1183 25-12-2013 05:45:00 10.5 C 8.73 g/m*3 9.02 C 11.3 km/h
1184 25-12-2013 05:50:00 10.4 C 8.77 g/m*3 10.4 C 4.8 km/h
1185 25-12-2013 05:55:00 10.4 C 8.67 g/m*3 9.46 C 8.1 km/h
1186 25-12-2013 06:00:00 10.3 C 8.62 g/m*3 10.3 C 3.2 km/h
1187 25-12-2013 06:05:00 10.2 C 8.66 g/m*3 9.22 C 8.1 km/h
1188 25-12-2013 06:10:00 10.1 C 8.61 g/m*3 8.54 C 11.3 km/h
1189 25-12-2013 06:15:00 10.1 C 8.61 g/m*3 8.54 C 11.3 km/h
1190 25-12-2013 06:20:00 10.1 C 8.61 g/m*3 9.1 C 8.1 km/h
1191 25-12-2013 06:25:00 10.1 C 8.51 g/m*3 8.31 C 12.9 km/h
1192 25-12-2013 06:30:00 10.1 C 8.61 g/m*3 10.1 C 4.8 km/h
1193 25-12-2013 06:35:00 10 C 8.55 g/m*3 10 C 4.8 km/h
1194 25-12-2013 06:40:00 9.9 C 8.5 g/m*3 8.87 C 8.1 km/h
1195 25-12-2013 06:45:00 9.9 C 8.59 g/m*3 9.9 C 4.8 km/h
1196 25-12-2013 06:50:00 9.8 C 8.54 g/m*3 9.8 C 1.6 km/h
1197 25-12-2013 06:55:00 9.7 C 8.57 g/m*3 9.7 C 1.6 km/h
1198 25-12-2013 07:00:00 9.6 C 8.52 g/m*3 9.6 C 1.6 km/h
1199 25-12-2013 07:05:00 9.5 C 8.56 g/m*3 9.5 C 3.2 km/h
1200 25-12-2013 07:10:00 9.6 C 8.61 g/m*3 9.6 C 1.6 km/h
Sensor: Nr:Datum:Temp:Abs-Feuchte:Windchill:Wind:
Aussen-T/F 1201 25-12-2013 07:15:00 9.6 C 8.61 g/m*3 9.6 C 4.8 km/h
1202 25-12-2013 07:20:00 9.7 C 8.57 g/m*3 7.61 C 14.5 km/h
1203 25-12-2013 07:25:00 9.8 C 8.63 g/m*3 7.94 C 12.9 km/h
1204 25-12-2013 07:30:00 9.8 C 8.54 g/m*3 7.19 C 19.3 km/h
1205 25-12-2013 07:35:00 9.6 C 8.15 g/m*3 6.94 C 19.3 km/h
1206 25-12-2013 07:40:00 9.3 C 7.91 g/m*3 7.85 C 9.7 km/h
1207 25-12-2013 07:45:00 9.1 C 7.81 g/m*3 6.87 C 14.5 km/h
1208 25-12-2013 07:50:00 8.8 C 7.75 g/m*3 6.97 C 11.3 km/h
1209 25-12-2013 07:55:00 8.7 C 7.7 g/m*3 7.13 C 9.7 km/h
1210 25-12-2013 08:00:00 8.6 C 7.65 g/m*3 7.01 C 9.7 km/h
1211 25-12-2013 08:05:00 8.6 C 7.56 g/m*3 7.34 C 8.1 km/h
1212 25-12-2013 08:10:00 8.6 C 7.73 g/m*3 8.6 C 4.8 km/h
1213 25-12-2013 08:15:00 8.4 C 7.55 g/m*3 6.49 C 11.3 km/h
1214 25-12-2013 08:20:00 8.4 C 7.63 g/m*3 7.52 C 6.4 km/h
1215 25-12-2013 08:25:00 8.3 C 7.59 g/m*3 6.66 C 9.7 km/h
1216 25-12-2013 08:30:00 8.3 C 7.59 g/m*3 7.41 C 6.4 km/h
1217 25-12-2013 08:35:00 8.2 C 7.54 g/m*3 8.2 C 4.8 km/h
1218 25-12-2013 08:40:00 8.1 C 7.49 g/m*3 8.1 C 4.8 km/h
1219 25-12-2013 08:45:00 8.1 C 7.49 g/m*3 8.1 C 3.2 km/h
1220 25-12-2013 08:50:00 7.9 C 7.47 g/m*3 7.9 C 4.8 km/h
1221 25-12-2013 08:55:00 7.8 C 7.51 g/m*3 7.8 C 0 km/h
1222 25-12-2013 09:00:00 7.7 C 7.54 g/m*3 7.7 C 3.2 km/h
1223 25-12-2013 09:05:00 7.7 C 7.54 g/m*3 7.7 C 3.2 km/h
1224 25-12-2013 09:10:00 7.6 C 7.49 g/m*3 7.6 C 4.8 km/h
1225 25-12-2013 09:15:00 7.5 C 7.44 g/m*3 7.5 C 3.2 km/h
Sensor: Nr:Datum:Temp:Abs-Feuchte:Windchill:Wind:
Aussen-T/F 1226 25-12-2013 09:20:00 7.4 C 7.4 g/m*3 7.4 C 3.2 km/h
1227 25-12-2013 09:25:00 7.4 C 7.4 g/m*3 7.4 C 0 km/h
1228 25-12-2013 11:05:00 8.2 C 8.37 g/m*3 8.2 C 0 km/h
1229 25-12-2013 11:10:00 8.1 C 7.99 g/m*3 8.1 C 0 km/h
1230 25-12-2013 11:15:00 8.1 C 7.99 g/m*3 8.1 C 0 km/h
1231 25-12-2013 11:20:00 8.2 C 8.04 g/m*3 8.2 C 0 km/h
1232 25-12-2013 11:25:00 8.2 C 8.04 g/m*3 8.2 C 0 km/h
1233 25-12-2013 11:30:00 8.2 C 8.04 g/m*3 8.2 C 0 km/h
1234 25-12-2013 16:00:00 7.8 C 7.83 g/m*3 7.8 C 1.6 km/h
1235 25-12-2013 16:05:00 7.8 C 7.83 g/m*3 7.8 C 0 km/h
1236 25-12-2013 16:10:00 7.8 C 7.83 g/m*3 7.8 C 1.6 km/h
1237 25-12-2013 16:15:00 7.8 C 7.83 g/m*3 7.8 C 0 km/h
1238 25-12-2013 16:20:00 7.8 C 7.83 g/m*3 7.8 C 0 km/h
1239 25-12-2013 16:25:00 7.8 C 7.83 g/m*3 7.8 C 0 km/h
1240 25-12-2013 16:30:00 7.8 C 7.83 g/m*3 7.8 C 0 km/h
1241 25-12-2013 16:35:00 7.8 C 7.83 g/m*3 7.8 C 0 km/h
1242 25-12-2013 16:40:00 7.8 C 7.83 g/m*3 7.8 C 0 km/h
1243 25-12-2013 16:45:00 7.7 C 7.78 g/m*3 7.7 C 0 km/h
1244 25-12-2013 16:50:00 7.7 C 7.78 g/m*3 7.7 C 0 km/h
1245 25-12-2013 16:55:00 7.7 C 7.7 g/m*3 7.7 C 0 km/h
1246 25-12-2013 17:00:00 7.7 C 7.7 g/m*3 7.7 C 0 km/h
1247 25-12-2013 17:05:00 7.6 C 7.65 g/m*3 7.6 C 0 km/h
1248 25-12-2013 17:10:00 7.6 C 7.65 g/m*3 7.6 C 0 km/h
1249 25-12-2013 17:15:00 7.6 C 7.65 g/m*3 7.6 C 0 km/h
1250 25-12-2013 17:20:00 7.4 C 7.63 g/m*3 7.4 C 1.6 km/h
Sensor: Nr:Datum:Temp:Abs-Feuchte:Windchill:Wind:
Aussen-T/F 1251 25-12-2013 17:25:00 7.4 C 7.55 g/m*3 7.4 C 1.6 km/h
1252 25-12-2013 17:30:00 7.4 C 7.63 g/m*3 7.4 C 1.6 km/h
1253 25-12-2013 17:35:00 7.4 C 7.63 g/m*3 7.4 C 1.6 km/h
1254 25-12-2013 17:40:00 7.3 C 7.58 g/m*3 7.3 C 0 km/h
1255 25-12-2013 17:45:00 7.2 C 7.46 g/m*3 7.2 C 3.2 km/h
1256 25-12-2013 17:50:00 7.2 C 7.54 g/m*3 7.2 C 0 km/h
1257 25-12-2013 17:55:00 7.1 C 7.41 g/m*3 7.1 C 1.6 km/h
1258 25-12-2013 18:00:00 6.9 C 7.31 g/m*3 6.9 C 3.2 km/h
1259 25-12-2013 18:05:00 6.8 C 7.27 g/m*3 6.8 C 3.2 km/h
1260 25-12-2013 18:10:00 6.7 C 7.29 g/m*3 6.7 C 3.2 km/h
1261 25-12-2013 18:15:00 6.6 C 7.17 g/m*3 6.6 C 1.6 km/h
1262 25-12-2013 18:20:00 6.4 C 7.08 g/m*3 6.4 C 3.2 km/h
1263 25-12-2013 18:25:00 6.3 C 7.03 g/m*3 6.3 C 3.2 km/h
1264 25-12-2013 18:30:00 6.2 C 7.06 g/m*3 6.2 C 1.6 km/h
1265 25-12-2013 18:35:00 6.1 C 7.01 g/m*3 6.1 C 3.2 km/h
1266 25-12-2013 18:40:00 6.1 C 7.01 g/m*3 6.1 C 1.6 km/h
1267 25-12-2013 18:45:00 5.9 C 6.85 g/m*3 5.9 C 3.2 km/h
1268 25-12-2013 18:50:00 5.7 C 6.83 g/m*3 5.7 C 1.6 km/h
1269 25-12-2013 18:55:00 5.7 C 6.83 g/m*3 5.7 C 3.2 km/h
1270 25-12-2013 19:00:00 5.7 C 6.83 g/m*3 5.7 C 4.8 km/h
1271 25-12-2013 19:05:00 5.6 C 6.79 g/m*3 5.6 C 0 km/h
1272 25-12-2013 19:10:00 5.5 C 6.74 g/m*3 5.5 C 3.2 km/h
1273 25-12-2013 19:15:00 5.5 C 6.74 g/m*3 5.5 C 3.2 km/h
1274 25-12-2013 19:20:00 5.7 C 6.83 g/m*3 5.7 C 3.2 km/h
1275 25-12-2013 19:25:00 5.7 C 6.9 g/m*3 5.7 C 1.6 km/h
Sensor: Nr:Datum:Temp:Abs-Feuchte:Windchill:Wind:
Aussen-T/F 1276 25-12-2013 19:30:00 5.8 C 6.95 g/m*3 5.8 C 0 km/h
1277 25-12-2013 19:35:00 5.9 C 6.99 g/m*3 5.9 C 0 km/h
1278 25-12-2013 19:40:00 6.1 C 7.09 g/m*3 6.1 C 0 km/h
1279 25-12-2013 19:45:00 6.2 C 7.13 g/m*3 6.2 C 0 km/h
1280 25-12-2013 19:50:00 6.2 C 7.13 g/m*3 6.2 C 0 km/h
1281 25-12-2013 19:55:00 6.3 C 7.18 g/m*3 6.3 C 1.6 km/h
1282 25-12-2013 20:00:00 6.3 C 7.18 g/m*3 6.3 C 0 km/h
1283 25-12-2013 20:05:00 6.4 C 7.23 g/m*3 6.4 C 0 km/h
1284 25-12-2013 20:10:00 6.4 C 7.23 g/m*3 6.4 C 0 km/h
1285 25-12-2013 20:15:00 6.3 C 7.11 g/m*3 6.3 C 1.6 km/h
1286 25-12-2013 20:20:00 6.2 C 7.06 g/m*3 6.2 C 0 km/h
1287 25-12-2013 20:25:00 6.2 C 7.06 g/m*3 6.2 C 1.6 km/h
1288 25-12-2013 20:30:00 6.2 C 7.06 g/m*3 6.2 C 1.6 km/h
1289 25-12-2013 20:35:00 6.2 C 7.06 g/m*3 6.2 C 0 km/h
1290 25-12-2013 20:40:00 6.3 C 7.11 g/m*3 6.3 C 0 km/h
1291 25-12-2013 20:45:00 6.3 C 7.11 g/m*3 6.3 C 1.6 km/h
1292 25-12-2013 20:50:00 6.3 C 7.11 g/m*3 6.3 C 1.6 km/h
1293 25-12-2013 20:55:00 6.2 C 7.06 g/m*3 6.2 C 1.6 km/h
1294 25-12-2013 21:00:00 6.2 C 7.06 g/m*3 6.2 C 3.2 km/h
1295 25-12-2013 21:05:00 6 C 6.9 g/m*3 6 C 3.2 km/h
1296 25-12-2013 21:10:00 5.9 C 6.85 g/m*3 5.9 C 3.2 km/h
1297 25-12-2013 21:15:00 5.8 C 6.88 g/m*3 5.8 C 1.6 km/h
1298 25-12-2013 21:20:00 5.7 C 6.76 g/m*3 5.7 C 0 km/h
1299 25-12-2013 21:25:00 5.5 C 6.67 g/m*3 5.5 C 3.2 km/h
1300 25-12-2013 21:30:00 5.4 C 6.7 g/m*3 5.4 C 1.6 km/h
Sensor: Nr:Datum:Temp:Abs-Feuchte:Windchill:Wind:
Aussen-T/F 1301 25-12-2013 21:35:00 5.4 C 6.63 g/m*3 5.4 C 1.6 km/h
1302 25-12-2013 21:40:00 5.4 C 6.7 g/m*3 5.4 C 1.6 km/h
1303 25-12-2013 21:45:00 5.4 C 6.7 g/m*3 5.4 C 0 km/h
1304 25-12-2013 21:50:00 5.5 C 6.74 g/m*3 5.5 C 1.6 km/h
1305 25-12-2013 21:55:00 5.6 C 6.79 g/m*3 5.6 C 0 km/h
1306 25-12-2013 22:00:00 5.7 C 6.83 g/m*3 5.7 C 1.6 km/h
1307 25-12-2013 22:05:00 5.8 C 6.88 g/m*3 5.8 C 1.6 km/h
1308 25-12-2013 22:10:00 5.9 C 6.92 g/m*3 5.9 C 1.6 km/h
1309 25-12-2013 22:15:00 5.9 C 6.92 g/m*3 5.9 C 1.6 km/h
1310 25-12-2013 22:20:00 6 C 7.04 g/m*3 6 C 0 km/h
1311 25-12-2013 22:25:00 6.1 C 7.09 g/m*3 6.1 C 0 km/h
1312 25-12-2013 22:30:00 6.2 C 7.06 g/m*3 6.2 C 0 km/h
1313 25-12-2013 22:35:00 6.2 C 7.06 g/m*3 6.2 C 0 km/h
1314 25-12-2013 22:40:00 6.2 C 7.06 g/m*3 6.2 C 0 km/h
1315 25-12-2013 22:45:00 6.2 C 7.06 g/m*3 6.2 C 3.2 km/h
1316 25-12-2013 22:50:00 6.3 C 7.11 g/m*3 6.3 C 3.2 km/h
1317 25-12-2013 22:55:00 6.3 C 7.11 g/m*3 4.64 C 8.1 km/h
1318 25-12-2013 23:00:00 6.3 C 7.11 g/m*3 6.3 C 1.6 km/h
1319 25-12-2013 23:05:00 6.3 C 7.11 g/m*3 6.3 C 0 km/h
1320 25-12-2013 23:10:00 6.3 C 7.11 g/m*3 6.3 C 1.6 km/h
1321 25-12-2013 23:15:00 6.4 C 7.15 g/m*3 5.21 C 6.4 km/h
1322 25-12-2013 23:20:00 6.4 C 7.08 g/m*3 6.4 C 1.6 km/h
1323 25-12-2013 23:25:00 6.4 C 7.08 g/m*3 6.4 C 4.8 km/h
1324 25-12-2013 23:30:00 6.4 C 7.08 g/m*3 6.4 C 0 km/h
1325 25-12-2013 23:35:00 6.4 C 7.08 g/m*3 6.4 C 0 km/h
Sensor: Nr:Datum:Temp:Abs-Feuchte:Windchill:Wind:
Aussen-T/F 1326 25-12-2013 23:40:00 6.4 C 7.08 g/m*3 6.4 C 0 km/h
1327 25-12-2013 23:45:00 6.4 C 7.08 g/m*3 6.4 C 0 km/h
1328 25-12-2013 23:50:00 6.4 C 7.08 g/m*3 6.4 C 0 km/h
1329 25-12-2013 23:55:00 6.4 C 7.08 g/m*3 6.4 C 0 km/h
1330 26-12-2013 00:00:00 6.4 C 7.08 g/m*3 6.4 C 1.6 km/h
1331 26-12-2013 00:05:00 6.3 C 7.03 g/m*3 6.3 C 1.6 km/h
1332 26-12-2013 00:10:00 6.2 C 6.99 g/m*3 6.2 C 0 km/h
1333 26-12-2013 00:15:00 6.1 C 6.87 g/m*3 6.1 C 3.2 km/h
1334 26-12-2013 00:20:00 5.9 C 6.85 g/m*3 5.9 C 0 km/h
1335 26-12-2013 00:25:00 5.8 C 6.81 g/m*3 5.8 C 1.6 km/h
1336 26-12-2013 00:30:00 5.7 C 6.76 g/m*3 5.7 C 3.2 km/h
1337 26-12-2013 00:35:00 5.7 C 6.76 g/m*3 5.7 C 3.2 km/h
1338 26-12-2013 00:40:00 5.6 C 6.72 g/m*3 5.6 C 3.2 km/h
1339 26-12-2013 00:45:00 5.4 C 6.63 g/m*3 5.4 C 1.6 km/h
1340 26-12-2013 00:50:00 5.3 C 6.58 g/m*3 5.3 C 3.2 km/h
1341 26-12-2013 00:55:00 5.3 C 6.58 g/m*3 5.3 C 3.2 km/h
1342 26-12-2013 01:00:00 5.3 C 6.58 g/m*3 5.3 C 1.6 km/h
1343 26-12-2013 01:05:00 5.2 C 6.54 g/m*3 5.2 C 0 km/h
1344 26-12-2013 01:10:00 5.2 C 6.61 g/m*3 5.2 C 0 km/h
1345 26-12-2013 01:15:00 5.2 C 6.61 g/m*3 5.2 C 0 km/h
1346 26-12-2013 01:20:00 5.3 C 6.65 g/m*3 5.3 C 0 km/h
1347 26-12-2013 01:25:00 5.4 C 6.7 g/m*3 5.4 C 1.6 km/h
1348 26-12-2013 01:30:00 5.4 C 6.7 g/m*3 5.4 C 0 km/h
1349 26-12-2013 01:35:00 5.6 C 6.79 g/m*3 5.6 C 0 km/h
1350 26-12-2013 01:40:00 5.6 C 6.79 g/m*3 5.6 C 0 km/h
Sensor: Nr:Datum:Temp:Abs-Feuchte:Windchill:Wind:
Aussen-T/F 1351 26-12-2013 01:45:00 5.6 C 6.79 g/m*3 5.6 C 0 km/h
1352 26-12-2013 01:50:00 5.6 C 6.79 g/m*3 5.6 C 0 km/h
1353 26-12-2013 01:55:00 5.6 C 6.79 g/m*3 5.6 C 0 km/h
1354 26-12-2013 02:00:00 5.6 C 6.79 g/m*3 5.6 C 0 km/h
1355 26-12-2013 02:05:00 5.6 C 6.79 g/m*3 5.6 C 0 km/h
1356 26-12-2013 02:10:00 5.4 C 6.7 g/m*3 5.4 C 0 km/h
1357 26-12-2013 02:15:00 5.4 C 6.7 g/m*3 5.4 C 0 km/h
1358 26-12-2013 02:20:00 5.3 C 6.65 g/m*3 5.3 C 0 km/h
1359 26-12-2013 02:25:00 5.2 C 6.61 g/m*3 5.2 C 0 km/h
1360 26-12-2013 02:30:00 5.2 C 6.61 g/m*3 5.2 C 0 km/h
1361 26-12-2013 02:35:00 5.2 C 6.61 g/m*3 5.2 C 0 km/h
1362 26-12-2013 02:40:00 5.1 C 6.57 g/m*3 5.1 C 0 km/h
1363 26-12-2013 02:45:00 5.2 C 6.61 g/m*3 5.2 C 0 km/h
1364 26-12-2013 02:50:00 5.2 C 6.61 g/m*3 5.2 C 1.6 km/h
1365 26-12-2013 02:55:00 5.3 C 6.65 g/m*3 5.3 C 0 km/h
1366 26-12-2013 03:00:00 5.3 C 6.65 g/m*3 5.3 C 0 km/h
1367 26-12-2013 03:05:00 5.3 C 6.65 g/m*3 5.3 C 0 km/h
1368 26-12-2013 03:10:00 5.3 C 6.65 g/m*3 5.3 C 1.6 km/h
1369 26-12-2013 03:15:00 5.4 C 6.7 g/m*3 5.4 C 0 km/h
1370 26-12-2013 03:20:00 5.4 C 6.7 g/m*3 5.4 C 0 km/h
1371 26-12-2013 03:25:00 5.5 C 6.74 g/m*3 5.5 C 0 km/h
1372 26-12-2013 03:30:00 5.6 C 6.79 g/m*3 5.6 C 0 km/h
1373 26-12-2013 03:35:00 5.6 C 6.79 g/m*3 5.6 C 0 km/h
1374 26-12-2013 03:40:00 5.6 C 6.79 g/m*3 5.6 C 0 km/h
1375 26-12-2013 03:45:00 5.7 C 6.83 g/m*3 5.7 C 0 km/h
Sensor: Nr:Datum:Temp:Abs-Feuchte:Windchill:Wind:
Aussen-T/F 1376 26-12-2013 03:50:00 5.7 C 6.9 g/m*3 5.7 C 0 km/h
1377 26-12-2013 03:55:00 5.7 C 6.9 g/m*3 5.7 C 0 km/h
1378 26-12-2013 04:00:00 5.7 C 6.83 g/m*3 5.7 C 0 km/h
1379 26-12-2013 04:05:00 5.8 C 6.88 g/m*3 5.8 C 0 km/h
1380 26-12-2013 04:10:00 5.8 C 6.88 g/m*3 5.8 C 0 km/h
1381 26-12-2013 04:15:00 5.8 C 6.88 g/m*3 5.8 C 0 km/h
1382 26-12-2013 04:20:00 5.8 C 6.88 g/m*3 5.8 C 0 km/h
1383 26-12-2013 04:25:00 5.8 C 6.88 g/m*3 5.8 C 0 km/h
1384 26-12-2013 04:30:00 5.8 C 6.88 g/m*3 5.8 C 0 km/h
1385 26-12-2013 04:35:00 5.8 C 6.88 g/m*3 5.8 C 0 km/h
1386 26-12-2013 04:40:00 5.8 C 6.88 g/m*3 5.8 C 0 km/h
1387 26-12-2013 04:45:00 5.8 C 6.88 g/m*3 5.8 C 0 km/h
1388 26-12-2013 04:50:00 5.8 C 6.88 g/m*3 5.8 C 0 km/h
1389 26-12-2013 04:55:00 5.8 C 6.88 g/m*3 5.8 C 0 km/h
1390 26-12-2013 05:00:00 5.8 C 6.88 g/m*3 5.8 C 0 km/h
1391 26-12-2013 05:05:00 5.8 C 6.88 g/m*3 5.8 C 0 km/h
1392 26-12-2013 05:10:00 5.8 C 6.88 g/m*3 5.8 C 0 km/h
1393 26-12-2013 05:15:00 5.8 C 6.88 g/m*3 5.8 C 0 km/h
1394 26-12-2013 05:20:00 5.8 C 6.88 g/m*3 5.8 C 0 km/h
1395 26-12-2013 05:25:00 5.8 C 6.88 g/m*3 5.8 C 0 km/h
1396 26-12-2013 05:30:00 5.8 C 6.88 g/m*3 5.8 C 0 km/h
1397 26-12-2013 05:35:00 5.7 C 6.83 g/m*3 5.7 C 0 km/h
1398 26-12-2013 05:40:00 5.7 C 6.83 g/m*3 5.7 C 0 km/h
1399 26-12-2013 05:45:00 5.7 C 6.83 g/m*3 5.7 C 0 km/h
1400 26-12-2013 05:50:00 5.6 C 6.79 g/m*3 5.6 C 0 km/h
Sensor: Nr:Datum:Temp:Abs-Feuchte:Windchill:Wind:
Aussen-T/F 1401 26-12-2013 05:55:00 5.6 C 6.79 g/m*3 5.6 C 0 km/h
1402 26-12-2013 06:00:00 5.6 C 6.79 g/m*3 5.6 C 0 km/h
1403 26-12-2013 06:05:00 5.6 C 6.79 g/m*3 5.6 C 0 km/h
1404 26-12-2013 06:10:00 5.6 C 6.79 g/m*3 5.6 C 0 km/h
1405 26-12-2013 06:15:00 5.6 C 6.79 g/m*3 5.6 C 0 km/h
1406 26-12-2013 06:20:00 5.6 C 6.79 g/m*3 5.6 C 0 km/h
1407 26-12-2013 06:25:00 5.7 C 6.83 g/m*3 5.7 C 0 km/h
1408 26-12-2013 06:30:00 5.7 C 6.83 g/m*3 5.7 C 0 km/h
1409 26-12-2013 06:35:00 5.7 C 6.83 g/m*3 5.7 C 0 km/h
1410 26-12-2013 06:40:00 5.7 C 6.83 g/m*3 5.7 C 0 km/h
1411 26-12-2013 06:45:00 5.7 C 6.83 g/m*3 5.7 C 0 km/h
1412 26-12-2013 06:50:00 5.7 C 6.83 g/m*3 5.7 C 0 km/h
1413 26-12-2013 06:55:00 5.7 C 6.83 g/m*3 5.7 C 0 km/h
1414 26-12-2013 07:00:00 5.7 C 6.83 g/m*3 5.7 C 0 km/h
1415 26-12-2013 07:05:00 5.7 C 6.83 g/m*3 5.7 C 0 km/h
1416 26-12-2013 07:10:00 5.7 C 6.83 g/m*3 5.7 C 0 km/h
1417 26-12-2013 07:15:00 5.7 C 6.83 g/m*3 5.7 C 0 km/h
1418 26-12-2013 07:20:00 5.7 C 6.83 g/m*3 5.7 C 0 km/h
1419 26-12-2013 07:25:00 5.7 C 6.83 g/m*3 5.7 C 1.6 km/h
1420 26-12-2013 07:30:00 5.7 C 6.83 g/m*3 5.7 C 0 km/h
1421 26-12-2013 07:35:00 5.7 C 6.83 g/m*3 5.7 C 1.6 km/h
1422 26-12-2013 07:40:00 5.7 C 6.83 g/m*3 5.7 C 0 km/h
1423 26-12-2013 07:45:00 5.7 C 6.83 g/m*3 5.7 C 0 km/h
1424 26-12-2013 07:50:00 5.7 C 6.83 g/m*3 5.7 C 1.6 km/h
1425 26-12-2013 07:55:00 5.7 C 6.83 g/m*3 5.7 C 0 km/h
Sensor: Nr:Datum:Temp:Abs-Feuchte:Windchill:Wind:
Aussen-T/F 1426 26-12-2013 08:00:00 5.7 C 6.83 g/m*3 5.7 C 0 km/h
1427 26-12-2013 08:05:00 5.7 C 6.83 g/m*3 5.7 C 0 km/h
1428 26-12-2013 08:10:00 5.7 C 6.83 g/m*3 5.7 C 0 km/h
1429 26-12-2013 08:15:00 5.7 C 6.83 g/m*3 5.7 C 0 km/h
1430 26-12-2013 08:20:00 5.8 C 6.88 g/m*3 5.8 C 0 km/h
1431 26-12-2013 08:25:00 5.8 C 6.95 g/m*3 5.8 C 0 km/h
1432 26-12-2013 08:30:00 5.8 C 6.95 g/m*3 5.8 C 0 km/h
1433 26-12-2013 08:35:00 5.8 C 6.95 g/m*3 5.8 C 0 km/h
1434 26-12-2013 08:40:00 5.8 C 6.95 g/m*3 5.8 C 0 km/h
1435 26-12-2013 08:45:00 5.9 C 6.99 g/m*3 5.9 C 0 km/h
1436 26-12-2013 08:50:00 5.9 C 6.99 g/m*3 5.9 C 0 km/h
1437 26-12-2013 08:55:00 5.9 C 6.99 g/m*3 5.9 C 0 km/h
1438 26-12-2013 09:00:00 5.9 C 6.99 g/m*3 5.9 C 0 km/h
1439 26-12-2013 09:05:00 5.9 C 6.99 g/m*3 5.9 C 0 km/h
1440 26-12-2013 09:30:00 5.9 C 6.99 g/m*3 5.9 C 0 km/h
1441 26-12-2013 09:35:00 5.9 C 6.99 g/m*3 5.9 C 0 km/h
1442 26-12-2013 09:40:00 6 C 7.04 g/m*3 6 C 0 km/h
1443 26-12-2013 09:45:00 6 C 7.04 g/m*3 6 C 0 km/h
1444 26-12-2013 09:50:00 6.1 C 7.09 g/m*3 6.1 C 0 km/h
1445 26-12-2013 09:55:00 6.1 C 7.09 g/m*3 6.1 C 0 km/h
1446 26-12-2013 10:00:00 6.1 C 7.09 g/m*3 6.1 C 0 km/h
1447 26-12-2013 10:05:00 6.1 C 7.09 g/m*3 6.1 C 0 km/h
1448 26-12-2013 10:10:00 6.1 C 7.09 g/m*3 6.1 C 0 km/h
1449 26-12-2013 10:15:00 6.1 C 7.09 g/m*3 6.1 C 0 km/h
1450 26-12-2013 10:20:00 6.1 C 7.09 g/m*3 6.1 C 0 km/h
Sensor: Nr:Datum:Temp:Abs-Feuchte:Windchill:Wind:
Aussen-T/F 1451 26-12-2013 10:25:00 6.1 C 7.09 g/m*3 6.1 C 0 km/h
1452 26-12-2013 10:30:00 6.2 C 7.13 g/m*3 6.2 C 0 km/h
1453 26-12-2013 10:35:00 6.2 C 7.13 g/m*3 6.2 C 0 km/h
1454 26-12-2013 10:40:00 6.2 C 7.13 g/m*3 6.2 C 0 km/h
1455 26-12-2013 10:45:00 6.2 C 7.13 g/m*3 6.2 C 0 km/h
1456 26-12-2013 10:50:00 6.2 C 7.13 g/m*3 6.2 C 0 km/h
1457 26-12-2013 10:55:00 6.3 C 7.18 g/m*3 6.3 C 0 km/h
1458 26-12-2013 11:00:00 6.3 C 7.18 g/m*3 6.3 C 0 km/h
1459 26-12-2013 11:05:00 6.3 C 7.18 g/m*3 6.3 C 0 km/h
1460 26-12-2013 11:10:00 6.3 C 7.18 g/m*3 6.3 C 0 km/h
1461 26-12-2013 11:15:00 6.3 C 7.18 g/m*3 6.3 C 0 km/h
1462 26-12-2013 11:20:00 6.4 C 7.23 g/m*3 6.4 C 3.2 km/h
1463 26-12-2013 11:25:00 6.4 C 7.23 g/m*3 6.4 C 4.8 km/h
1464 26-12-2013 11:30:00 6.4 C 7.23 g/m*3 6.4 C 4.8 km/h
1465 26-12-2013 11:35:00 6.4 C 7.23 g/m*3 6.4 C 4.8 km/h
1466 26-12-2013 11:40:00 6.4 C 7.23 g/m*3 6.4 C 4.8 km/h
1467 26-12-2013 11:45:00 6.5 C 7.2 g/m*3 5.33 C 6.4 km/h
1468 26-12-2013 11:50:00 6.5 C 7.2 g/m*3 5.33 C 6.4 km/h
1469 26-12-2013 11:55:00 6.5 C 7.2 g/m*3 6.5 C 4.8 km/h
1470 26-12-2013 12:00:00 6.5 C 7.2 g/m*3 5.33 C 6.4 km/h
1471 26-12-2013 12:05:00 6.5 C 7.2 g/m*3 6.5 C 4.8 km/h
1472 26-12-2013 13:25:00 7.3 C 7.27 g/m*3 7.3 C 0 km/h
1473 26-12-2013 13:30:00 7.4 C 7.32 g/m*3 7.4 C 3.2 km/h
1474 26-12-2013 13:35:00 7.4 C 7.32 g/m*3 7.4 C 0 km/h
1475 26-12-2013 13:40:00 7.4 C 7.32 g/m*3 7.4 C 0 km/h
Sensor: Nr:Datum:Temp:Abs-Feuchte:Windchill:Wind:
Aussen-T/F 1476 26-12-2013 13:45:00 7.4 C 7.32 g/m*3 7.4 C 0 km/h
1477 26-12-2013 13:50:00 7.5 C 7.36 g/m*3 7.5 C 0 km/h
1478 26-12-2013 13:55:00 7.6 C 7.41 g/m*3 7.6 C 1.6 km/h
1479 26-12-2013 14:00:00 7.6 C 7.41 g/m*3 7.6 C 1.6 km/h
1480 26-12-2013 14:05:00 7.6 C 7.33 g/m*3 7.6 C 1.6 km/h
1481 26-12-2013 14:10:00 7.6 C 7.25 g/m*3 7.6 C 3.2 km/h
1482 26-12-2013 14:15:00 7.6 C 7.25 g/m*3 7.6 C 0 km/h
1483 26-12-2013 14:20:00 7.7 C 7.38 g/m*3 7.7 C 0 km/h
1484 26-12-2013 14:25:00 7.7 C 7.38 g/m*3 7.7 C 0 km/h
1485 26-12-2013 14:30:00 7.6 C 7.33 g/m*3 7.6 C 0 km/h
1486 26-12-2013 14:35:00 7.6 C 7.33 g/m*3 7.6 C 0 km/h
1487 26-12-2013 14:40:00 7.7 C 7.46 g/m*3 7.7 C 0 km/h
1488 26-12-2013 14:45:00 7.7 C 7.38 g/m*3 7.7 C 0 km/h
1489 26-12-2013 14:50:00 7.7 C 7.46 g/m*3 7.7 C 0 km/h
1490 26-12-2013 14:55:00 7.7 C 7.46 g/m*3 7.7 C 0 km/h
1491 26-12-2013 15:00:00 7.7 C 7.38 g/m*3 7.7 C 1.6 km/h
1492 26-12-2013 15:05:00 7.7 C 7.38 g/m*3 7.7 C 0 km/h
1493 26-12-2013 15:10:00 7.7 C 7.38 g/m*3 7.7 C 0 km/h
1494 26-12-2013 15:15:00 7.7 C 7.38 g/m*3 7.7 C 0 km/h
1495 26-12-2013 15:20:00 7.7 C 7.38 g/m*3 7.7 C 0 km/h
1496 26-12-2013 15:25:00 7.7 C 7.38 g/m*3 7.7 C 0 km/h
1497 26-12-2013 15:30:00 7.7 C 7.3 g/m*3 7.7 C 0 km/h
1498 26-12-2013 15:35:00 7.7 C 7.38 g/m*3 7.7 C 0 km/h
1499 26-12-2013 15:40:00 7.6 C 7.33 g/m*3 7.6 C 0 km/h
1500 26-12-2013 15:45:00 7.6 C 7.33 g/m*3 7.6 C 0 km/h
Sensor: Nr:Datum:Temp:Abs-Feuchte:Windchill:Wind:
Aussen-T/F 1501 26-12-2013 16:05:00 7.4 C 7.4 g/m*3 7.4 C 0 km/h
1502 26-12-2013 16:10:00 7.4 C 7.48 g/m*3 7.4 C 0 km/h
1503 26-12-2013 16:15:00 7.4 C 7.48 g/m*3 7.4 C 0 km/h
1504 26-12-2013 16:20:00 7.3 C 7.43 g/m*3 7.3 C 0 km/h
1505 26-12-2013 16:25:00 7.3 C 7.43 g/m*3 7.3 C 0 km/h
1506 26-12-2013 16:30:00 7.2 C 7.38 g/m*3 7.2 C 0 km/h
1507 26-12-2013 16:35:00 7.2 C 7.38 g/m*3 7.2 C 0 km/h
1508 26-12-2013 16:40:00 7.1 C 7.33 g/m*3 7.1 C 0 km/h
1509 26-12-2013 16:45:00 7.1 C 7.33 g/m*3 7.1 C 0 km/h
1510 26-12-2013 16:50:00 7 C 7.28 g/m*3 7 C 0 km/h
1511 26-12-2013 16:55:00 7 C 7.28 g/m*3 7 C 0 km/h
1512 26-12-2013 17:00:00 7 C 7.28 g/m*3 7 C 0 km/h
1513 26-12-2013 17:05:00 7 C 7.28 g/m*3 7 C 0 km/h
1514 26-12-2013 17:10:00 7 C 7.28 g/m*3 7 C 3.2 km/h
1515 26-12-2013 17:15:00 7 C 7.28 g/m*3 7 C 3.2 km/h
1516 26-12-2013 17:20:00 7.1 C 7.25 g/m*3 7.1 C 3.2 km/h
1517 26-12-2013 17:25:00 7.1 C 7.25 g/m*3 7.1 C 1.6 km/h
1518 26-12-2013 17:30:00 7.2 C 7.3 g/m*3 7.2 C 4.8 km/h
1519 26-12-2013 17:35:00 7.2 C 7.3 g/m*3 7.2 C 0 km/h
1520 26-12-2013 17:40:00 7.1 C 7.33 g/m*3 7.1 C 0 km/h
1521 26-12-2013 17:45:00 7.1 C 7.33 g/m*3 7.1 C 0 km/h
1522 26-12-2013 17:50:00 7 C 7.28 g/m*3 7 C 1.6 km/h
1523 26-12-2013 17:55:00 6.9 C 7.31 g/m*3 6.9 C 1.6 km/h
1524 26-12-2013 18:00:00 6.9 C 7.31 g/m*3 6.9 C 0 km/h
1525 26-12-2013 18:05:00 6.8 C 7.27 g/m*3 6.8 C 0 km/h
Sensor: Nr:Datum:Temp:Abs-Feuchte:Windchill:Wind:
Aussen-T/F 1526 26-12-2013 18:10:00 6.8 C 7.27 g/m*3 6.8 C 1.6 km/h
1527 26-12-2013 18:15:00 6.7 C 7.22 g/m*3 6.7 C 3.2 km/h
1528 26-12-2013 18:20:00 6.7 C 7.22 g/m*3 6.7 C 1.6 km/h
1529 26-12-2013 18:25:00 6.7 C 7.22 g/m*3 6.7 C 3.2 km/h
1530 26-12-2013 18:30:00 6.6 C 7.17 g/m*3 6.6 C 1.6 km/h
1531 26-12-2013 18:35:00 6.6 C 7.17 g/m*3 6.6 C 3.2 km/h
1532 26-12-2013 18:40:00 6.6 C 7.17 g/m*3 6.6 C 4.8 km/h
1533 26-12-2013 18:45:00 6.5 C 7.12 g/m*3 6.5 C 3.2 km/h
1534 26-12-2013 18:50:00 6.5 C 7.12 g/m*3 6.5 C 3.2 km/h
1535 26-12-2013 18:55:00 6.4 C 7.08 g/m*3 6.4 C 4.8 km/h
1536 26-12-2013 19:00:00 6.3 C 7.03 g/m*3 6.3 C 3.2 km/h
1537 26-12-2013 19:05:00 6.3 C 7.03 g/m*3 6.3 C 1.6 km/h
1538 26-12-2013 19:10:00 6.2 C 6.99 g/m*3 6.2 C 3.2 km/h
1539 26-12-2013 19:15:00 6.2 C 6.99 g/m*3 6.2 C 3.2 km/h
1540 26-12-2013 19:20:00 6.1 C 6.94 g/m*3 6.1 C 3.2 km/h
1541 26-12-2013 19:25:00 6.1 C 6.94 g/m*3 6.1 C 3.2 km/h
1542 26-12-2013 19:30:00 6.1 C 7.01 g/m*3 6.1 C 3.2 km/h
1543 26-12-2013 19:35:00 6.1 C 7.01 g/m*3 6.1 C 3.2 km/h
1544 26-12-2013 19:40:00 6 C 6.97 g/m*3 6 C 3.2 km/h
1545 26-12-2013 19:45:00 6 C 6.97 g/m*3 6 C 3.2 km/h
1546 26-12-2013 19:50:00 6 C 6.97 g/m*3 6 C 1.6 km/h
1547 26-12-2013 19:55:00 6 C 6.97 g/m*3 6 C 3.2 km/h
1548 26-12-2013 20:00:00 5.9 C 6.92 g/m*3 5.9 C 1.6 km/h
1549 26-12-2013 20:05:00 5.9 C 6.92 g/m*3 5.9 C 3.2 km/h
1550 26-12-2013 20:10:00 5.9 C 6.92 g/m*3 5.9 C 3.2 km/h
Sensor: Nr:Datum:Temp:Abs-Feuchte:Windchill:Wind:
Aussen-T/F 1551 26-12-2013 20:15:00 5.9 C 6.92 g/m*3 5.9 C 3.2 km/h
1552 26-12-2013 20:20:00 5.9 C 6.92 g/m*3 5.9 C 1.6 km/h
1553 26-12-2013 20:25:00 5.9 C 6.92 g/m*3 5.9 C 1.6 km/h
1554 26-12-2013 20:30:00 5.8 C 6.88 g/m*3 5.8 C 1.6 km/h
1555 26-12-2013 20:35:00 5.7 C 6.83 g/m*3 5.7 C 3.2 km/h
1556 26-12-2013 20:40:00 5.6 C 6.79 g/m*3 5.6 C 3.2 km/h
1557 26-12-2013 20:45:00 5.4 C 6.7 g/m*3 5.4 C 3.2 km/h
1558 26-12-2013 20:50:00 5.4 C 6.7 g/m*3 5.4 C 3.2 km/h
1559 26-12-2013 20:55:00 5.3 C 6.65 g/m*3 5.3 C 3.2 km/h
1560 26-12-2013 21:00:00 5.2 C 6.54 g/m*3 5.2 C 3.2 km/h
1561 26-12-2013 21:05:00 5 C 6.46 g/m*3 5 C 3.2 km/h
1562 26-12-2013 21:10:00 5.1 C 6.5 g/m*3 3.23 C 8.1 km/h
1563 26-12-2013 21:15:00 5.2 C 6.47 g/m*3 5.2 C 3.2 km/h
1564 26-12-2013 21:20:00 5.1 C 6.43 g/m*3 5.1 C 3.2 km/h
1565 26-12-2013 21:25:00 4.9 C 6.35 g/m*3 4.9 C 4.8 km/h
1566 26-12-2013 21:30:00 4.8 C 6.3 g/m*3 4.8 C 3.2 km/h
1567 26-12-2013 21:35:00 4.6 C 6.29 g/m*3 4.6 C 4.8 km/h
1568 26-12-2013 21:40:00 4.5 C 6.24 g/m*3 4.5 C 4.8 km/h
1569 26-12-2013 21:45:00 4.5 C 6.24 g/m*3 4.5 C 4.8 km/h
1570 26-12-2013 21:50:00 4.5 C 6.24 g/m*3 4.5 C 4.8 km/h
1571 26-12-2013 21:55:00 4.6 C 6.29 g/m*3 4.6 C 4.8 km/h
1572 26-12-2013 22:00:00 4.7 C 6.33 g/m*3 4.7 C 4.8 km/h
1573 26-12-2013 22:05:00 4.8 C 6.37 g/m*3 4.8 C 3.2 km/h
1574 26-12-2013 22:10:00 5.1 C 6.43 g/m*3 5.1 C 4.8 km/h
1575 26-12-2013 22:15:00 5.2 C 6.47 g/m*3 5.2 C 4.8 km/h
Sensor: Nr:Datum:Temp:Abs-Feuchte:Windchill:Wind:
Aussen-T/F 1576 26-12-2013 22:20:00 5.1 C 6.36 g/m*3 5.1 C 1.6 km/h
1577 26-12-2013 22:25:00 5 C 6.32 g/m*3 5 C 3.2 km/h
1578 26-12-2013 22:30:00 4.9 C 6.35 g/m*3 4.9 C 4.8 km/h
1579 26-12-2013 22:35:00 5.1 C 6.43 g/m*3 5.1 C 4.8 km/h
1580 26-12-2013 22:40:00 5.2 C 6.4 g/m*3 3.34 C 8.1 km/h
1581 26-12-2013 22:45:00 5.6 C 6.5 g/m*3 3.44 C 9.7 km/h
1582 26-12-2013 22:50:00 5.7 C 6.48 g/m*3 4.4 C 6.4 km/h
1583 26-12-2013 22:55:00 5.8 C 6.52 g/m*3 3.68 C 9.7 km/h
1584 26-12-2013 23:00:00 5.8 C 6.45 g/m*3 4.52 C 6.4 km/h
1585 26-12-2013 23:05:00 5.9 C 6.42 g/m*3 3.48 C 11.3 km/h
1586 26-12-2013 23:10:00 6 C 6.39 g/m*3 3.92 C 9.7 km/h
1587 26-12-2013 23:15:00 5.9 C 6.35 g/m*3 3.48 C 11.3 km/h
1588 26-12-2013 23:20:00 5.9 C 6.27 g/m*3 3.8 C 9.7 km/h
1589 26-12-2013 23:25:00 5.7 C 6.26 g/m*3 4.4 C 6.4 km/h
1590 26-12-2013 23:30:00 5.5 C 6.25 g/m*3 5.5 C 4.8 km/h
1591 26-12-2013 23:35:00 5.3 C 6.24 g/m*3 3.94 C 6.4 km/h
1592 26-12-2013 23:40:00 5.3 C 6.24 g/m*3 5.3 C 4.8 km/h
1593 26-12-2013 23:45:00 5.2 C 6.2 g/m*3 3.82 C 6.4 km/h
1594 26-12-2013 23:50:00 5.1 C 6.16 g/m*3 5.1 C 4.8 km/h
1595 26-12-2013 23:55:00 5.1 C 6.16 g/m*3 3.71 C 6.4 km/h
1596 27-12-2013 00:00:00 5.1 C 6.16 g/m*3 5.1 C 4.8 km/h
1597 27-12-2013 00:05:00 4.8 C 6.1 g/m*3 2.87 C 8.1 km/h
1598 27-12-2013 00:10:00 5.1 C 6.16 g/m*3 2.22 C 12.9 km/h
1599 27-12-2013 00:15:00 4.9 C 6.08 g/m*3 4.9 C 3.2 km/h
1600 27-12-2013 00:20:00 4.8 C 6.1 g/m*3 4.8 C 4.8 km/h
Sensor: Nr:Datum:Temp:Abs-Feuchte:Windchill:Wind:
Aussen-T/F 1601 27-12-2013 00:25:00 4.7 C 6 g/m*3 4.7 C 4.8 km/h
1602 27-12-2013 00:30:00 4.6 C 6.02 g/m*3 2.25 C 9.7 km/h
1603 27-12-2013 00:35:00 4.7 C 6 g/m*3 4.7 C 3.2 km/h
1604 27-12-2013 00:40:00 4.6 C 6.02 g/m*3 3.13 C 6.4 km/h
1605 27-12-2013 00:45:00 4.4 C 5.94 g/m*3 4.4 C 4.8 km/h
1606 27-12-2013 00:50:00 4.5 C 5.98 g/m*3 3.02 C 6.4 km/h
1607 27-12-2013 00:55:00 4.6 C 6.02 g/m*3 3.13 C 6.4 km/h
1608 27-12-2013 01:00:00 4.6 C 6.02 g/m*3 4.6 C 4.8 km/h
1609 27-12-2013 01:05:00 4.9 C 6.01 g/m*3 2.61 C 9.7 km/h
1610 27-12-2013 01:10:00 5.2 C 6.06 g/m*3 2.96 C 9.7 km/h
1611 27-12-2013 01:15:00 5.1 C 6.02 g/m*3 3.71 C 6.4 km/h
1612 27-12-2013 01:20:00 5.1 C 6.02 g/m*3 2.51 C 11.3 km/h
1613 27-12-2013 01:25:00 5.2 C 6.06 g/m*3 3.82 C 6.4 km/h
1614 27-12-2013 01:30:00 5.1 C 6.02 g/m*3 3.71 C 6.4 km/h
1615 27-12-2013 01:35:00 5.1 C 6.02 g/m*3 5.1 C 4.8 km/h
1616 27-12-2013 01:40:00 4.9 C 5.94 g/m*3 4.9 C 4.8 km/h
1617 27-12-2013 01:45:00 4.8 C 5.97 g/m*3 2.87 C 8.1 km/h
1618 27-12-2013 01:50:00 4.9 C 5.94 g/m*3 3.48 C 6.4 km/h
1619 27-12-2013 01:55:00 4.8 C 5.97 g/m*3 3.36 C 6.4 km/h
1620 27-12-2013 02:00:00 4.7 C 5.93 g/m*3 4.7 C 3.2 km/h
1621 27-12-2013 02:05:00 4.4 C 5.88 g/m*3 4.4 C 4.8 km/h
1622 27-12-2013 02:10:00 4.1 C 5.82 g/m*3 4.1 C 3.2 km/h
1623 27-12-2013 02:15:00 3.8 C 5.77 g/m*3 3.8 C 3.2 km/h
1624 27-12-2013 02:20:00 3.7 C 5.73 g/m*3 3.7 C 4.8 km/h
1625 27-12-2013 02:25:00 3.4 C 5.68 g/m*3 3.4 C 3.2 km/h
Sensor: Nr:Datum:Temp:Abs-Feuchte:Windchill:Wind:
Aussen-T/F 1626 27-12-2013 02:30:00 3.3 C 5.64 g/m*3 3.3 C 3.2 km/h
1627 27-12-2013 02:35:00 3.2 C 5.6 g/m*3 3.2 C 3.2 km/h
1628 27-12-2013 02:40:00 3.1 C 5.63 g/m*3 3.1 C 3.2 km/h
1629 27-12-2013 02:45:00 2.9 C 5.55 g/m*3 2.9 C 3.2 km/h
1630 27-12-2013 02:50:00 2.9 C 5.55 g/m*3 2.9 C 3.2 km/h
1631 27-12-2013 02:55:00 2.8 C 5.51 g/m*3 2.8 C 3.2 km/h
1632 27-12-2013 03:00:00 2.8 C 5.51 g/m*3 2.8 C 1.6 km/h
1633 27-12-2013 03:05:00 2.7 C 5.54 g/m*3 2.7 C 3.2 km/h
1634 27-12-2013 03:10:00 2.6 C 5.5 g/m*3 2.6 C 1.6 km/h
1635 27-12-2013 03:15:00 2.5 C 5.46 g/m*3 2.5 C 3.2 km/h
1636 27-12-2013 03:20:00 2.5 C 5.46 g/m*3 2.5 C 3.2 km/h
1637 27-12-2013 03:25:00 2.5 C 5.46 g/m*3 2.5 C 0 km/h
1638 27-12-2013 03:30:00 2.5 C 5.46 g/m*3 2.5 C 1.6 km/h
1639 27-12-2013 03:35:00 2.4 C 5.42 g/m*3 2.4 C 3.2 km/h
1640 27-12-2013 03:40:00 2.4 C 5.42 g/m*3 2.4 C 3.2 km/h
1641 27-12-2013 03:45:00 2.4 C 5.42 g/m*3 2.4 C 3.2 km/h
1642 27-12-2013 03:50:00 2.4 C 5.42 g/m*3 2.4 C 3.2 km/h
1643 27-12-2013 03:55:00 2.4 C 5.48 g/m*3 2.4 C 3.2 km/h
1644 27-12-2013 04:00:00 2.4 C 5.48 g/m*3 2.4 C 4.8 km/h
1645 27-12-2013 04:05:00 2.5 C 5.52 g/m*3 2.5 C 3.2 km/h
1646 27-12-2013 04:10:00 2.6 C 5.56 g/m*3 2.6 C 3.2 km/h
1647 27-12-2013 04:15:00 2.8 C 5.63 g/m*3 2.8 C 1.6 km/h
1648 27-12-2013 04:20:00 3.1 C 5.75 g/m*3 3.1 C 3.2 km/h
1649 27-12-2013 04:25:00 3.3 C 5.82 g/m*3 3.3 C 3.2 km/h
1650 27-12-2013 04:30:00 3.7 C 5.98 g/m*3 2.09 C 6.4 km/h
Sensor: Nr:Datum:Temp:Abs-Feuchte:Windchill:Wind:
Aussen-T/F 1651 27-12-2013 04:35:00 4.1 C 6.08 g/m*3 4.1 C 4.8 km/h
1652 27-12-2013 04:40:00 4.3 C 6.1 g/m*3 4.3 C 3.2 km/h
1653 27-12-2013 04:45:00 4.4 C 6.07 g/m*3 4.4 C 3.2 km/h
1654 27-12-2013 04:50:00 4.6 C 6.09 g/m*3 4.6 C 3.2 km/h
1655 27-12-2013 04:55:00 4.6 C 6.02 g/m*3 4.6 C 4.8 km/h
1656 27-12-2013 05:00:00 4.8 C 6.1 g/m*3 4.8 C 3.2 km/h
1657 27-12-2013 05:05:00 4.8 C 6.04 g/m*3 4.8 C 3.2 km/h
1658 27-12-2013 05:10:00 4.8 C 6.04 g/m*3 3.36 C 6.4 km/h
1659 27-12-2013 05:15:00 4.8 C 6.04 g/m*3 4.8 C 4.8 km/h
1660 27-12-2013 05:20:00 4.8 C 5.97 g/m*3 4.8 C 3.2 km/h
1661 27-12-2013 05:25:00 5 C 6.05 g/m*3 2.72 C 9.7 km/h
1662 27-12-2013 05:30:00 5.2 C 6.06 g/m*3 5.2 C 3.2 km/h
1663 27-12-2013 05:35:00 5.2 C 6.06 g/m*3 5.2 C 4.8 km/h
1664 27-12-2013 05:40:00 5.3 C 5.96 g/m*3 2.75 C 11.3 km/h
1665 27-12-2013 05:45:00 5.4 C 6.07 g/m*3 5.4 C 3.2 km/h
1666 27-12-2013 05:50:00 5.4 C 5.93 g/m*3 3.2 C 9.7 km/h
1667 27-12-2013 05:55:00 5.4 C 5.93 g/m*3 5.4 C 4.8 km/h
1668 27-12-2013 06:00:00 5.3 C 5.89 g/m*3 3.46 C 8.1 km/h
1669 27-12-2013 06:05:00 5.2 C 5.85 g/m*3 5.2 C 4.8 km/h
1670 27-12-2013 06:10:00 5.3 C 5.89 g/m*3 3.94 C 6.4 km/h
1671 27-12-2013 06:15:00 5.2 C 5.85 g/m*3 3.82 C 6.4 km/h
1672 27-12-2013 06:20:00 5.1 C 5.81 g/m*3 5.1 C 4.8 km/h
1673 27-12-2013 06:25:00 4.9 C 5.81 g/m*3 4.9 C 4.8 km/h
1674 27-12-2013 06:30:00 4.9 C 5.87 g/m*3 4.9 C 3.2 km/h
1675 27-12-2013 06:35:00 4.9 C 5.87 g/m*3 4.9 C 3.2 km/h
Sensor: Nr:Datum:Temp:Abs-Feuchte:Windchill:Wind:
Aussen-T/F 1676 27-12-2013 06:40:00 4.9 C 5.94 g/m*3 4.9 C 0 km/h
1677 27-12-2013 06:45:00 4.7 C 5.93 g/m*3 4.7 C 1.6 km/h
1678 27-12-2013 06:50:00 4.6 C 5.89 g/m*3 4.6 C 1.6 km/h
1679 27-12-2013 06:55:00 4.5 C 5.85 g/m*3 4.5 C 1.6 km/h
1680 27-12-2013 07:00:00 4.4 C 5.88 g/m*3 4.4 C 1.6 km/h
1681 27-12-2013 07:05:00 4.3 C 5.84 g/m*3 4.3 C 3.2 km/h
1682 27-12-2013 07:10:00 4.3 C 5.84 g/m*3 4.3 C 1.6 km/h
1683 27-12-2013 07:15:00 4.3 C 5.84 g/m*3 4.3 C 0 km/h
1684 27-12-2013 07:20:00 4.4 C 5.88 g/m*3 4.4 C 4.8 km/h
1685 27-12-2013 07:25:00 4.4 C 5.88 g/m*3 4.4 C 3.2 km/h
1686 27-12-2013 07:30:00 4.3 C 5.84 g/m*3 4.3 C 1.6 km/h
1687 27-12-2013 07:35:00 4.3 C 5.84 g/m*3 4.3 C 0 km/h
1688 27-12-2013 07:40:00 4.2 C 5.86 g/m*3 4.2 C 1.6 km/h
1689 27-12-2013 07:45:00 4.1 C 5.82 g/m*3 4.1 C 3.2 km/h
1690 27-12-2013 07:50:00 4.1 C 5.76 g/m*3 4.1 C 1.6 km/h
1691 27-12-2013 07:55:00 4 C 5.79 g/m*3 4 C 3.2 km/h
1692 27-12-2013 08:00:00 3.9 C 5.75 g/m*3 3.9 C 1.6 km/h
1693 27-12-2013 08:05:00 3.8 C 5.77 g/m*3 3.8 C 3.2 km/h
1694 27-12-2013 08:10:00 3.8 C 5.77 g/m*3 3.8 C 3.2 km/h
1695 27-12-2013 08:15:00 3.8 C 5.77 g/m*3 3.8 C 1.6 km/h
1696 27-12-2013 08:20:00 3.7 C 5.73 g/m*3 3.7 C 1.6 km/h
1697 27-12-2013 08:25:00 3.8 C 5.77 g/m*3 2.21 C 6.4 km/h
1698 27-12-2013 08:30:00 3.8 C 5.77 g/m*3 3.8 C 1.6 km/h
1699 27-12-2013 08:35:00 3.8 C 5.77 g/m*3 3.8 C 3.2 km/h
1700 27-12-2013 08:40:00 3.8 C 5.77 g/m*3 2.21 C 6.4 km/h
Sensor: Nr:Datum:Temp:Abs-Feuchte:Windchill:Wind:
Aussen-T/F 1701 27-12-2013 08:45:00 4.1 C 5.82 g/m*3 4.1 C 3.2 km/h
1702 27-12-2013 08:50:00 4.2 C 5.86 g/m*3 4.2 C 4.8 km/h
1703 27-12-2013 08:55:00 4.4 C 5.81 g/m*3 4.4 C 4.8 km/h
1704 27-12-2013 09:00:00 4.6 C 5.89 g/m*3 4.6 C 4.8 km/h
1705 27-12-2013 09:05:00 4.7 C 5.93 g/m*3 4.7 C 3.2 km/h
1706 27-12-2013 09:10:00 4.8 C 5.97 g/m*3 4.8 C 4.8 km/h
1707 27-12-2013 09:15:00 4.8 C 5.9 g/m*3 2.49 C 9.7 km/h
1708 27-12-2013 09:20:00 5.1 C 5.95 g/m*3 3.23 C 8.1 km/h
1709 27-12-2013 09:25:00 5.2 C 5.92 g/m*3 5.2 C 3.2 km/h
1710 27-12-2013 09:30:00 5.3 C 5.82 g/m*3 5.3 C 4.8 km/h
1711 27-12-2013 09:35:00 5.4 C 6.14 g/m*3 5.4 C 4.8 km/h
1712 27-12-2013 09:40:00 5.4 C 6 g/m*3 5.4 C 3.2 km/h
1713 27-12-2013 09:45:00 5.5 C 6.04 g/m*3 5.5 C 0 km/h
1714 27-12-2013 09:50:00 5.6 C 6.01 g/m*3 4.29 C 6.4 km/h
1715 27-12-2013 09:55:00 5.7 C 5.84 g/m*3 3.23 C 11.3 km/h
1716 27-12-2013 10:00:00 5.9 C 5.84 g/m*3 4.17 C 8.1 km/h
1717 27-12-2013 10:05:00 6.2 C 5.81 g/m*3 4.52 C 8.1 km/h
1718 27-12-2013 10:10:00 6.3 C 5.85 g/m*3 6.3 C 4.8 km/h
1719 27-12-2013 10:15:00 6.4 C 5.81 g/m*3 6.4 C 4.8 km/h
1720 27-12-2013 10:20:00 6.5 C 5.77 g/m*3 3.92 C 12.9 km/h
1721 27-12-2013 10:25:00 6.6 C 5.89 g/m*3 5.44 C 6.4 km/h
1722 27-12-2013 10:30:00 6.7 C 5.85 g/m*3 5.11 C 8.1 km/h
1723 27-12-2013 10:35:00 6.7 C 5.85 g/m*3 4.75 C 9.7 km/h
1724 27-12-2013 10:40:00 6.8 C 5.74 g/m*3 3.61 C 17.7 km/h
1725 27-12-2013 10:45:00 6.8 C 5.81 g/m*3 3.61 C 17.7 km/h
Sensor: Nr:Datum:Temp:Abs-Feuchte:Windchill:Wind:
Aussen-T/F 1726 27-12-2013 10:50:00 6.9 C 5.77 g/m*3 3.54 C 19.3 km/h
1727 27-12-2013 10:55:00 6.9 C 5.77 g/m*3 3.54 C 19.3 km/h
1728 27-12-2013 11:00:00 7 C 5.81 g/m*3 5.9 C 6.4 km/h
1729 27-12-2013 11:05:00 7 C 5.89 g/m*3 4.8 C 11.3 km/h
1730 27-12-2013 11:10:00 7 C 5.81 g/m*3 5.9 C 6.4 km/h
1731 27-12-2013 11:15:00 7 C 5.81 g/m*3 5.46 C 8.1 km/h
1732 27-12-2013 11:20:00 7.1 C 5.77 g/m*3 6.02 C 6.4 km/h
1733 27-12-2013 11:25:00 7.1 C 5.85 g/m*3 5.58 C 8.1 km/h
1734 27-12-2013 11:30:00 7.1 C 5.85 g/m*3 6.02 C 6.4 km/h
1735 27-12-2013 11:35:00 7.1 C 5.85 g/m*3 7.1 C 4.8 km/h
1736 27-12-2013 11:40:00 7.2 C 5.89 g/m*3 6.13 C 6.4 km/h
1737 27-12-2013 11:45:00 7.2 C 5.89 g/m*3 5.35 C 9.7 km/h
1738 27-12-2013 11:50:00 7.3 C 5.85 g/m*3 4.9 C 12.9 km/h
1739 27-12-2013 11:55:00 7.4 C 5.88 g/m*3 5.28 C 11.3 km/h
1740 27-12-2013 12:00:00 7.4 C 5.88 g/m*3 5.58 C 9.7 km/h
1741 27-12-2013 12:05:00 7.4 C 5.88 g/m*3 5.93 C 8.1 km/h
1742 27-12-2013 12:10:00 7.4 C 5.88 g/m*3 5.02 C 12.9 km/h
1743 27-12-2013 12:30:00 7.8 C 5.96 g/m*3 5.51 C 12.9 km/h
1744 27-12-2013 12:35:00 7.8 C 6.04 g/m*3 6.4 C 8.1 km/h
1745 27-12-2013 12:40:00 7.9 C 6.08 g/m*3 7.9 C 4.8 km/h
1746 27-12-2013 12:45:00 7.9 C 6.08 g/m*3 6.52 C 8.1 km/h
1747 27-12-2013 12:50:00 7.9 C 6.08 g/m*3 5.63 C 12.9 km/h
1748 27-12-2013 12:55:00 7.9 C 6.08 g/m*3 6.18 C 9.7 km/h
1749 27-12-2013 13:00:00 7.9 C 6 g/m*3 5.18 C 16.1 km/h
1750 27-12-2013 13:05:00 7.9 C 6.08 g/m*3 5.89 C 11.3 km/h
Sensor: Nr:Datum:Temp:Abs-Feuchte:Windchill:Wind:
Aussen-T/F 1751 27-12-2013 13:10:00 7.9 C 6.08 g/m*3 6.18 C 9.7 km/h
1752 27-12-2013 13:15:00 7.9 C 6.08 g/m*3 6.18 C 9.7 km/h
1753 27-12-2013 13:20:00 8.2 C 6.2 g/m*3 5.99 C 12.9 km/h
1754 27-12-2013 13:25:00 8.3 C 6.15 g/m*3 6.66 C 9.7 km/h
1755 27-12-2013 13:30:00 8.4 C 6.19 g/m*3 5.61 C 17.7 km/h
1756 27-12-2013 13:35:00 8.6 C 6.44 g/m*3 5.86 C 17.7 km/h
1757 27-12-2013 13:40:00 8.7 C 6.49 g/m*3 7.87 C 6.4 km/h
1758 27-12-2013 13:45:00 8.8 C 6.53 g/m*3 7.98 C 6.4 km/h
1759 27-12-2013 13:50:00 8.8 C 6.53 g/m*3 7.98 C 6.4 km/h
1760 27-12-2013 13:55:00 8.8 C 6.44 g/m*3 6.97 C 11.3 km/h
1761 27-12-2013 14:00:00 8.8 C 6.44 g/m*3 6.97 C 11.3 km/h
1762 27-12-2013 14:05:00 8.8 C 6.44 g/m*3 8.8 C 4.8 km/h
1763 27-12-2013 16:05:00 9.3 C 6.74 g/m*3 8.16 C 8.1 km/h
1764 27-12-2013 16:10:00 9.3 C 6.74 g/m*3 8.16 C 8.1 km/h
1765 27-12-2013 16:15:00 9.3 C 6.74 g/m*3 9.3 C 4.8 km/h
1766 27-12-2013 16:20:00 9.3 C 6.83 g/m*3 7.58 C 11.3 km/h
1767 27-12-2013 16:25:00 9.1 C 6.65 g/m*3 7.33 C 11.3 km/h
1768 27-12-2013 16:30:00 9.1 C 6.65 g/m*3 8.33 C 6.4 km/h
1769 27-12-2013 16:35:00 9.1 C 6.65 g/m*3 7.93 C 8.1 km/h
1770 27-12-2013 16:40:00 9.1 C 6.65 g/m*3 8.33 C 6.4 km/h
1771 27-12-2013 17:20:00 8.9 C 6.92 g/m*3 8.9 C 4.8 km/h
1772 27-12-2013 17:25:00 8.9 C 6.92 g/m*3 8.1 C 6.4 km/h
1773 27-12-2013 17:30:00 8.9 C 7.01 g/m*3 8.1 C 6.4 km/h
1774 27-12-2013 17:35:00 8.9 C 7.01 g/m*3 8.9 C 4.8 km/h
1775 27-12-2013 17:40:00 8.8 C 6.96 g/m*3 8.8 C 1.6 km/h
Sensor: Nr:Datum:Temp:Abs-Feuchte:Windchill:Wind:
Aussen-T/F 1776 27-12-2013 17:45:00 8.8 C 6.96 g/m*3 7.58 C 8.1 km/h
1777 27-12-2013 17:50:00 8.8 C 6.96 g/m*3 8.8 C 3.2 km/h
1778 27-12-2013 17:55:00 8.8 C 6.96 g/m*3 8.8 C 4.8 km/h
1779 27-12-2013 18:00:00 8.8 C 6.96 g/m*3 7.98 C 6.4 km/h
1780 27-12-2013 18:05:00 8.9 C 7.01 g/m*3 7.69 C 8.1 km/h
1781 27-12-2013 18:10:00 8.9 C 7.1 g/m*3 7.69 C 8.1 km/h
1782 27-12-2013 18:15:00 8.9 C 7.1 g/m*3 6.85 C 12.9 km/h
1783 27-12-2013 18:20:00 8.9 C 7.1 g/m*3 7.37 C 9.7 km/h
1784 27-12-2013 18:25:00 8.9 C 7.1 g/m*3 7.37 C 9.7 km/h
1785 27-12-2013 18:30:00 8.9 C 7.1 g/m*3 8.1 C 6.4 km/h
1786 27-12-2013 18:35:00 8.9 C 7.1 g/m*3 8.9 C 3.2 km/h
1787 27-12-2013 18:40:00 8.9 C 7.1 g/m*3 7.37 C 9.7 km/h
1788 27-12-2013 18:45:00 9 C 7.23 g/m*3 9 C 3.2 km/h
1789 27-12-2013 18:50:00 8.9 C 7.18 g/m*3 7.69 C 8.1 km/h
1790 27-12-2013 18:55:00 8.9 C 7.18 g/m*3 8.9 C 4.8 km/h
1791 27-12-2013 19:00:00 9.1 C 7.28 g/m*3 7.33 C 11.3 km/h
1792 27-12-2013 19:05:00 9.1 C 7.19 g/m*3 9.1 C 3.2 km/h
1793 27-12-2013 19:10:00 9.2 C 7.32 g/m*3 8.05 C 8.1 km/h
1794 27-12-2013 19:15:00 9.2 C 7.23 g/m*3 8.05 C 8.1 km/h
1795 27-12-2013 19:20:00 9.2 C 7.23 g/m*3 9.2 C 1.6 km/h
1796 27-12-2013 19:25:00 9.3 C 7.19 g/m*3 8.56 C 6.4 km/h
1797 27-12-2013 19:30:00 9.3 C 7.28 g/m*3 9.3 C 4.8 km/h
1798 27-12-2013 19:35:00 9.3 C 7.28 g/m*3 9.3 C 4.8 km/h
1799 27-12-2013 19:40:00 9.3 C 7.28 g/m*3 9.3 C 4.8 km/h
1800 27-12-2013 19:45:00 9.3 C 7.37 g/m*3 9.3 C 4.8 km/h
Sensor: Nr:Datum:Temp:Abs-Feuchte:Windchill:Wind:
Aussen-T/F 1801 27-12-2013 19:50:00 9.3 C 7.37 g/m*3 9.3 C 4.8 km/h
1802 27-12-2013 19:55:00 9.4 C 7.42 g/m*3 9.4 C 4.8 km/h
1803 27-12-2013 20:00:00 9.5 C 7.55 g/m*3 9.5 C 4.8 km/h
1804 27-12-2013 20:05:00 9.6 C 7.6 g/m*3 9.6 C 4.8 km/h
1805 27-12-2013 20:10:00 9.7 C 7.56 g/m*3 8.06 C 11.3 km/h
1806 27-12-2013 20:15:00 9.8 C 7.61 g/m*3 9.8 C 4.8 km/h
1807 27-12-2013 20:20:00 9.8 C 7.61 g/m*3 9.8 C 1.6 km/h
1808 27-12-2013 20:25:00 9.7 C 7.56 g/m*3 9.7 C 1.6 km/h
1809 27-12-2013 20:30:00 9.6 C 7.6 g/m*3 9.6 C 4.8 km/h
1810 27-12-2013 20:35:00 9.5 C 7.65 g/m*3 8.79 C 6.4 km/h
1811 27-12-2013 20:40:00 9.6 C 7.6 g/m*3 9.6 C 4.8 km/h
1812 27-12-2013 20:45:00 9.7 C 7.74 g/m*3 8.63 C 8.1 km/h
1813 27-12-2013 20:50:00 9.7 C 7.74 g/m*3 9.7 C 4.8 km/h
1814 27-12-2013 20:55:00 9.8 C 7.79 g/m*3 9.8 C 3.2 km/h
1815 27-12-2013 21:00:00 9.8 C 7.79 g/m*3 9.8 C 3.2 km/h
1816 27-12-2013 21:05:00 9.8 C 7.79 g/m*3 9.8 C 3.2 km/h
1817 27-12-2013 21:10:00 9.8 C 7.79 g/m*3 9.8 C 4.8 km/h
1818 27-12-2013 21:15:00 9.8 C 7.79 g/m*3 8.75 C 8.1 km/h
1819 27-12-2013 21:20:00 10 C 7.8 g/m*3 10 C 4.8 km/h
1820 27-12-2013 21:25:00 10.1 C 7.85 g/m*3 10.1 C 1.6 km/h
1821 27-12-2013 21:30:00 10.1 C 7.85 g/m*3 10.1 C 1.6 km/h
1822 27-12-2013 21:35:00 10.1 C 7.94 g/m*3 10.1 C 4.8 km/h
1823 27-12-2013 21:40:00 9.9 C 7.84 g/m*3 9.9 C 3.2 km/h
1824 27-12-2013 21:45:00 9.9 C 7.84 g/m*3 9.9 C 3.2 km/h
1825 27-12-2013 21:50:00 9.9 C 7.94 g/m*3 9.9 C 4.8 km/h
Sensor: Nr:Datum:Temp:Abs-Feuchte:Windchill:Wind:
Aussen-T/F 1826 27-12-2013 21:55:00 9.9 C 7.94 g/m*3 8.87 C 8.1 km/h
1827 27-12-2013 22:00:00 10.1 C 8.13 g/m*3 8.54 C 11.3 km/h
1828 27-12-2013 22:05:00 10.2 C 8.18 g/m*3 8.66 C 11.3 km/h
1829 27-12-2013 22:10:00 10.2 C 8.18 g/m*3 10.2 C 4.8 km/h
1830 27-12-2013 22:15:00 10.2 C 8.28 g/m*3 10.2 C 3.2 km/h
1831 27-12-2013 22:20:00 10.1 C 8.32 g/m*3 10.1 C 3.2 km/h
1832 27-12-2013 22:25:00 10 C 8.27 g/m*3 8.42 C 11.3 km/h
1833 27-12-2013 22:30:00 10.1 C 8.32 g/m*3 10.1 C 4.8 km/h
1834 27-12-2013 22:35:00 10 C 8.27 g/m*3 8.99 C 8.1 km/h
1835 27-12-2013 22:40:00 10 C 8.27 g/m*3 10 C 4.8 km/h
1836 27-12-2013 22:45:00 9.9 C 8.22 g/m*3 9.25 C 6.4 km/h
1837 27-12-2013 22:50:00 9.8 C 8.26 g/m*3 9.8 C 3.2 km/h
1838 27-12-2013 22:55:00 9.8 C 8.26 g/m*3 8.45 C 9.7 km/h
1839 27-12-2013 23:00:00 9.7 C 8.2 g/m*3 9.7 C 4.8 km/h
1840 27-12-2013 23:05:00 9.7 C 8.3 g/m*3 9.7 C 3.2 km/h
1841 27-12-2013 23:10:00 9.7 C 8.39 g/m*3 9.7 C 4.8 km/h
1842 27-12-2013 23:15:00 9.7 C 8.39 g/m*3 9.7 C 3.2 km/h
1843 27-12-2013 23:20:00 9.7 C 8.39 g/m*3 8.63 C 8.1 km/h
1844 27-12-2013 23:25:00 9.7 C 8.48 g/m*3 9.02 C 6.4 km/h
1845 27-12-2013 23:30:00 9.6 C 8.43 g/m*3 8.52 C 8.1 km/h
1846 27-12-2013 23:35:00 9.6 C 8.43 g/m*3 7.7 C 12.9 km/h
1847 27-12-2013 23:40:00 9.6 C 8.43 g/m*3 9.6 C 4.8 km/h
1848 27-12-2013 23:45:00 9.6 C 8.43 g/m*3 8.91 C 6.4 km/h
1849 27-12-2013 23:50:00 9.7 C 8.39 g/m*3 9.7 C 4.8 km/h
1850 27-12-2013 23:55:00 9.8 C 8.44 g/m*3 9.8 C 4.8 km/h
Sensor: Nr:Datum:Temp:Abs-Feuchte:Windchill:Wind:
Aussen-T/F 1851 28-12-2013 00:00:00 9.8 C 8.44 g/m*3 9.8 C 4.8 km/h
1852 28-12-2013 00:05:00 9.8 C 8.44 g/m*3 8.75 C 8.1 km/h
1853 28-12-2013 00:10:00 9.8 C 8.44 g/m*3 9.8 C 3.2 km/h
1854 28-12-2013 00:15:00 9.8 C 8.44 g/m*3 9.8 C 3.2 km/h
1855 28-12-2013 00:20:00 9.7 C 8.3 g/m*3 9.7 C 4.8 km/h
1856 28-12-2013 00:25:00 9.8 C 8.35 g/m*3 9.8 C 4.8 km/h
1857 28-12-2013 00:30:00 9.8 C 8.44 g/m*3 9.14 C 6.4 km/h
1858 28-12-2013 00:35:00 9.7 C 8.3 g/m*3 9.7 C 3.2 km/h
1859 28-12-2013 00:40:00 9.7 C 8.39 g/m*3 9.7 C 4.8 km/h
1860 28-12-2013 00:45:00 9.6 C 8.34 g/m*3 8.91 C 6.4 km/h
1861 28-12-2013 00:50:00 9.6 C 8.34 g/m*3 9.6 C 4.8 km/h
1862 28-12-2013 00:55:00 9.5 C 8.28 g/m*3 9.5 C 1.6 km/h
1863 28-12-2013 01:00:00 9.5 C 8.28 g/m*3 9.5 C 3.2 km/h
1864 28-12-2013 01:05:00 9.5 C 8.28 g/m*3 9.5 C 3.2 km/h
1865 28-12-2013 01:10:00 9.5 C 8.28 g/m*3 9.5 C 3.2 km/h
1866 28-12-2013 01:15:00 9.7 C 8.3 g/m*3 9.7 C 3.2 km/h
1867 28-12-2013 01:20:00 9.8 C 8.35 g/m*3 9.8 C 3.2 km/h
1868 28-12-2013 01:25:00 9.8 C 8.26 g/m*3 9.8 C 1.6 km/h
1869 28-12-2013 01:30:00 10.1 C 8.32 g/m*3 9.48 C 6.4 km/h
1870 28-12-2013 01:35:00 10.1 C 8.32 g/m*3 10.1 C 1.6 km/h
1871 28-12-2013 01:40:00 10.1 C 8.32 g/m*3 10.1 C 0 km/h
1872 28-12-2013 01:45:00 10.2 C 8.28 g/m*3 10.2 C 1.6 km/h
1873 28-12-2013 01:50:00 10.3 C 8.04 g/m*3 9.72 C 6.4 km/h
1874 28-12-2013 01:55:00 10.7 C 8.15 g/m*3 10.7 C 4.8 km/h
1875 28-12-2013 02:00:00 10.9 C 8.16 g/m*3 10.04 C 8.1 km/h
Sensor: Nr:Datum:Temp:Abs-Feuchte:Windchill:Wind:
Aussen-T/F 1876 28-12-2013 02:05:00 10.9 C 8.26 g/m*3 10.9 C 4.8 km/h
1877 28-12-2013 02:10:00 10.9 C 8.16 g/m*3 10.9 C 4.8 km/h
1878 28-12-2013 02:15:00 10.7 C 8.15 g/m*3 10.7 C 3.2 km/h
1879 28-12-2013 02:20:00 10.8 C 8.01 g/m*3 10.8 C 3.2 km/h
1880 28-12-2013 02:25:00 10.8 C 8.11 g/m*3 10.8 C 3.2 km/h
1881 28-12-2013 02:30:00 10.8 C 7.91 g/m*3 9.16 C 12.9 km/h
1882 28-12-2013 02:35:00 10.9 C 8.16 g/m*3 10.41 C 6.4 km/h
1883 28-12-2013 02:40:00 10.9 C 8.06 g/m*3 10.41 C 6.4 km/h
1884 28-12-2013 02:45:00 10.8 C 7.91 g/m*3 9.93 C 8.1 km/h
1885 28-12-2013 02:50:00 10.9 C 7.96 g/m*3 9.76 C 9.7 km/h
1886 28-12-2013 02:55:00 10.9 C 7.86 g/m*3 10.9 C 4.8 km/h
1887 28-12-2013 03:00:00 10.9 C 7.96 g/m*3 10.9 C 4.8 km/h
1888 28-12-2013 03:05:00 10.9 C 7.86 g/m*3 9.76 C 9.7 km/h
1889 28-12-2013 03:10:00 10.9 C 7.86 g/m*3 10.9 C 3.2 km/h
1890 28-12-2013 03:15:00 10.9 C 7.96 g/m*3 10.9 C 4.8 km/h
1891 28-12-2013 03:20:00 10.8 C 7.91 g/m*3 10.29 C 6.4 km/h
1892 28-12-2013 03:25:00 10.7 C 7.96 g/m*3 10.18 C 6.4 km/h
1893 28-12-2013 03:30:00 10.8 C 7.91 g/m*3 10.29 C 6.4 km/h
1894 28-12-2013 03:35:00 10.8 C 7.81 g/m*3 10.29 C 6.4 km/h
1895 28-12-2013 03:40:00 10.8 C 7.91 g/m*3 10.8 C 4.8 km/h
1896 28-12-2013 03:45:00 10.7 C 7.76 g/m*3 10.7 C 4.8 km/h
1897 28-12-2013 03:50:00 10.6 C 7.81 g/m*3 10.6 C 4.8 km/h
1898 28-12-2013 03:55:00 10.7 C 7.76 g/m*3 10.18 C 6.4 km/h
1899 28-12-2013 04:00:00 10.7 C 7.86 g/m*3 10.7 C 4.8 km/h
1900 28-12-2013 04:05:00 10.7 C 7.86 g/m*3 10.18 C 6.4 km/h
Sensor: Nr:Datum:Temp:Abs-Feuchte:Windchill:Wind:
Aussen-T/F 1901 28-12-2013 04:10:00 10.7 C 7.76 g/m*3 10.7 C 4.8 km/h
1902 28-12-2013 04:15:00 10.7 C 7.86 g/m*3 10.7 C 3.2 km/h
1903 28-12-2013 04:20:00 10.6 C 7.81 g/m*3 10.6 C 4.8 km/h
1904 28-12-2013 04:25:00 10.6 C 7.71 g/m*3 10.6 C 4.8 km/h
1905 28-12-2013 04:30:00 10.4 C 7.71 g/m*3 10.4 C 4.8 km/h
1906 28-12-2013 04:35:00 10.4 C 7.71 g/m*3 9.83 C 6.4 km/h
1907 28-12-2013 04:40:00 10.5 C 7.66 g/m*3 10.5 C 3.2 km/h
1908 28-12-2013 04:45:00 10.5 C 7.76 g/m*3 10.5 C 4.8 km/h
1909 28-12-2013 04:50:00 10.4 C 7.71 g/m*3 10.4 C 4.8 km/h
1910 28-12-2013 04:55:00 10.3 C 7.85 g/m*3 10.3 C 4.8 km/h
1911 28-12-2013 05:00:00 10.2 C 7.99 g/m*3 10.2 C 3.2 km/h
1912 28-12-2013 05:05:00 10 C 7.89 g/m*3 10 C 3.2 km/h
1913 28-12-2013 05:10:00 10.1 C 7.94 g/m*3 10.1 C 3.2 km/h
1914 28-12-2013 05:15:00 9.9 C 7.94 g/m*3 9.9 C 3.2 km/h
1915 28-12-2013 05:20:00 9.8 C 7.79 g/m*3 9.8 C 1.6 km/h
1916 28-12-2013 05:25:00 9.9 C 7.84 g/m*3 9.25 C 6.4 km/h
1917 28-12-2013 05:30:00 9.9 C 8.03 g/m*3 9.9 C 1.6 km/h
1918 28-12-2013 05:35:00 9.9 C 8.12 g/m*3 9.25 C 6.4 km/h
1919 28-12-2013 05:40:00 9.9 C 7.94 g/m*3 8.3 C 11.3 km/h
1920 28-12-2013 05:45:00 9.8 C 8.07 g/m*3 9.8 C 4.8 km/h
1921 28-12-2013 05:50:00 9.8 C 8.16 g/m*3 9.8 C 1.6 km/h
1922 28-12-2013 05:55:00 9.6 C 8.15 g/m*3 9.6 C 4.8 km/h
1923 28-12-2013 06:00:00 9.3 C 8 g/m*3 8.56 C 6.4 km/h
1924 28-12-2013 06:05:00 9.3 C 7.91 g/m*3 9.3 C 4.8 km/h
1925 28-12-2013 06:10:00 9.4 C 8.05 g/m*3 8.68 C 6.4 km/h
Sensor: Nr:Datum:Temp:Abs-Feuchte:Windchill:Wind:
Aussen-T/F 1926 28-12-2013 06:15:00 9.2 C 8.04 g/m*3 9.2 C 3.2 km/h
1927 28-12-2013 06:20:00 9.1 C 8.07 g/m*3 9.1 C 3.2 km/h
1928 28-12-2013 06:25:00 9 C 7.93 g/m*3 9 C 3.2 km/h
1929 28-12-2013 06:30:00 9 C 7.93 g/m*3 9 C 4.8 km/h
1930 28-12-2013 06:35:00 9.1 C 7.99 g/m*3 9.1 C 4.8 km/h
1931 28-12-2013 06:40:00 9.2 C 7.77 g/m*3 9.2 C 3.2 km/h
1932 28-12-2013 06:45:00 9.3 C 7.82 g/m*3 9.3 C 4.8 km/h
1933 28-12-2013 06:50:00 9.3 C 7.91 g/m*3 9.3 C 3.2 km/h
1934 28-12-2013 06:55:00 9.3 C 7.82 g/m*3 8.56 C 6.4 km/h
1935 28-12-2013 07:00:00 9.3 C 7.91 g/m*3 9.3 C 3.2 km/h
1936 28-12-2013 07:05:00 9.2 C 7.86 g/m*3 9.2 C 3.2 km/h
1937 28-12-2013 07:10:00 9.2 C 7.86 g/m*3 9.2 C 1.6 km/h
1938 28-12-2013 07:15:00 9.2 C 7.68 g/m*3 9.2 C 3.2 km/h
1939 28-12-2013 07:20:00 9.4 C 7.87 g/m*3 9.4 C 1.6 km/h
1940 28-12-2013 07:25:00 9.3 C 7.91 g/m*3 8.56 C 6.4 km/h
1941 28-12-2013 07:30:00 9.4 C 7.87 g/m*3 9.4 C 4.8 km/h
1942 28-12-2013 07:35:00 9.4 C 7.87 g/m*3 8.68 C 6.4 km/h
1943 28-12-2013 07:40:00 9.3 C 7.91 g/m*3 9.3 C 1.6 km/h
1944 28-12-2013 07:45:00 9.3 C 7.82 g/m*3 8.16 C 8.1 km/h
1945 28-12-2013 07:50:00 9.4 C 7.96 g/m*3 9.4 C 4.8 km/h
1946 28-12-2013 07:55:00 9.8 C 7.79 g/m*3 7.73 C 14.5 km/h
1947 28-12-2013 08:00:00 10.1 C 7.94 g/m*3 10.1 C 3.2 km/h
1948 28-12-2013 08:05:00 10.1 C 8.04 g/m*3 10.1 C 3.2 km/h
1949 28-12-2013 08:10:00 10 C 8.08 g/m*3 9.37 C 6.4 km/h
1950 28-12-2013 08:15:00 9.9 C 7.94 g/m*3 9.25 C 6.4 km/h
Sensor: Nr:Datum:Temp:Abs-Feuchte:Windchill:Wind:
Aussen-T/F 1951 28-12-2013 08:20:00 10 C 7.89 g/m*3 8.42 C 11.3 km/h
1952 28-12-2013 08:25:00 9.9 C 7.84 g/m*3 8.87 C 8.1 km/h
1953 28-12-2013 08:30:00 10.1 C 7.94 g/m*3 7.91 C 16.1 km/h
1954 28-12-2013 08:35:00 10.2 C 7.99 g/m*3 8.92 C 9.7 km/h
1955 28-12-2013 08:40:00 10.2 C 7.99 g/m*3 9.22 C 8.1 km/h
1956 28-12-2013 08:45:00 10.1 C 7.94 g/m*3 9.48 C 6.4 km/h
1957 28-12-2013 08:50:00 10.1 C 7.94 g/m*3 9.48 C 6.4 km/h
1958 28-12-2013 08:55:00 10.1 C 7.94 g/m*3 9.48 C 6.4 km/h
1959 28-12-2013 09:00:00 10.1 C 7.94 g/m*3 8.54 C 11.3 km/h
1960 28-12-2013 09:05:00 10.1 C 7.94 g/m*3 9.1 C 8.1 km/h
1961 28-12-2013 09:10:00 10.1 C 7.94 g/m*3 8.54 C 11.3 km/h
1962 28-12-2013 09:15:00 10 C 7.89 g/m*3 8.99 C 8.1 km/h
1963 28-12-2013 09:20:00 10 C 7.89 g/m*3 8.99 C 8.1 km/h
1964 28-12-2013 09:25:00 9.9 C 7.94 g/m*3 9.25 C 6.4 km/h
1965 28-12-2013 09:30:00 9.9 C 7.94 g/m*3 9.9 C 4.8 km/h
1966 28-12-2013 09:35:00 9.8 C 7.89 g/m*3 9.14 C 6.4 km/h
1967 28-12-2013 09:40:00 9.8 C 7.89 g/m*3 9.8 C 3.2 km/h
1968 28-12-2013 09:45:00 9.9 C 7.94 g/m*3 8.56 C 9.7 km/h
1969 28-12-2013 09:50:00 9.9 C 7.94 g/m*3 8.06 C 12.9 km/h
1970 28-12-2013 09:55:00 10 C 7.89 g/m*3 9.37 C 6.4 km/h
1971 28-12-2013 10:00:00 10.1 C 7.94 g/m*3 7.91 C 16.1 km/h
1972 28-12-2013 10:05:00 10.2 C 7.99 g/m*3 8.66 C 11.3 km/h
1973 28-12-2013 10:10:00 10.3 C 8.04 g/m*3 8.55 C 12.9 km/h
1974 28-12-2013 10:15:00 10.3 C 8.04 g/m*3 8.34 C 14.5 km/h
1975 28-12-2013 10:20:00 10.3 C 8.04 g/m*3 8.55 C 12.9 km/h
Sensor: Nr:Datum:Temp:Abs-Feuchte:Windchill:Wind:
Aussen-T/F 1976 28-12-2013 10:25:00 10.2 C 8.09 g/m*3 8.92 C 9.7 km/h
1977 28-12-2013 10:30:00 10.2 C 8.09 g/m*3 8.92 C 9.7 km/h
1978 28-12-2013 10:35:00 10.2 C 8.09 g/m*3 8.92 C 9.7 km/h
1979 28-12-2013 10:40:00 10.3 C 8.14 g/m*3 9.04 C 9.7 km/h
1980 28-12-2013 10:45:00 10.3 C 8.14 g/m*3 9.72 C 6.4 km/h
1981 28-12-2013 10:50:00 10.3 C 8.14 g/m*3 10.3 C 4.8 km/h
1982 28-12-2013 10:55:00 10.3 C 8.14 g/m*3 9.72 C 6.4 km/h
1983 28-12-2013 11:00:00 10.3 C 8.14 g/m*3 10.3 C 3.2 km/h
1984 28-12-2013 11:05:00 10.3 C 8.14 g/m*3 10.3 C 3.2 km/h
1985 28-12-2013 11:10:00 10.3 C 8.04 g/m*3 9.34 C 8.1 km/h
1986 28-12-2013 11:15:00 10.4 C 8.19 g/m*3 10.4 C 4.8 km/h
1987 28-12-2013 11:20:00 10.4 C 8.19 g/m*3 10.4 C 3.2 km/h
1988 28-12-2013 11:25:00 10.5 C 8.15 g/m*3 9.57 C 8.1 km/h
1989 28-12-2013 11:30:00 10.6 C 8.3 g/m*3 10.6 C 4.8 km/h
1990 28-12-2013 11:35:00 10.6 C 8.2 g/m*3 9.69 C 8.1 km/h
1991 28-12-2013 11:40:00 10.6 C 8.2 g/m*3 9.69 C 8.1 km/h
1992 28-12-2013 11:45:00 10.6 C 8.2 g/m*3 10.6 C 4.8 km/h
1993 28-12-2013 11:50:00 10.6 C 8.2 g/m*3 10.06 C 6.4 km/h
1994 28-12-2013 11:55:00 10.6 C 8.3 g/m*3 8.92 C 12.9 km/h
1995 28-12-2013 12:00:00 10.4 C 8.38 g/m*3 9.16 C 9.7 km/h
1996 28-12-2013 12:05:00 10.2 C 8.37 g/m*3 9.6 C 6.4 km/h
1997 28-12-2013 12:10:00 10.1 C 8.51 g/m*3 10.1 C 3.2 km/h
1998 28-12-2013 12:15:00 9.9 C 8.4 g/m*3 9.9 C 1.6 km/h
1999 28-12-2013 12:20:00 9.9 C 8.5 g/m*3 9.9 C 3.2 km/h
2000 28-12-2013 12:25:00 9.8 C 8.44 g/m*3 9.8 C 4.8 km/h
Sensor: Nr:Datum:Temp:Abs-Feuchte:Windchill:Wind:
Aussen-T/F 2001 28-12-2013 12:30:00 9.7 C 8.48 g/m*3 9.7 C 1.6 km/h
2002 28-12-2013 12:35:00 9.7 C 8.48 g/m*3 9.7 C 0 km/h
2003 28-12-2013 12:40:00 9.6 C 8.43 g/m*3 9.6 C 0 km/h
2004 28-12-2013 12:45:00 9.6 C 8.52 g/m*3 9.6 C 0 km/h
2005 28-12-2013 12:50:00 9.6 C 8.52 g/m*3 9.6 C 0 km/h
2006 28-12-2013 12:55:00 9.6 C 8.52 g/m*3 9.6 C 0 km/h
2007 28-12-2013 13:00:00 9.6 C 8.52 g/m*3 9.6 C 3.2 km/h
2008 28-12-2013 13:05:00 9.6 C 8.52 g/m*3 9.6 C 0 km/h
2009 28-12-2013 13:10:00 9.6 C 8.52 g/m*3 9.6 C 0 km/h
2010 28-12-2013 13:15:00 9.4 C 8.5 g/m*3 9.4 C 1.6 km/h
2011 28-12-2013 13:20:00 9.4 C 8.5 g/m*3 9.4 C 0 km/h
2012 28-12-2013 13:25:00 9.4 C 8.5 g/m*3 9.4 C 0 km/h
2013 28-12-2013 13:30:00 9.4 C 8.5 g/m*3 9.4 C 0 km/h
2014 28-12-2013 13:35:00 9.4 C 8.5 g/m*3 9.4 C 0 km/h
2015 28-12-2013 13:40:00 9.4 C 8.5 g/m*3 9.4 C 0 km/h
2016 28-12-2013 13:45:00 9.4 C 8.5 g/m*3 9.4 C 0 km/h
2017 28-12-2013 13:50:00 9.4 C 8.5 g/m*3 9.4 C 0 km/h
2018 28-12-2013 13:55:00 9.4 C 8.5 g/m*3 9.4 C 0 km/h
2019 28-12-2013 14:00:00 9.4 C 8.59 g/m*3 9.4 C 0 km/h
2020 28-12-2013 14:05:00 9.4 C 8.59 g/m*3 9.4 C 0 km/h
2021 28-12-2013 14:10:00 9.4 C 8.59 g/m*3 9.4 C 1.6 km/h
2022 28-12-2013 14:15:00 9.4 C 8.59 g/m*3 9.4 C 0 km/h
2023 28-12-2013 14:20:00 9.4 C 8.59 g/m*3 9.4 C 0 km/h
2024 28-12-2013 14:25:00 9.4 C 8.59 g/m*3 9.4 C 0 km/h
2025 28-12-2013 14:30:00 9.4 C 8.59 g/m*3 9.4 C 0 km/h
Sensor: Nr:Datum:Temp:Abs-Feuchte:Windchill:Wind:
Aussen-T/F 2026 28-12-2013 14:35:00 9.4 C 8.59 g/m*3 9.4 C 0 km/h
2027 28-12-2013 14:40:00 9.3 C 8.54 g/m*3 9.3 C 0 km/h
2028 28-12-2013 14:45:00 9.3 C 8.54 g/m*3 9.3 C 0 km/h
2029 28-12-2013 14:50:00 9.3 C 8.54 g/m*3 9.3 C 0 km/h
2030 28-12-2013 14:55:00 9.3 C 8.54 g/m*3 9.3 C 0 km/h
2031 28-12-2013 15:00:00 9.3 C 8.54 g/m*3 9.3 C 0 km/h
2032 28-12-2013 15:05:00 9.3 C 8.54 g/m*3 9.3 C 0 km/h
2033 28-12-2013 15:10:00 9.3 C 8.63 g/m*3 9.3 C 0 km/h
2034 28-12-2013 15:15:00 9.2 C 8.57 g/m*3 9.2 C 0 km/h
2035 28-12-2013 15:20:00 9.3 C 8.63 g/m*3 9.3 C 0 km/h
2036 28-12-2013 15:25:00 9.3 C 8.63 g/m*3 9.3 C 0 km/h
2037 28-12-2013 15:30:00 9.2 C 8.57 g/m*3 9.2 C 0 km/h
2038 28-12-2013 15:35:00 9.2 C 8.57 g/m*3 9.2 C 0 km/h
2039 28-12-2013 15:40:00 9.2 C 8.57 g/m*3 9.2 C 0 km/h
2040 28-12-2013 15:45:00 9.2 C 8.57 g/m*3 9.2 C 0 km/h
2041 28-12-2013 15:50:00 9.2 C 8.57 g/m*3 9.2 C 0 km/h
2042 28-12-2013 15:55:00 9.2 C 8.57 g/m*3 9.2 C 0 km/h
2043 28-12-2013 16:00:00 9.2 C 8.57 g/m*3 9.2 C 0 km/h
2044 28-12-2013 16:05:00 9.1 C 8.52 g/m*3 9.1 C 0 km/h
2045 28-12-2013 16:10:00 9.1 C 8.52 g/m*3 9.1 C 0 km/h
2046 28-12-2013 16:15:00 9 C 8.46 g/m*3 9 C 0 km/h
2047 28-12-2013 16:20:00 8.9 C 8.41 g/m*3 8.9 C 0 km/h
2048 28-12-2013 16:25:00 8.9 C 8.41 g/m*3 8.9 C 0 km/h
2049 28-12-2013 16:30:00 8.8 C 8.36 g/m*3 8.8 C 0 km/h
2050 28-12-2013 16:35:00 8.7 C 8.3 g/m*3 8.7 C 0 km/h
Sensor: Nr:Datum:Temp:Abs-Feuchte:Windchill:Wind:
Aussen-T/F 2051 28-12-2013 16:40:00 8.7 C 8.3 g/m*3 8.7 C 0 km/h
2052 28-12-2013 16:45:00 8.7 C 8.3 g/m*3 8.7 C 0 km/h
2053 28-12-2013 16:50:00 8.7 C 8.39 g/m*3 8.7 C 0 km/h
2054 28-12-2013 16:55:00 8.6 C 8.25 g/m*3 8.6 C 0 km/h
2055 28-12-2013 17:00:00 8.6 C 8.25 g/m*3 8.6 C 0 km/h
2056 28-12-2013 17:05:00 8.6 C 8.34 g/m*3 8.6 C 0 km/h
2057 28-12-2013 17:10:00 8.6 C 8.34 g/m*3 8.6 C 0 km/h
2058 28-12-2013 17:15:00 8.6 C 8.34 g/m*3 8.6 C 1.6 km/h
2059 28-12-2013 17:20:00 8.6 C 8.34 g/m*3 8.6 C 0 km/h
2060 28-12-2013 17:25:00 8.5 C 8.28 g/m*3 8.5 C 0 km/h
2061 28-12-2013 17:30:00 8.6 C 8.34 g/m*3 8.6 C 0 km/h
2062 28-12-2013 17:35:00 8.5 C 8.28 g/m*3 8.5 C 0 km/h
2063 28-12-2013 17:40:00 8.4 C 8.23 g/m*3 8.4 C 0 km/h
2064 28-12-2013 17:45:00 8.4 C 8.23 g/m*3 8.4 C 0 km/h
2065 28-12-2013 17:50:00 8.4 C 8.23 g/m*3 8.4 C 0 km/h
2066 28-12-2013 17:55:00 8.4 C 8.23 g/m*3 8.4 C 0 km/h
2067 28-12-2013 18:00:00 8.4 C 8.23 g/m*3 8.4 C 0 km/h
2068 28-12-2013 18:05:00 8.4 C 8.23 g/m*3 8.4 C 0 km/h
2069 28-12-2013 18:10:00 8.3 C 8.18 g/m*3 8.3 C 0 km/h
2070 28-12-2013 18:15:00 8.3 C 8.18 g/m*3 8.3 C 0 km/h
2071 28-12-2013 18:20:00 8.3 C 8.18 g/m*3 8.3 C 0 km/h
2072 28-12-2013 18:25:00 8.2 C 8.12 g/m*3 8.2 C 0 km/h
2073 28-12-2013 18:30:00 8.2 C 8.12 g/m*3 8.2 C 0 km/h
2074 28-12-2013 18:35:00 8.2 C 8.12 g/m*3 8.2 C 0 km/h
2075 28-12-2013 18:40:00 8.2 C 8.12 g/m*3 8.2 C 0 km/h
Sensor: Nr:Datum:Temp:Abs-Feuchte:Windchill:Wind:
Aussen-T/F 2076 28-12-2013 18:45:00 8.2 C 8.12 g/m*3 8.2 C 0 km/h
2077 28-12-2013 18:50:00 8.1 C 8.07 g/m*3 8.1 C 0 km/h
2078 28-12-2013 18:55:00 8.1 C 8.07 g/m*3 8.1 C 0 km/h
2079 28-12-2013 19:00:00 8.1 C 8.07 g/m*3 8.1 C 0 km/h
2080 28-12-2013 19:05:00 8 C 8.02 g/m*3 8 C 0 km/h
2081 28-12-2013 19:10:00 8 C 8.02 g/m*3 8 C 0 km/h
2082 28-12-2013 19:15:00 7.9 C 7.97 g/m*3 7.9 C 0 km/h
2083 28-12-2013 19:20:00 7.9 C 7.97 g/m*3 7.9 C 0 km/h
2084 28-12-2013 19:25:00 7.9 C 7.97 g/m*3 7.9 C 0 km/h
2085 28-12-2013 19:30:00 7.9 C 7.97 g/m*3 7.9 C 1.6 km/h
2086 28-12-2013 19:35:00 7.9 C 7.97 g/m*3 7.9 C 1.6 km/h
2087 28-12-2013 19:40:00 7.9 C 7.97 g/m*3 7.9 C 1.6 km/h
2088 28-12-2013 19:45:00 7.9 C 7.97 g/m*3 7.9 C 0 km/h
2089 28-12-2013 19:50:00 7.9 C 7.97 g/m*3 7.9 C 0 km/h
2090 28-12-2013 19:55:00 7.9 C 7.97 g/m*3 7.9 C 0 km/h
2091 28-12-2013 20:00:00 7.9 C 7.97 g/m*3 7.9 C 0 km/h
2092 28-12-2013 20:05:00 7.8 C 7.92 g/m*3 7.8 C 0 km/h
2093 28-12-2013 20:10:00 7.8 C 7.92 g/m*3 7.8 C 0 km/h
2094 28-12-2013 20:15:00 7.8 C 7.92 g/m*3 7.8 C 0 km/h
2095 28-12-2013 20:20:00 7.8 C 7.92 g/m*3 7.8 C 0 km/h
2096 28-12-2013 20:25:00 7.7 C 7.87 g/m*3 7.7 C 0 km/h
2097 28-12-2013 20:30:00 7.7 C 7.87 g/m*3 7.7 C 1.6 km/h
2098 28-12-2013 20:35:00 7.7 C 7.87 g/m*3 7.7 C 0 km/h
2099 28-12-2013 20:40:00 7.7 C 7.87 g/m*3 7.7 C 0 km/h
2100 28-12-2013 20:45:00 7.6 C 7.9 g/m*3 7.6 C 0 km/h
Sensor: Nr:Datum:Temp:Abs-Feuchte:Windchill:Wind:
Aussen-T/F 2101 28-12-2013 20:50:00 7.7 C 7.95 g/m*3 7.7 C 0 km/h
2102 28-12-2013 20:55:00 7.6 C 7.9 g/m*3 7.6 C 0 km/h
2103 28-12-2013 21:00:00 7.6 C 7.9 g/m*3 7.6 C 0 km/h
2104 28-12-2013 21:05:00 7.6 C 7.9 g/m*3 7.6 C 0 km/h
2105 28-12-2013 21:10:00 7.6 C 7.9 g/m*3 7.6 C 3.2 km/h
2106 28-12-2013 21:15:00 7.5 C 7.84 g/m*3 7.5 C 4.8 km/h
2107 28-12-2013 21:20:00 7.4 C 7.71 g/m*3 6.37 C 6.4 km/h
2108 28-12-2013 21:25:00 7.3 C 7.66 g/m*3 7.3 C 4.8 km/h
2109 28-12-2013 21:30:00 7.2 C 7.61 g/m*3 7.2 C 4.8 km/h
2110 28-12-2013 21:35:00 7.1 C 7.57 g/m*3 7.1 C 1.6 km/h
2111 28-12-2013 21:40:00 7.1 C 7.57 g/m*3 7.1 C 3.2 km/h
2112 28-12-2013 21:45:00 7.1 C 7.57 g/m*3 5.58 C 8.1 km/h
2113 28-12-2013 21:50:00 7 C 7.44 g/m*3 5.46 C 8.1 km/h
2114 28-12-2013 21:55:00 7 C 7.44 g/m*3 5.9 C 6.4 km/h
2115 28-12-2013 22:00:00 6.9 C 7.39 g/m*3 6.9 C 4.8 km/h
2116 28-12-2013 22:05:00 6.9 C 7.31 g/m*3 4.99 C 9.7 km/h
2117 28-12-2013 22:10:00 6.8 C 7.27 g/m*3 4.56 C 11.3 km/h
2118 28-12-2013 22:15:00 6.8 C 7.19 g/m*3 6.8 C 4.8 km/h
2119 28-12-2013 22:20:00 6.8 C 7.19 g/m*3 6.8 C 4.8 km/h
2120 28-12-2013 22:25:00 6.7 C 7.14 g/m*3 6.7 C 4.8 km/h
2121 28-12-2013 22:30:00 6.6 C 7.1 g/m*3 6.6 C 1.6 km/h
2122 28-12-2013 22:35:00 6.5 C 6.97 g/m*3 6.5 C 4.8 km/h
2123 28-12-2013 22:40:00 6.4 C 6.93 g/m*3 6.4 C 4.8 km/h
2124 28-12-2013 22:45:00 6.3 C 6.88 g/m*3 6.3 C 4.8 km/h
2125 28-12-2013 22:50:00 6.2 C 6.84 g/m*3 6.2 C 4.8 km/h
Sensor: Nr:Datum:Temp:Abs-Feuchte:Windchill:Wind:
Aussen-T/F 2126 28-12-2013 22:55:00 6.1 C 6.79 g/m*3 4.04 C 9.7 km/h
2127 28-12-2013 23:00:00 5.9 C 6.71 g/m*3 3.8 C 9.7 km/h
2128 28-12-2013 23:05:00 5.9 C 6.71 g/m*3 2.93 C 14.5 km/h
2129 28-12-2013 23:10:00 5.8 C 6.66 g/m*3 3.07 C 12.9 km/h
2130 28-12-2013 23:15:00 5.6 C 6.5 g/m*3 2.57 C 14.5 km/h
2131 28-12-2013 23:20:00 5.4 C 6.35 g/m*3 2.32 C 14.5 km/h
2132 28-12-2013 23:25:00 5.4 C 6.42 g/m*3 2.32 C 14.5 km/h
2133 28-12-2013 23:30:00 5.3 C 6.38 g/m*3 2.75 C 11.3 km/h
2134 28-12-2013 23:35:00 5.2 C 6.33 g/m*3 2.34 C 12.9 km/h
2135 28-12-2013 23:40:00 5.1 C 6.36 g/m*3 2.84 C 9.7 km/h
2136 28-12-2013 23:45:00 4.9 C 6.28 g/m*3 3.48 C 6.4 km/h
2137 28-12-2013 23:50:00 4.8 C 6.24 g/m*3 1.85 C 12.9 km/h
2138 28-12-2013 23:55:00 4.8 C 6.24 g/m*3 2.15 C 11.3 km/h
2139 29-12-2013 00:00:00 4.8 C 6.24 g/m*3 2.87 C 8.1 km/h
2140 29-12-2013 00:05:00 4.7 C 6.19 g/m*3 2.37 C 9.7 km/h
2141 29-12-2013 00:10:00 4.7 C 6.26 g/m*3 4.7 C 4.8 km/h
2142 29-12-2013 00:15:00 4.6 C 6.22 g/m*3 3.13 C 6.4 km/h
2143 29-12-2013 00:20:00 4.6 C 6.22 g/m*3 2.25 C 9.7 km/h
2144 29-12-2013 00:25:00 4.6 C 6.22 g/m*3 2.64 C 8.1 km/h
2145 29-12-2013 00:30:00 4.6 C 6.15 g/m*3 2.64 C 8.1 km/h
2146 29-12-2013 00:35:00 4.7 C 6.13 g/m*3 2.37 C 9.7 km/h
2147 29-12-2013 00:40:00 4.7 C 6.19 g/m*3 4.7 C 4.8 km/h
2148 29-12-2013 00:45:00 4.7 C 6.19 g/m*3 4.7 C 3.2 km/h
2149 29-12-2013 00:50:00 4.7 C 6.26 g/m*3 4.7 C 3.2 km/h
2150 29-12-2013 00:55:00 4.6 C 6.22 g/m*3 4.6 C 1.6 km/h
Sensor: Nr:Datum:Temp:Abs-Feuchte:Windchill:Wind:
Aussen-T/F 2151 29-12-2013 01:00:00 4.6 C 6.29 g/m*3 4.6 C 0 km/h
2152 29-12-2013 01:05:00 4.6 C 6.29 g/m*3 4.6 C 1.6 km/h
2153 29-12-2013 01:10:00 4.5 C 6.24 g/m*3 4.5 C 1.6 km/h
2154 29-12-2013 01:15:00 4.4 C 6.2 g/m*3 4.4 C 0 km/h
2155 29-12-2013 01:20:00 4.4 C 6.2 g/m*3 4.4 C 0 km/h
2156 29-12-2013 01:25:00 4.4 C 6.2 g/m*3 4.4 C 3.2 km/h
2157 29-12-2013 01:30:00 4.4 C 6.2 g/m*3 4.4 C 0 km/h
2158 29-12-2013 01:35:00 4.3 C 6.16 g/m*3 4.3 C 1.6 km/h
2159 29-12-2013 01:40:00 4.3 C 6.16 g/m*3 4.3 C 4.8 km/h
2160 29-12-2013 01:45:00 4.3 C 6.16 g/m*3 4.3 C 3.2 km/h
2161 29-12-2013 01:50:00 4.3 C 6.16 g/m*3 4.3 C 4.8 km/h
2162 29-12-2013 01:55:00 4.3 C 6.16 g/m*3 4.3 C 4.8 km/h
2163 29-12-2013 02:00:00 4.3 C 6.16 g/m*3 2.29 C 8.1 km/h
2164 29-12-2013 02:05:00 4.6 C 6.29 g/m*3 0.86 C 17.7 km/h
2165 29-12-2013 02:10:00 4.8 C 6.3 g/m*3 0.9 C 19.3 km/h
2166 29-12-2013 02:15:00 5.1 C 6.36 g/m*3 2.51 C 11.3 km/h
2167 29-12-2013 02:20:00 5.2 C 6.33 g/m*3 2.07 C 14.5 km/h
2168 29-12-2013 02:25:00 5.2 C 6.33 g/m*3 3.34 C 8.1 km/h
2169 29-12-2013 02:30:00 5.2 C 6.33 g/m*3 2.96 C 9.7 km/h
2170 29-12-2013 02:35:00 5.2 C 6.27 g/m*3 2.34 C 12.9 km/h
2171 29-12-2013 02:40:00 5.3 C 6.31 g/m*3 2.46 C 12.9 km/h
2172 29-12-2013 02:45:00 5.3 C 6.31 g/m*3 2.75 C 11.3 km/h
2173 29-12-2013 02:50:00 5.3 C 6.24 g/m*3 2.75 C 11.3 km/h
2174 29-12-2013 02:55:00 5.4 C 6.28 g/m*3 3.2 C 9.7 km/h
2175 29-12-2013 03:00:00 5.3 C 6.24 g/m*3 3.46 C 8.1 km/h
Sensor: Nr:Datum:Temp:Abs-Feuchte:Windchill:Wind:
Aussen-T/F 2176 29-12-2013 03:05:00 5.3 C 6.24 g/m*3 2.46 C 12.9 km/h
2177 29-12-2013 03:10:00 5.3 C 6.24 g/m*3 2.46 C 12.9 km/h
2178 29-12-2013 03:15:00 5.4 C 6.28 g/m*3 3.58 C 8.1 km/h
2179 29-12-2013 03:20:00 5.4 C 6.28 g/m*3 3.58 C 8.1 km/h
2180 29-12-2013 03:25:00 5.3 C 6.24 g/m*3 5.3 C 4.8 km/h
2181 29-12-2013 03:30:00 5.3 C 6.31 g/m*3 3.94 C 6.4 km/h
2182 29-12-2013 03:35:00 5.2 C 6.27 g/m*3 5.2 C 4.8 km/h
2183 29-12-2013 03:40:00 5.2 C 6.27 g/m*3 3.82 C 6.4 km/h
2184 29-12-2013 03:45:00 5.2 C 6.27 g/m*3 3.82 C 6.4 km/h
2185 29-12-2013 03:50:00 5.3 C 6.31 g/m*3 5.3 C 4.8 km/h
2186 29-12-2013 03:55:00 5.4 C 6.35 g/m*3 5.4 C 4.8 km/h
2187 29-12-2013 04:00:00 5.4 C 6.35 g/m*3 5.4 C 4.8 km/h
2188 29-12-2013 04:05:00 5.4 C 6.42 g/m*3 5.4 C 3.2 km/h
2189 29-12-2013 04:10:00 5.4 C 6.35 g/m*3 5.4 C 4.8 km/h
2190 29-12-2013 04:15:00 5.6 C 6.5 g/m*3 4.29 C 6.4 km/h
2191 29-12-2013 04:20:00 5.6 C 6.43 g/m*3 3.81 C 8.1 km/h
2192 29-12-2013 04:25:00 5.7 C 6.4 g/m*3 5.7 C 1.6 km/h
2193 29-12-2013 04:30:00 5.7 C 6.48 g/m*3 5.7 C 3.2 km/h
2194 29-12-2013 04:35:00 5.7 C 6.48 g/m*3 5.7 C 4.8 km/h
2195 29-12-2013 04:40:00 5.7 C 6.48 g/m*3 3.23 C 11.3 km/h
2196 29-12-2013 04:45:00 5.7 C 6.48 g/m*3 4.4 C 6.4 km/h
2197 29-12-2013 04:50:00 5.7 C 6.48 g/m*3 5.7 C 3.2 km/h
2198 29-12-2013 04:55:00 5.7 C 6.55 g/m*3 5.7 C 1.6 km/h
2199 29-12-2013 05:00:00 5.6 C 6.5 g/m*3 5.6 C 3.2 km/h
2200 29-12-2013 05:05:00 5.6 C 6.57 g/m*3 5.6 C 0 km/h
Sensor: Nr:Datum:Temp:Abs-Feuchte:Windchill:Wind:
Aussen-T/F 2201 29-12-2013 05:10:00 5.5 C 6.53 g/m*3 5.5 C 0 km/h
2202 29-12-2013 05:15:00 5.4 C 6.56 g/m*3 5.4 C 3.2 km/h
2203 29-12-2013 05:20:00 5.4 C 6.56 g/m*3 5.4 C 0 km/h
2204 29-12-2013 05:25:00 5.4 C 6.56 g/m*3 5.4 C 3.2 km/h
2205 29-12-2013 05:30:00 5.5 C 6.6 g/m*3 5.5 C 0 km/h
2206 29-12-2013 05:35:00 5.5 C 6.6 g/m*3 5.5 C 0 km/h
2207 29-12-2013 05:40:00 5.5 C 6.67 g/m*3 5.5 C 0 km/h
2208 29-12-2013 05:45:00 5.4 C 6.63 g/m*3 5.4 C 1.6 km/h
2209 29-12-2013 05:50:00 5.4 C 6.63 g/m*3 5.4 C 3.2 km/h
2210 29-12-2013 05:55:00 5.4 C 6.63 g/m*3 5.4 C 4.8 km/h
2211 29-12-2013 06:00:00 5.5 C 6.67 g/m*3 5.5 C 4.8 km/h
2212 29-12-2013 06:05:00 5.5 C 6.67 g/m*3 5.5 C 1.6 km/h
2213 29-12-2013 06:10:00 5.6 C 6.65 g/m*3 3.81 C 8.1 km/h
2214 29-12-2013 06:15:00 5.7 C 6.69 g/m*3 5.7 C 3.2 km/h
2215 29-12-2013 06:20:00 5.7 C 6.69 g/m*3 5.7 C 1.6 km/h
2216 29-12-2013 06:25:00 5.6 C 6.65 g/m*3 5.6 C 1.6 km/h
2217 29-12-2013 06:30:00 5.6 C 6.72 g/m*3 5.6 C 0 km/h
2218 29-12-2013 06:35:00 5.5 C 6.67 g/m*3 5.5 C 3.2 km/h
2219 29-12-2013 06:40:00 5.5 C 6.67 g/m*3 5.5 C 4.8 km/h
2220 29-12-2013 06:45:00 5.4 C 6.63 g/m*3 5.4 C 3.2 km/h
2221 29-12-2013 06:50:00 5.3 C 6.58 g/m*3 3.94 C 6.4 km/h
2222 29-12-2013 06:55:00 5.3 C 6.58 g/m*3 5.3 C 3.2 km/h
2223 29-12-2013 07:00:00 5.2 C 6.54 g/m*3 5.2 C 3.2 km/h
2224 29-12-2013 07:05:00 5.1 C 6.5 g/m*3 5.1 C 4.8 km/h
2225 29-12-2013 07:10:00 5 C 6.46 g/m*3 5 C 4.8 km/h
Sensor: Nr:Datum:Temp:Abs-Feuchte:Windchill:Wind:
Aussen-T/F 2226 29-12-2013 07:15:00 5.1 C 6.5 g/m*3 5.1 C 4.8 km/h
2227 29-12-2013 07:20:00 5.1 C 6.5 g/m*3 5.1 C 4.8 km/h
2228 29-12-2013 07:25:00 5.1 C 6.5 g/m*3 5.1 C 1.6 km/h
2229 29-12-2013 07:30:00 5 C 6.46 g/m*3 5 C 1.6 km/h
2230 29-12-2013 07:35:00 4.9 C 6.41 g/m*3 4.9 C 1.6 km/h
2231 29-12-2013 07:40:00 4.9 C 6.41 g/m*3 4.9 C 3.2 km/h
2232 29-12-2013 07:45:00 4.9 C 6.41 g/m*3 4.9 C 1.6 km/h
2233 29-12-2013 07:50:00 5 C 6.52 g/m*3 5 C 1.6 km/h
2234 29-12-2013 07:55:00 5 C 6.52 g/m*3 5 C 1.6 km/h
2235 29-12-2013 08:00:00 5 C 6.52 g/m*3 5 C 1.6 km/h
2236 29-12-2013 08:05:00 5.1 C 6.57 g/m*3 5.1 C 3.2 km/h
2237 29-12-2013 08:10:00 5.1 C 6.57 g/m*3 5.1 C 3.2 km/h
2238 29-12-2013 08:15:00 5.1 C 6.57 g/m*3 5.1 C 0 km/h
2239 29-12-2013 08:20:00 5.1 C 6.57 g/m*3 5.1 C 1.6 km/h
2240 29-12-2013 08:25:00 5.1 C 6.57 g/m*3 3.23 C 8.1 km/h
2241 29-12-2013 08:30:00 5.1 C 6.57 g/m*3 5.1 C 3.2 km/h
2242 29-12-2013 08:35:00 5.2 C 6.61 g/m*3 5.2 C 4.8 km/h
2243 29-12-2013 08:40:00 5.2 C 6.61 g/m*3 5.2 C 1.6 km/h
2244 29-12-2013 08:45:00 5.2 C 6.61 g/m*3 5.2 C 3.2 km/h
2245 29-12-2013 08:50:00 5.1 C 6.57 g/m*3 5.1 C 3.2 km/h
2246 29-12-2013 08:55:00 5 C 6.52 g/m*3 2.39 C 11.3 km/h
2247 29-12-2013 09:00:00 5.1 C 6.5 g/m*3 5.1 C 4.8 km/h
2248 29-12-2013 09:05:00 5.1 C 6.5 g/m*3 5.1 C 3.2 km/h
2249 29-12-2013 09:10:00 5.1 C 6.5 g/m*3 5.1 C 3.2 km/h
2250 29-12-2013 09:15:00 5 C 6.46 g/m*3 5 C 3.2 km/h
Sensor: Nr:Datum:Temp:Abs-Feuchte:Windchill:Wind:
Aussen-T/F 2251 29-12-2013 09:20:00 5 C 6.46 g/m*3 5 C 3.2 km/h
2252 29-12-2013 09:25:00 4.8 C 6.44 g/m*3 4.8 C 4.8 km/h
2253 29-12-2013 09:30:00 4.8 C 6.44 g/m*3 3.36 C 6.4 km/h
2254 29-12-2013 09:35:00 4.8 C 6.44 g/m*3 4.8 C 3.2 km/h
2255 29-12-2013 09:40:00 4.8 C 6.44 g/m*3 4.8 C 4.8 km/h
2256 29-12-2013 09:45:00 4.8 C 6.44 g/m*3 4.8 C 3.2 km/h
2257 29-12-2013 09:50:00 4.9 C 6.48 g/m*3 4.9 C 4.8 km/h
2258 29-12-2013 09:55:00 4.9 C 6.48 g/m*3 4.9 C 1.6 km/h
2259 29-12-2013 10:00:00 4.9 C 6.48 g/m*3 4.9 C 4.8 km/h
2260 29-12-2013 10:05:00 4.9 C 6.48 g/m*3 4.9 C 3.2 km/h
2261 29-12-2013 10:10:00 4.9 C 6.48 g/m*3 4.9 C 4.8 km/h
2262 29-12-2013 10:15:00 5 C 6.46 g/m*3 5 C 4.8 km/h
2263 29-12-2013 10:20:00 5.1 C 6.5 g/m*3 5.1 C 4.8 km/h
2264 29-12-2013 10:25:00 5.2 C 6.54 g/m*3 5.2 C 4.8 km/h
2265 29-12-2013 10:30:00 5.2 C 6.47 g/m*3 3.34 C 8.1 km/h
2266 29-12-2013 10:35:00 5.1 C 6.43 g/m*3 5.1 C 3.2 km/h
2267 29-12-2013 10:40:00 5.1 C 6.43 g/m*3 3.71 C 6.4 km/h
2268 29-12-2013 10:45:00 5.1 C 6.43 g/m*3 5.1 C 4.8 km/h
2269 29-12-2013 13:25:00 7.1 C 6.63 g/m*3 4.65 C 12.9 km/h
2270 29-12-2013 13:30:00 7.2 C 6.67 g/m*3 5.35 C 9.7 km/h
2271 29-12-2013 13:35:00 7.2 C 6.67 g/m*3 5.35 C 9.7 km/h
2272 29-12-2013 18:35:00 3.8 C 6.27 g/m*3 3.8 C 3.2 km/h
2273 29-12-2013 18:40:00 3.8 C 6.27 g/m*3 3.8 C 3.2 km/h
2274 29-12-2013 18:45:00 3.5 C 6.15 g/m*3 3.5 C 3.2 km/h
2275 29-12-2013 18:50:00 3.5 C 6.15 g/m*3 3.5 C 4.8 km/h
Sensor: Nr:Datum:Temp:Abs-Feuchte:Windchill:Wind:
Aussen-T/F 2276 29-12-2013 18:55:00 3.5 C 6.15 g/m*3 3.5 C 4.8 km/h
2277 29-12-2013 21:50:00 3 C 5.59 g/m*3 3 C 3.2 km/h
2278 29-12-2013 21:55:00 2.9 C 5.55 g/m*3 1.17 C 6.4 km/h
2279 29-12-2013 22:00:00 2.9 C 5.55 g/m*3 2.9 C 1.6 km/h
2280 29-12-2013 22:05:00 3 C 5.65 g/m*3 3 C 3.2 km/h
2281 29-12-2013 22:10:00 3.2 C 5.79 g/m*3 0.99 C 8.1 km/h
2282 29-12-2013 22:15:00 3.4 C 5.8 g/m*3 3.4 C 4.8 km/h
2283 29-12-2013 22:20:00 3.5 C 5.84 g/m*3 1.34 C 8.1 km/h
2284 29-12-2013 22:25:00 3.6 C 5.82 g/m*3 3.6 C 4.8 km/h
2285 29-12-2013 22:30:00 3.6 C 5.82 g/m*3 3.6 C 4.8 km/h
2286 29-12-2013 22:35:00 3.6 C 5.82 g/m*3 1.46 C 8.1 km/h
2287 29-12-2013 22:40:00 3.6 C 5.76 g/m*3 3.6 C 4.8 km/h
2288 29-12-2013 22:45:00 3.6 C 5.76 g/m*3 3.6 C 4.8 km/h
2289 29-12-2013 22:50:00 3.3 C 5.64 g/m*3 3.3 C 3.2 km/h
2290 29-12-2013 22:55:00 3.2 C 5.6 g/m*3 3.2 C 3.2 km/h
2291 29-12-2013 23:00:00 2.9 C 5.49 g/m*3 2.9 C 3.2 km/h
2292 29-12-2013 23:05:00 2.8 C 5.51 g/m*3 2.8 C 1.6 km/h
2293 29-12-2013 23:10:00 2.7 C 5.48 g/m*3 2.7 C 1.6 km/h
2294 29-12-2013 23:15:00 2.6 C 5.44 g/m*3 2.6 C 1.6 km/h
2295 29-12-2013 23:20:00 2.6 C 5.5 g/m*3 2.6 C 3.2 km/h
2296 29-12-2013 23:25:00 2.4 C 5.37 g/m*3 2.4 C 1.6 km/h
2297 29-12-2013 23:30:00 2.4 C 5.42 g/m*3 2.4 C 0 km/h
2298 29-12-2013 23:35:00 2.4 C 5.42 g/m*3 2.4 C 1.6 km/h
2299 29-12-2013 23:40:00 2.6 C 5.56 g/m*3 2.6 C 3.2 km/h
2300 29-12-2013 23:45:00 2.7 C 5.59 g/m*3 2.7 C 1.6 km/h
Sensor: Nr:Datum:Temp:Abs-Feuchte:Windchill:Wind:
Aussen-T/F 2301 29-12-2013 23:50:00 2.8 C 5.63 g/m*3 2.8 C 1.6 km/h
2302 29-12-2013 23:55:00 2.9 C 5.67 g/m*3 0.22 C 9.7 km/h
2303 30-12-2013 00:00:00 3.1 C 5.75 g/m*3 0.87 C 8.1 km/h
2304 30-12-2013 00:05:00 3.2 C 5.79 g/m*3 0.99 C 8.1 km/h
2305 30-12-2013 00:10:00 3.3 C 5.76 g/m*3 1.63 C 6.4 km/h
2306 30-12-2013 00:15:00 3.4 C 5.74 g/m*3 3.4 C 3.2 km/h
2307 30-12-2013 00:20:00 3.3 C 5.7 g/m*3 3.3 C 1.6 km/h
2308 30-12-2013 00:25:00 3.3 C 5.7 g/m*3 3.3 C 3.2 km/h
2309 30-12-2013 00:30:00 3.2 C 5.6 g/m*3 3.2 C 1.6 km/h
2310 30-12-2013 00:35:00 2.9 C 5.49 g/m*3 2.9 C 3.2 km/h
2311 30-12-2013 00:40:00 2.8 C 5.51 g/m*3 2.8 C 3.2 km/h
2312 30-12-2013 00:45:00 2.9 C 5.55 g/m*3 2.9 C 3.2 km/h
2313 30-12-2013 00:50:00 3.1 C 5.69 g/m*3 3.1 C 0 km/h
2314 30-12-2013 00:55:00 3.1 C 5.69 g/m*3 3.1 C 0 km/h
2315 30-12-2013 01:00:00 3.2 C 5.72 g/m*3 3.2 C 1.6 km/h
2316 30-12-2013 01:05:00 3.2 C 5.72 g/m*3 3.2 C 0 km/h
2317 30-12-2013 01:10:00 3.3 C 5.76 g/m*3 3.3 C 0 km/h
2318 30-12-2013 01:15:00 3.4 C 5.8 g/m*3 3.4 C 4.8 km/h
2319 30-12-2013 01:20:00 3.6 C 5.82 g/m*3 3.6 C 1.6 km/h
2320 30-12-2013 01:25:00 3.7 C 5.86 g/m*3 3.7 C 0 km/h
2321 30-12-2013 01:30:00 3.7 C 5.86 g/m*3 3.7 C 0 km/h
2322 30-12-2013 01:35:00 3.8 C 5.83 g/m*3 3.8 C 3.2 km/h
2323 30-12-2013 01:40:00 3.9 C 5.81 g/m*3 1.41 C 9.7 km/h
2324 30-12-2013 01:45:00 4.1 C 5.89 g/m*3 4.1 C 4.8 km/h
2325 30-12-2013 01:50:00 4.2 C 5.86 g/m*3 4.2 C 4.8 km/h
Sensor: Nr:Datum:Temp:Abs-Feuchte:Windchill:Wind:
Aussen-T/F 2326 30-12-2013 01:55:00 4.2 C 5.86 g/m*3 4.2 C 3.2 km/h
2327 30-12-2013 02:00:00 4.2 C 5.86 g/m*3 4.2 C 3.2 km/h
2328 30-12-2013 02:05:00 4.2 C 5.86 g/m*3 4.2 C 1.6 km/h
2329 30-12-2013 02:10:00 4.2 C 5.93 g/m*3 4.2 C 3.2 km/h
2330 30-12-2013 02:15:00 4.2 C 5.86 g/m*3 2.67 C 6.4 km/h
2331 30-12-2013 02:20:00 4.3 C 5.84 g/m*3 2.78 C 6.4 km/h
2332 30-12-2013 02:25:00 4.3 C 5.84 g/m*3 4.3 C 4.8 km/h
2333 30-12-2013 02:30:00 4.3 C 5.84 g/m*3 4.3 C 1.6 km/h
2334 30-12-2013 02:35:00 4.3 C 5.9 g/m*3 4.3 C 0 km/h
2335 30-12-2013 02:40:00 4.3 C 5.84 g/m*3 2.78 C 6.4 km/h
2336 30-12-2013 02:45:00 4.3 C 5.84 g/m*3 4.3 C 3.2 km/h
2337 30-12-2013 02:50:00 4.3 C 5.84 g/m*3 4.3 C 1.6 km/h
2338 30-12-2013 02:55:00 4.3 C 5.84 g/m*3 4.3 C 4.8 km/h
2339 30-12-2013 03:00:00 4.3 C 5.84 g/m*3 4.3 C 3.2 km/h
2340 30-12-2013 03:05:00 4.1 C 5.82 g/m*3 4.1 C 3.2 km/h
2341 30-12-2013 03:10:00 4 C 5.79 g/m*3 4 C 3.2 km/h
2342 30-12-2013 03:15:00 4 C 5.79 g/m*3 2.44 C 6.4 km/h
2343 30-12-2013 03:20:00 4 C 5.72 g/m*3 4 C 3.2 km/h
2344 30-12-2013 03:25:00 3.8 C 5.71 g/m*3 3.8 C 4.8 km/h
2345 30-12-2013 03:30:00 3.7 C 5.67 g/m*3 3.7 C 3.2 km/h
2346 30-12-2013 03:35:00 3.7 C 5.73 g/m*3 3.7 C 3.2 km/h
2347 30-12-2013 03:40:00 3.7 C 5.73 g/m*3 3.7 C 1.6 km/h
2348 30-12-2013 03:45:00 3.7 C 5.73 g/m*3 3.7 C 3.2 km/h
2349 30-12-2013 03:50:00 3.8 C 5.77 g/m*3 3.8 C 3.2 km/h
2350 30-12-2013 03:55:00 3.9 C 5.75 g/m*3 2.32 C 6.4 km/h
Sensor: Nr:Datum:Temp:Abs-Feuchte:Windchill:Wind:
Aussen-T/F 2351 30-12-2013 04:00:00 4 C 5.85 g/m*3 4 C 4.8 km/h
2352 30-12-2013 04:05:00 4 C 5.85 g/m*3 4 C 3.2 km/h
2353 30-12-2013 04:10:00 4.1 C 5.82 g/m*3 4.1 C 3.2 km/h
2354 30-12-2013 04:15:00 4.2 C 5.8 g/m*3 1.77 C 9.7 km/h
2355 30-12-2013 04:20:00 4.3 C 5.84 g/m*3 4.3 C 3.2 km/h
2356 30-12-2013 04:25:00 4.3 C 5.84 g/m*3 4.3 C 0 km/h
2357 30-12-2013 04:30:00 4.4 C 5.75 g/m*3 4.4 C 3.2 km/h
2358 30-12-2013 04:35:00 4.5 C 5.78 g/m*3 4.5 C 3.2 km/h
2359 30-12-2013 04:40:00 4.6 C 5.76 g/m*3 4.6 C 3.2 km/h
2360 30-12-2013 04:45:00 4.6 C 5.76 g/m*3 4.6 C 3.2 km/h
2361 30-12-2013 04:50:00 4.6 C 5.76 g/m*3 4.6 C 1.6 km/h
2362 30-12-2013 04:55:00 4.6 C 5.76 g/m*3 4.6 C 4.8 km/h
2363 30-12-2013 05:00:00 4.6 C 5.76 g/m*3 4.6 C 3.2 km/h
2364 30-12-2013 05:05:00 4.7 C 5.73 g/m*3 4.7 C 4.8 km/h
2365 30-12-2013 05:10:00 4.7 C 5.73 g/m*3 2.76 C 8.1 km/h
2366 30-12-2013 05:15:00 4.8 C 5.7 g/m*3 4.8 C 3.2 km/h
2367 30-12-2013 05:20:00 4.7 C 5.73 g/m*3 3.25 C 6.4 km/h
2368 30-12-2013 05:25:00 4.7 C 5.66 g/m*3 4.7 C 3.2 km/h
2369 30-12-2013 05:30:00 4.7 C 5.73 g/m*3 4.7 C 0 km/h
2370 30-12-2013 05:35:00 4.7 C 5.8 g/m*3 4.7 C 1.6 km/h
2371 30-12-2013 05:40:00 4.6 C 5.76 g/m*3 4.6 C 3.2 km/h
2372 30-12-2013 05:45:00 4.6 C 5.76 g/m*3 4.6 C 0 km/h
2373 30-12-2013 05:50:00 4.6 C 5.89 g/m*3 4.6 C 1.6 km/h
2374 30-12-2013 05:55:00 4.6 C 5.89 g/m*3 4.6 C 1.6 km/h
2375 30-12-2013 06:35:00 4.8 C 5.7 g/m*3 4.8 C 4.8 km/h
Sensor: Nr:Datum:Temp:Abs-Feuchte:Windchill:Wind:
Aussen-T/F 2376 30-12-2013 06:40:00 4.9 C 5.67 g/m*3 4.9 C 3.2 km/h
2377 30-12-2013 06:45:00 4.8 C 5.63 g/m*3 4.8 C 3.2 km/h
2378 30-12-2013 06:50:00 4.8 C 5.7 g/m*3 4.8 C 0 km/h
2379 30-12-2013 06:55:00 4.8 C 5.7 g/m*3 4.8 C 4.8 km/h
2380 30-12-2013 07:00:00 4.8 C 5.63 g/m*3 3.36 C 6.4 km/h
2381 30-12-2013 07:05:00 4.8 C 5.63 g/m*3 4.8 C 3.2 km/h
2382 30-12-2013 07:10:00 4.8 C 5.63 g/m*3 4.8 C 0 km/h
2383 30-12-2013 13:05:00 6 C 5.81 g/m*3 3.92 C 9.7 km/h
2384 30-12-2013 13:10:00 6 C 5.81 g/m*3 6 C 3.2 km/h
2385 30-12-2013 14:15:00 5.8 C 5.73 g/m*3 4.52 C 6.4 km/h
2386 30-12-2013 14:20:00 5.8 C 5.73 g/m*3 5.8 C 3.2 km/h
2387 30-12-2013 14:25:00 5.8 C 5.73 g/m*3 5.8 C 1.6 km/h
2388 30-12-2013 14:30:00 5.8 C 5.73 g/m*3 5.8 C 4.8 km/h
2389 30-12-2013 14:35:00 5.8 C 5.95 g/m*3 4.52 C 6.4 km/h
2390 30-12-2013 14:40:00 5.7 C 5.91 g/m*3 5.7 C 0 km/h
2391 30-12-2013 14:45:00 5.7 C 5.91 g/m*3 5.7 C 0 km/h
2392 30-12-2013 15:40:00 4.7 C 5.86 g/m*3 4.7 C 3.2 km/h
2393 30-12-2013 15:45:00 4.7 C 5.86 g/m*3 4.7 C 3.2 km/h
2394 30-12-2013 15:50:00 4.7 C 5.86 g/m*3 4.7 C 3.2 km/h
2395 30-12-2013 15:55:00 4.7 C 5.86 g/m*3 4.7 C 0 km/h
2396 30-12-2013 16:00:00 4.2 C 5.8 g/m*3 4.2 C 1.6 km/h
2397 30-12-2013 16:05:00 4.2 C 5.8 g/m*3 4.2 C 1.6 km/h
2398 30-12-2013 18:30:00 4.1 C 5.76 g/m*3 4.1 C 4.8 km/h
2399 30-12-2013 18:35:00 4.2 C 5.8 g/m*3 4.2 C 3.2 km/h
2400 30-12-2013 18:40:00 4.2 C 5.8 g/m*3 4.2 C 0 km/h
Sensor: Nr:Datum:Temp:Abs-Feuchte:Windchill:Wind:
Aussen-T/F 2401 30-12-2013 20:50:00 3.7 C 5.73 g/m*3 3.7 C 0 km/h
2402 30-12-2013 20:55:00 3.7 C 5.73 g/m*3 3.7 C 0 km/h
2403 30-12-2013 21:00:00 3.7 C 5.73 g/m*3 3.7 C 0 km/h
2404 30-12-2013 21:05:00 3.7 C 5.73 g/m*3 3.7 C 0 km/h
2405 30-12-2013 21:10:00 3.7 C 5.73 g/m*3 3.7 C 0 km/h
2406 30-12-2013 21:15:00 3.7 C 5.73 g/m*3 3.7 C 0 km/h
2407 30-12-2013 21:20:00 3.7 C 5.73 g/m*3 3.7 C 0 km/h
2408 30-12-2013 21:25:00 3.7 C 5.73 g/m*3 3.7 C 0 km/h
2409 30-12-2013 21:30:00 3.7 C 5.73 g/m*3 3.7 C 0 km/h
2410 30-12-2013 21:35:00 3.7 C 5.73 g/m*3 3.7 C 0 km/h
2411 30-12-2013 21:40:00 3.7 C 5.73 g/m*3 3.7 C 0 km/h
2412 30-12-2013 21:45:00 3.7 C 5.73 g/m*3 3.7 C 0 km/h
2413 30-12-2013 21:50:00 3.7 C 5.73 g/m*3 3.7 C 0 km/h
2414 30-12-2013 21:55:00 3.8 C 5.77 g/m*3 3.8 C 0 km/h
2415 30-12-2013 22:00:00 3.8 C 5.77 g/m*3 3.8 C 0 km/h
2416 30-12-2013 22:05:00 3.8 C 5.77 g/m*3 3.8 C 0 km/h
2417 30-12-2013 22:10:00 3.8 C 5.77 g/m*3 3.8 C 0 km/h
2418 30-12-2013 22:15:00 3.8 C 5.77 g/m*3 3.8 C 1.6 km/h
2419 30-12-2013 22:20:00 3.8 C 5.77 g/m*3 3.8 C 1.6 km/h
2420 30-12-2013 22:25:00 3.8 C 5.77 g/m*3 3.8 C 0 km/h
2421 30-12-2013 22:30:00 3.8 C 5.77 g/m*3 3.8 C 0 km/h
2422 30-12-2013 22:35:00 3.8 C 5.77 g/m*3 3.8 C 0 km/h
2423 30-12-2013 22:40:00 3.8 C 5.77 g/m*3 3.8 C 1.6 km/h
2424 31-12-2013 01:45:00 3.4 C 5.56 g/m*3 3.4 C 3.2 km/h
2425 31-12-2013 01:50:00 3.3 C 5.52 g/m*3 3.3 C 3.2 km/h
Sensor: Nr:Datum:Temp:Abs-Feuchte:Windchill:Wind:
Aussen-T/F 2426 31-12-2013 01:55:00 3.3 C 5.52 g/m*3 3.3 C 3.2 km/h
2427 31-12-2013 02:00:00 3.2 C 5.48 g/m*3 3.2 C 3.2 km/h
2428 31-12-2013 02:05:00 3.2 C 5.48 g/m*3 3.2 C 3.2 km/h
2429 31-12-2013 07:05:00 1.1 C 5.23 g/m*3 1.1 C 1.6 km/h
2430 31-12-2013 07:10:00 1.1 C 4.96 g/m*3 1.1 C 1.6 km/h
2431 31-12-2013 07:15:00 1.1 C 4.91 g/m*3 1.1 C 1.6 km/h
2432 31-12-2013 07:20:00 1.1 C 4.96 g/m*3 1.1 C 3.2 km/h
2433 31-12-2013 07:25:00 1 C 4.93 g/m*3 1 C 1.6 km/h
2434 31-12-2013 07:30:00 1 C 4.93 g/m*3 1 C 0 km/h
2435 31-12-2013 07:35:00 1 C 4.93 g/m*3 1 C 1.6 km/h
2436 31-12-2013 07:40:00 1 C 4.93 g/m*3 1 C 3.2 km/h
2437 31-12-2013 07:45:00 1 C 4.93 g/m*3 1 C 3.2 km/h
2438 31-12-2013 07:50:00 0.9 C 4.9 g/m*3 0.9 C 1.6 km/h
2439 31-12-2013 07:55:00 1 C 4.93 g/m*3 1 C 3.2 km/h
2440 31-12-2013 08:00:00 1 C 4.93 g/m*3 1 C 0 km/h
2441 31-12-2013 08:05:00 1 C 4.93 g/m*3 1 C 1.6 km/h
2442 31-12-2013 08:10:00 1.1 C 4.96 g/m*3 1.1 C 0 km/h
2443 31-12-2013 08:15:00 1.1 C 4.96 g/m*3 1.1 C 1.6 km/h
2444 31-12-2013 08:20:00 1.1 C 4.96 g/m*3 1.1 C 0 km/h
2445 31-12-2013 08:25:00 1 C 4.93 g/m*3 1 C 0 km/h
2446 31-12-2013 08:30:00 1 C 4.93 g/m*3 1 C 0 km/h
2447 31-12-2013 08:35:00 1 C 4.93 g/m*3 1 C 0 km/h
2448 31-12-2013 08:40:00 1 C 4.93 g/m*3 1 C 0 km/h
2449 31-12-2013 08:45:00 1.1 C 4.96 g/m*3 1.1 C 0 km/h
2450 31-12-2013 08:50:00 1.2 C 5.05 g/m*3 1.2 C 1.6 km/h
Sensor: Nr:Datum:Temp:Abs-Feuchte:Windchill:Wind:
Aussen-T/F 2451 31-12-2013 08:55:00 1.3 C 5.09 g/m*3 1.3 C 0 km/h
2452 31-12-2013 09:00:00 1.3 C 5.09 g/m*3 1.3 C 0 km/h
2453 31-12-2013 09:05:00 1.2 C 5 g/m*3 1.2 C 0 km/h
2454 31-12-2013 09:10:00 1.2 C 5 g/m*3 1.2 C 0 km/h
2455 31-12-2013 09:15:00 1.2 C 5 g/m*3 1.2 C 1.6 km/h
2456 31-12-2013 09:20:00 1.1 C 4.96 g/m*3 1.1 C 0 km/h
2457 31-12-2013 09:25:00 1.1 C 4.96 g/m*3 1.1 C 0 km/h
2458 31-12-2013 09:30:00 1.1 C 4.96 g/m*3 1.1 C 0 km/h
2459 31-12-2013 09:35:00 1.1 C 4.96 g/m*3 1.1 C 0 km/h
2460 31-12-2013 09:40:00 1.1 C 5.02 g/m*3 1.1 C 0 km/h
2461 31-12-2013 09:45:00 1.1 C 4.96 g/m*3 1.1 C 0 km/h
2462 31-12-2013 09:50:00 1.1 C 5.02 g/m*3 1.1 C 0 km/h
2463 31-12-2013 09:55:00 1.2 C 5.05 g/m*3 1.2 C 0 km/h
2464 31-12-2013 10:00:00 1.2 C 5.05 g/m*3 1.2 C 0 km/h
2465 31-12-2013 10:05:00 1.3 C 5.09 g/m*3 1.3 C 1.6 km/h
2466 31-12-2013 10:10:00 1.4 C 5.12 g/m*3 1.4 C 0 km/h
2467 31-12-2013 10:15:00 1.5 C 5.16 g/m*3 1.5 C 1.6 km/h
2468 31-12-2013 10:20:00 1.6 C 5.19 g/m*3 1.6 C 0 km/h
2469 31-12-2013 10:25:00 1.7 C 5.23 g/m*3 1.7 C 0 km/h
2470 31-12-2013 10:30:00 1.8 C 5.26 g/m*3 1.8 C 0 km/h
2471 31-12-2013 10:35:00 1.9 C 5.3 g/m*3 1.9 C 0 km/h
2472 31-12-2013 10:40:00 2.1 C 5.37 g/m*3 2.1 C 0 km/h
2473 31-12-2013 10:45:00 2.2 C 5.41 g/m*3 2.2 C 0 km/h
2474 31-12-2013 10:50:00 2.3 C 5.44 g/m*3 2.3 C 0 km/h
2475 31-12-2013 10:55:00 2.4 C 5.48 g/m*3 2.4 C 0 km/h
Sensor: Nr:Datum:Temp:Abs-Feuchte:Windchill:Wind:
Aussen-T/F 2476 31-12-2013 11:00:00 2.5 C 5.52 g/m*3 2.5 C 0 km/h
2477 31-12-2013 11:05:00 2.6 C 5.56 g/m*3 2.6 C 0 km/h
2478 31-12-2013 11:10:00 2.8 C 5.57 g/m*3 2.8 C 0 km/h
2479 31-12-2013 11:15:00 2.8 C 5.57 g/m*3 2.8 C 0 km/h
2480 31-12-2013 11:20:00 2.8 C 5.57 g/m*3 2.8 C 3.2 km/h
2481 31-12-2013 12:15:00 3.1 C 5.99 g/m*3 3.1 C 1.6 km/h
2482 31-12-2013 12:20:00 3.1 C 5.99 g/m*3 3.1 C 3.2 km/h
2483 31-12-2013 12:25:00 3.1 C 5.57 g/m*3 3.1 C 1.6 km/h
2484 31-12-2013 12:30:00 3.1 C 5.57 g/m*3 3.1 C 3.2 km/h
2485 31-12-2013 13:35:00 4.3 C 5.9 g/m*3 4.3 C 1.6 km/h
2486 31-12-2013 13:40:00 4.3 C 5.9 g/m*3 4.3 C 1.6 km/h
2487 31-12-2013 13:45:00 4.4 C 5.94 g/m*3 4.4 C 1.6 km/h
2488 31-12-2013 13:50:00 4.4 C 5.94 g/m*3 4.4 C 0 km/h
2489 31-12-2013 18:15:00 3.9 C 5.43 g/m*3 3.9 C 4.8 km/h
2490 31-12-2013 18:20:00 3.9 C 5.37 g/m*3 3.9 C 4.8 km/h
2491 31-12-2013 18:25:00 3.9 C 5.37 g/m*3 2.32 C 6.4 km/h
2492 31-12-2013 18:30:00 4 C 5.4 g/m*3 0.34 C 16.1 km/h
2493 31-12-2013 18:35:00 4.2 C 5.41 g/m*3 1.77 C 9.7 km/h
2494 31-12-2013 18:40:00 4.3 C 5.38 g/m*3 1.24 C 12.9 km/h
2495 31-12-2013 18:45:00 4.3 C 5.38 g/m*3 2.29 C 8.1 km/h
2496 31-12-2013 18:50:00 4.4 C 5.42 g/m*3 2.9 C 6.4 km/h
2497 31-12-2013 18:55:00 4.4 C 5.42 g/m*3 2.01 C 9.7 km/h
2498 31-12-2013 19:00:00 4.4 C 5.35 g/m*3 2.9 C 6.4 km/h
2499 31-12-2013 19:05:00 4.5 C 5.39 g/m*3 2.13 C 9.7 km/h
2500 31-12-2013 19:10:00 4.6 C 5.43 g/m*3 3.13 C 6.4 km/h
Sensor: Nr:Datum:Temp:Abs-Feuchte:Windchill:Wind:
Aussen-T/F 2501 31-12-2013 19:15:00 4.6 C 5.36 g/m*3 1.91 C 11.3 km/h
2502 31-12-2013 19:20:00 4.7 C 5.4 g/m*3 2.37 C 9.7 km/h
2503 31-12-2013 19:25:00 4.7 C 5.4 g/m*3 2.03 C 11.3 km/h
2504 31-12-2013 19:30:00 4.6 C 5.36 g/m*3 3.13 C 6.4 km/h
2505 31-12-2013 19:35:00 4.6 C 5.36 g/m*3 4.6 C 4.8 km/h
2506 31-12-2013 19:40:00 4.6 C 5.36 g/m*3 3.13 C 6.4 km/h
2507 31-12-2013 19:45:00 4.6 C 5.36 g/m*3 2.64 C 8.1 km/h
2508 31-12-2013 19:50:00 4.7 C 5.4 g/m*3 2.03 C 11.3 km/h
2509 31-12-2013 19:55:00 4.7 C 5.4 g/m*3 2.76 C 8.1 km/h
2510 31-12-2013 20:00:00 4.6 C 5.36 g/m*3 2.64 C 8.1 km/h
2511 31-12-2013 20:05:00 4.6 C 5.43 g/m*3 3.13 C 6.4 km/h
2512 31-12-2013 20:10:00 4.5 C 5.39 g/m*3 2.52 C 8.1 km/h
2513 31-12-2013 20:15:00 4.4 C 5.35 g/m*3 2.4 C 8.1 km/h
2514 31-12-2013 20:20:00 4.4 C 5.35 g/m*3 2.9 C 6.4 km/h
2515 31-12-2013 20:25:00 4.4 C 5.35 g/m*3 2.4 C 8.1 km/h
2516 31-12-2013 20:30:00 4.4 C 5.42 g/m*3 2.9 C 6.4 km/h
2517 31-12-2013 20:35:00 4.3 C 5.38 g/m*3 4.3 C 3.2 km/h
2518 31-12-2013 20:40:00 4.2 C 5.41 g/m*3 4.2 C 3.2 km/h
2519 31-12-2013 20:45:00 4.2 C 5.35 g/m*3 4.2 C 3.2 km/h
2520 31-12-2013 20:50:00 4.2 C 5.41 g/m*3 4.2 C 3.2 km/h
2521 31-12-2013 20:55:00 4.1 C 5.44 g/m*3 4.1 C 3.2 km/h
2522 31-12-2013 21:00:00 4 C 5.4 g/m*3 4 C 1.6 km/h
2523 31-12-2013 21:05:00 3.9 C 5.37 g/m*3 3.9 C 3.2 km/h
2524 31-12-2013 21:10:00 3.9 C 5.37 g/m*3 3.9 C 3.2 km/h
2525 31-12-2013 21:15:00 4 C 5.4 g/m*3 4 C 3.2 km/h
Sensor: Nr:Datum:Temp:Abs-Feuchte:Windchill:Wind:
Aussen-T/F 2526 31-12-2013 21:20:00 3.9 C 5.43 g/m*3 3.9 C 0 km/h
2527 31-12-2013 21:25:00 3.9 C 5.43 g/m*3 3.9 C 0 km/h
2528 31-12-2013 21:30:00 3.9 C 5.43 g/m*3 3.9 C 4.8 km/h
2529 31-12-2013 21:35:00 3.8 C 5.4 g/m*3 3.8 C 1.6 km/h
2530 31-12-2013 21:40:00 3.9 C 5.37 g/m*3 3.9 C 3.2 km/h
2531 31-12-2013 21:45:00 3.9 C 5.37 g/m*3 3.9 C 1.6 km/h
2532 31-12-2013 21:50:00 4 C 5.4 g/m*3 4 C 4.8 km/h
2533 31-12-2013 21:55:00 4 C 5.34 g/m*3 1.18 C 11.3 km/h
2534 31-12-2013 22:00:00 4.2 C 5.35 g/m*3 1.77 C 9.7 km/h
2535 31-12-2013 22:05:00 4.2 C 5.35 g/m*3 2.17 C 8.1 km/h
2536 31-12-2013 22:10:00 4.2 C 5.35 g/m*3 4.2 C 4.8 km/h
2537 31-12-2013 22:15:00 4.1 C 5.38 g/m*3 2.55 C 6.4 km/h
2538 31-12-2013 22:20:00 4.1 C 5.38 g/m*3 2.55 C 6.4 km/h
2539 31-12-2013 22:25:00 3.9 C 5.31 g/m*3 3.9 C 3.2 km/h
2540 31-12-2013 22:30:00 3.9 C 5.31 g/m*3 3.9 C 3.2 km/h
2541 31-12-2013 22:35:00 3.7 C 5.23 g/m*3 3.7 C 3.2 km/h
2542 31-12-2013 22:40:00 3.5 C 5.23 g/m*3 3.5 C 1.6 km/h
2543 31-12-2013 22:45:00 3.3 C 5.22 g/m*3 3.3 C 3.2 km/h
2544 31-12-2013 22:50:00 3.3 C 5.16 g/m*3 3.3 C 3.2 km/h
2545 31-12-2013 22:55:00 3.2 C 5.18 g/m*3 3.2 C 1.6 km/h
2546 31-12-2013 23:00:00 3.1 C 5.21 g/m*3 3.1 C 3.2 km/h
2547 31-12-2013 23:05:00 2.9 C 5.2 g/m*3 2.9 C 3.2 km/h
2548 31-12-2013 23:10:00 2.8 C 5.22 g/m*3 2.8 C 3.2 km/h
2549 31-12-2013 23:15:00 2.7 C 5.19 g/m*3 2.7 C 1.6 km/h
2550 31-12-2013 23:20:00 2.8 C 5.28 g/m*3 2.8 C 3.2 km/h
Sensor: Nr:Datum:Temp:Abs-Feuchte:Windchill:Wind:
Aussen-T/F 2551 31-12-2013 23:25:00 2.8 C 5.28 g/m*3 2.8 C 1.6 km/h
2552 31-12-2013 23:30:00 2.8 C 5.22 g/m*3 2.8 C 1.6 km/h
2553 31-12-2013 23:35:00 2.8 C 5.28 g/m*3 2.8 C 0 km/h
2554 31-12-2013 23:40:00 2.7 C 5.24 g/m*3 2.7 C 3.2 km/h
2555 31-12-2013 23:45:00 2.7 C 5.24 g/m*3 2.7 C 1.6 km/h
2556 31-12-2013 23:50:00 2.6 C 5.21 g/m*3 2.6 C 1.6 km/h
2557 31-12-2013 23:55:00 2.6 C 5.21 g/m*3 2.6 C 1.6 km/h
2558 01-01-2014 00:00:00 2.6 C 5.21 g/m*3 2.6 C 1.6 km/h
2559 01-01-2014 00:05:00 2.6 C 5.21 g/m*3 2.6 C 1.6 km/h
2560 01-01-2014 00:10:00 2.7 C 5.19 g/m*3 2.7 C 1.6 km/h
2561 01-01-2014 00:15:00 2.7 C 5.19 g/m*3 2.7 C 3.2 km/h
2562 01-01-2014 00:20:00 2.7 C 5.19 g/m*3 2.7 C 0 km/h
2563 01-01-2014 00:25:00 2.7 C 5.19 g/m*3 2.7 C 1.6 km/h
2564 01-01-2014 00:30:00 2.7 C 5.19 g/m*3 2.7 C 0 km/h
2565 01-01-2014 00:35:00 2.6 C 5.15 g/m*3 2.6 C 1.6 km/h
2566 01-01-2014 00:40:00 2.6 C 5.15 g/m*3 2.6 C 1.6 km/h
2567 01-01-2014 00:45:00 2.6 C 5.21 g/m*3 2.6 C 0 km/h
2568 01-01-2014 00:50:00 2.6 C 5.21 g/m*3 2.6 C 3.2 km/h
2569 01-01-2014 00:55:00 2.7 C 5.24 g/m*3 2.7 C 1.6 km/h
2570 01-01-2014 01:00:00 2.7 C 5.24 g/m*3 2.7 C 3.2 km/h
2571 01-01-2014 01:05:00 2.7 C 5.24 g/m*3 2.7 C 0 km/h
2572 01-01-2014 01:10:00 2.7 C 5.24 g/m*3 2.7 C 0 km/h
2573 01-01-2014 01:15:00 2.8 C 5.28 g/m*3 2.8 C 1.6 km/h
2574 01-01-2014 01:20:00 2.8 C 5.28 g/m*3 2.8 C 3.2 km/h
2575 01-01-2014 01:25:00 2.9 C 5.32 g/m*3 2.9 C 1.6 km/h
Sensor: Nr:Datum:Temp:Abs-Feuchte:Windchill:Wind:
Aussen-T/F 2576 01-01-2014 01:30:00 3 C 5.35 g/m*3 3 C 0 km/h
2577 01-01-2014 01:35:00 3.1 C 5.39 g/m*3 3.1 C 0 km/h
2578 01-01-2014 01:40:00 3.2 C 5.42 g/m*3 3.2 C 1.6 km/h
2579 01-01-2014 01:45:00 3.3 C 5.46 g/m*3 3.3 C 0 km/h
2580 01-01-2014 01:50:00 3.4 C 5.5 g/m*3 3.4 C 1.6 km/h
2581 01-01-2014 01:55:00 3.4 C 5.5 g/m*3 3.4 C 1.6 km/h
2582 01-01-2014 02:00:00 3.4 C 5.44 g/m*3 3.4 C 3.2 km/h
2583 01-01-2014 02:05:00 3.4 C 5.44 g/m*3 3.4 C 1.6 km/h
2584 01-01-2014 02:10:00 3.4 C 5.44 g/m*3 3.4 C 0 km/h
2585 01-01-2014 02:15:00 3.4 C 5.44 g/m*3 3.4 C 1.6 km/h
2586 01-01-2014 02:20:00 3.4 C 5.44 g/m*3 3.4 C 0 km/h
2587 01-01-2014 02:25:00 3.4 C 5.31 g/m*3 1.23 C 8.1 km/h
2588 01-01-2014 02:30:00 3.7 C 5.48 g/m*3 3.7 C 3.2 km/h
2589 01-01-2014 02:35:00 3.8 C 5.46 g/m*3 3.8 C 3.2 km/h
2590 01-01-2014 02:40:00 3.9 C 5.49 g/m*3 3.9 C 1.6 km/h
2591 01-01-2014 02:45:00 4 C 5.53 g/m*3 4 C 1.6 km/h
2592 01-01-2014 02:50:00 4.1 C 5.5 g/m*3 2.55 C 6.4 km/h
2593 01-01-2014 02:55:00 4.2 C 5.61 g/m*3 4.2 C 3.2 km/h
2594 01-01-2014 03:00:00 4.2 C 5.48 g/m*3 4.2 C 4.8 km/h
2595 01-01-2014 03:05:00 4.4 C 5.55 g/m*3 4.4 C 3.2 km/h
2596 01-01-2014 03:10:00 4.4 C 5.62 g/m*3 4.4 C 0 km/h
2597 01-01-2014 03:15:00 4.4 C 5.68 g/m*3 4.4 C 1.6 km/h
2598 01-01-2014 03:20:00 4.3 C 5.71 g/m*3 4.3 C 1.6 km/h
2599 01-01-2014 03:25:00 4.3 C 5.77 g/m*3 4.3 C 3.2 km/h
2600 01-01-2014 03:30:00 4.3 C 5.77 g/m*3 4.3 C 1.6 km/h
Sensor: Nr:Datum:Temp:Abs-Feuchte:Windchill:Wind:
Aussen-T/F 2601 01-01-2014 03:35:00 4.3 C 5.71 g/m*3 4.3 C 1.6 km/h
2602 01-01-2014 03:40:00 4.3 C 5.77 g/m*3 4.3 C 1.6 km/h
2603 01-01-2014 03:45:00 4.4 C 5.81 g/m*3 4.4 C 1.6 km/h
2604 01-01-2014 03:50:00 4.5 C 5.78 g/m*3 4.5 C 1.6 km/h
2605 01-01-2014 03:55:00 4.6 C 5.82 g/m*3 4.6 C 1.6 km/h
2606 01-01-2014 04:00:00 4.6 C 5.89 g/m*3 4.6 C 0 km/h
2607 01-01-2014 04:05:00 4.5 C 5.92 g/m*3 4.5 C 3.2 km/h
2608 01-01-2014 04:10:00 4.5 C 5.92 g/m*3 4.5 C 3.2 km/h
2609 01-01-2014 04:15:00 4.5 C 5.98 g/m*3 4.5 C 0 km/h
2610 01-01-2014 04:20:00 4.5 C 5.98 g/m*3 4.5 C 3.2 km/h
2611 01-01-2014 04:25:00 4.6 C 6.02 g/m*3 4.6 C 3.2 km/h
2612 01-01-2014 04:30:00 4.6 C 6.02 g/m*3 4.6 C 1.6 km/h
2613 01-01-2014 04:35:00 4.7 C 6 g/m*3 4.7 C 1.6 km/h
2614 01-01-2014 04:40:00 4.7 C 6 g/m*3 4.7 C 0 km/h
2615 01-01-2014 04:45:00 4.7 C 6 g/m*3 4.7 C 0 km/h
2616 01-01-2014 04:50:00 4.7 C 6 g/m*3 4.7 C 0 km/h
2617 01-01-2014 04:55:00 4.7 C 6 g/m*3 4.7 C 1.6 km/h
2618 01-01-2014 05:00:00 4.7 C 6.06 g/m*3 4.7 C 0 km/h
2619 01-01-2014 05:05:00 4.7 C 6 g/m*3 4.7 C 4.8 km/h
2620 01-01-2014 05:10:00 4.8 C 6.04 g/m*3 4.8 C 3.2 km/h
2621 01-01-2014 05:15:00 5 C 6.12 g/m*3 5 C 0 km/h
2622 01-01-2014 05:20:00 5.1 C 6.16 g/m*3 5.1 C 0 km/h
2623 01-01-2014 05:25:00 5.1 C 6.09 g/m*3 3.71 C 6.4 km/h
2624 01-01-2014 05:30:00 5.2 C 6.13 g/m*3 5.2 C 0 km/h
2625 01-01-2014 05:35:00 5.3 C 6.17 g/m*3 5.3 C 3.2 km/h
Sensor: Nr:Datum:Temp:Abs-Feuchte:Windchill:Wind:
Aussen-T/F 2626 01-01-2014 05:40:00 5.4 C 6.14 g/m*3 5.4 C 3.2 km/h
2627 01-01-2014 05:45:00 5.6 C 6.22 g/m*3 5.6 C 0 km/h
2628 01-01-2014 05:50:00 5.6 C 6.22 g/m*3 5.6 C 0 km/h
2629 01-01-2014 05:55:00 5.5 C 6.18 g/m*3 5.5 C 1.6 km/h
2630 01-01-2014 06:00:00 5.5 C 6.18 g/m*3 5.5 C 0 km/h
2631 01-01-2014 06:05:00 5.5 C 6.18 g/m*3 5.5 C 0 km/h
2632 01-01-2014 06:10:00 5.5 C 6.25 g/m*3 5.5 C 0 km/h
2633 01-01-2014 06:15:00 5.4 C 6.28 g/m*3 5.4 C 0 km/h
2634 01-01-2014 06:20:00 5.4 C 6.35 g/m*3 5.4 C 0 km/h
2635 01-01-2014 06:25:00 5.4 C 6.35 g/m*3 5.4 C 0 km/h
2636 01-01-2014 06:30:00 5.4 C 6.42 g/m*3 5.4 C 0 km/h
2637 01-01-2014 06:35:00 5.4 C 6.42 g/m*3 5.4 C 1.6 km/h
2638 01-01-2014 06:40:00 5.5 C 6.46 g/m*3 5.5 C 3.2 km/h
2639 01-01-2014 06:45:00 5.6 C 6.5 g/m*3 5.6 C 1.6 km/h
2640 01-01-2014 06:50:00 5.6 C 6.5 g/m*3 5.6 C 0 km/h
2641 01-01-2014 06:55:00 5.6 C 6.5 g/m*3 5.6 C 1.6 km/h
2642 01-01-2014 07:00:00 5.5 C 6.46 g/m*3 5.5 C 0 km/h
2643 01-01-2014 07:05:00 5.5 C 6.46 g/m*3 5.5 C 0 km/h
2644 01-01-2014 07:10:00 5.5 C 6.46 g/m*3 5.5 C 3.2 km/h
2645 01-01-2014 07:15:00 5.6 C 6.5 g/m*3 5.6 C 1.6 km/h
2646 01-01-2014 07:20:00 5.6 C 6.5 g/m*3 5.6 C 0 km/h
2647 01-01-2014 07:25:00 5.6 C 6.5 g/m*3 5.6 C 0 km/h
2648 01-01-2014 07:30:00 5.6 C 6.57 g/m*3 5.6 C 0 km/h
2649 01-01-2014 07:35:00 5.6 C 6.57 g/m*3 5.6 C 0 km/h
2650 01-01-2014 07:40:00 5.6 C 6.57 g/m*3 5.6 C 0 km/h
Sensor: Nr:Datum:Temp:Abs-Feuchte:Windchill:Wind:
Aussen-T/F 2651 01-01-2014 07:45:00 5.6 C 6.57 g/m*3 5.6 C 0 km/h
2652 01-01-2014 07:50:00 5.6 C 6.57 g/m*3 5.6 C 0 km/h
2653 01-01-2014 07:55:00 5.6 C 6.57 g/m*3 5.6 C 1.6 km/h
2654 01-01-2014 08:00:00 5.6 C 6.57 g/m*3 5.6 C 1.6 km/h
2655 01-01-2014 08:05:00 5.5 C 6.53 g/m*3 5.5 C 0 km/h
2656 01-01-2014 08:10:00 5.4 C 6.49 g/m*3 5.4 C 3.2 km/h
2657 01-01-2014 08:15:00 5.2 C 6.33 g/m*3 5.2 C 1.6 km/h
2658 01-01-2014 08:20:00 5.1 C 6.36 g/m*3 5.1 C 1.6 km/h
2659 01-01-2014 08:25:00 5 C 6.32 g/m*3 5 C 1.6 km/h
2660 01-01-2014 08:30:00 4.8 C 6.24 g/m*3 4.8 C 3.2 km/h
2661 01-01-2014 08:35:00 4.7 C 6.19 g/m*3 4.7 C 3.2 km/h
2662 01-01-2014 08:40:00 4.6 C 6.15 g/m*3 4.6 C 4.8 km/h
2663 01-01-2014 08:45:00 4.7 C 6.26 g/m*3 4.7 C 3.2 km/h
2664 01-01-2014 08:50:00 4.8 C 6.3 g/m*3 4.8 C 3.2 km/h
2665 01-01-2014 08:55:00 4.9 C 6.35 g/m*3 4.9 C 0 km/h
2666 01-01-2014 09:00:00 4.9 C 6.35 g/m*3 4.9 C 3.2 km/h
2667 01-01-2014 09:05:00 4.9 C 6.35 g/m*3 4.9 C 0 km/h
2668 01-01-2014 09:25:00 4.8 C 6.71 g/m*3 4.8 C 0 km/h
2669 01-01-2014 09:30:00 5.1 C 6.43 g/m*3 5.1 C 4.8 km/h
2670 01-01-2014 09:35:00 5.1 C 6.43 g/m*3 5.1 C 1.6 km/h
2671 01-01-2014 09:40:00 5.2 C 6.47 g/m*3 5.2 C 0 km/h
2672 01-01-2014 09:45:00 5.2 C 6.47 g/m*3 5.2 C 1.6 km/h
2673 01-01-2014 09:50:00 5.3 C 6.52 g/m*3 5.3 C 0 km/h
2674 01-01-2014 09:55:00 5.4 C 6.56 g/m*3 5.4 C 0 km/h
2675 01-01-2014 10:00:00 5.4 C 6.56 g/m*3 5.4 C 0 km/h
Sensor: Nr:Datum:Temp:Abs-Feuchte:Windchill:Wind:
Aussen-T/F 2676 01-01-2014 10:05:00 5.7 C 6.62 g/m*3 5.7 C 0 km/h
2677 01-01-2014 10:10:00 5.9 C 6.71 g/m*3 5.9 C 0 km/h
2678 01-01-2014 10:15:00 6 C 6.6 g/m*3 6 C 1.6 km/h
2679 01-01-2014 10:20:00 6.2 C 6.62 g/m*3 6.2 C 3.2 km/h
2680 01-01-2014 10:25:00 6.4 C 6.71 g/m*3 6.4 C 1.6 km/h
2681 01-01-2014 10:30:00 6.6 C 6.72 g/m*3 6.6 C 1.6 km/h
2682 01-01-2014 10:35:00 6.7 C 6.76 g/m*3 6.7 C 3.2 km/h
2683 01-01-2014 10:40:00 6.7 C 6.69 g/m*3 6.7 C 0 km/h
2684 01-01-2014 10:45:00 6.7 C 6.69 g/m*3 6.7 C 3.2 km/h
2685 01-01-2014 10:50:00 6.8 C 6.73 g/m*3 6.8 C 1.6 km/h
2686 01-01-2014 10:55:00 6.8 C 6.73 g/m*3 6.8 C 3.2 km/h
2687 01-01-2014 11:00:00 6.7 C 6.69 g/m*3 5.11 C 8.1 km/h
2688 01-01-2014 11:05:00 6.7 C 6.69 g/m*3 6.7 C 1.6 km/h
2689 01-01-2014 11:10:00 6.7 C 6.69 g/m*3 6.7 C 1.6 km/h
2690 01-01-2014 11:15:00 6.8 C 6.73 g/m*3 6.8 C 3.2 km/h
2691 01-01-2014 11:20:00 6.9 C 6.77 g/m*3 6.9 C 0 km/h
2692 01-01-2014 11:25:00 7.1 C 6.86 g/m*3 7.1 C 4.8 km/h
2693 01-01-2014 11:30:00 7.1 C 6.86 g/m*3 7.1 C 3.2 km/h
2694 01-01-2014 11:35:00 7.2 C 6.91 g/m*3 7.2 C 4.8 km/h
2695 01-01-2014 11:40:00 7.3 C 6.95 g/m*3 7.3 C 1.6 km/h
2696 01-01-2014 11:45:00 7.3 C 6.87 g/m*3 7.3 C 1.6 km/h
2697 01-01-2014 11:50:00 7.3 C 6.79 g/m*3 7.3 C 0 km/h
2698 01-01-2014 11:55:00 7.2 C 6.83 g/m*3 7.2 C 0 km/h
2699 01-01-2014 12:00:00 7 C 6.82 g/m*3 7 C 0 km/h
2700 01-01-2014 12:05:00 6.8 C 6.88 g/m*3 6.8 C 0 km/h
Sensor: Nr:Datum:Temp:Abs-Feuchte:Windchill:Wind:
Aussen-T/F 2701 01-01-2014 12:10:00 6.7 C 6.84 g/m*3 6.7 C 1.6 km/h
2702 01-01-2014 12:15:00 6.6 C 6.87 g/m*3 6.6 C 1.6 km/h
2703 01-01-2014 12:20:00 6.7 C 6.91 g/m*3 6.7 C 3.2 km/h
2704 01-01-2014 12:25:00 6.7 C 6.91 g/m*3 6.7 C 1.6 km/h
2705 01-01-2014 12:30:00 6.7 C 6.91 g/m*3 6.7 C 3.2 km/h
2706 01-01-2014 12:35:00 6.8 C 6.88 g/m*3 6.8 C 0 km/h
2707 01-01-2014 12:40:00 6.9 C 6.77 g/m*3 5.79 C 6.4 km/h
2708 01-01-2014 12:45:00 7.1 C 6.63 g/m*3 6.02 C 6.4 km/h
2709 01-01-2014 12:50:00 7.6 C 6.61 g/m*3 6.6 C 6.4 km/h
2710 01-01-2014 12:55:00 7.9 C 6.74 g/m*3 7.9 C 4.8 km/h
2711 01-01-2014 13:00:00 8.2 C 6.62 g/m*3 7.29 C 6.4 km/h
2712 01-01-2014 13:05:00 8.4 C 6.79 g/m*3 8.4 C 3.2 km/h
2713 01-01-2014 13:10:00 8.6 C 6.62 g/m*3 8.6 C 1.6 km/h
2714 01-01-2014 13:15:00 8.7 C 6.57 g/m*3 7.46 C 8.1 km/h
2715 01-01-2014 13:20:00 8.8 C 6.61 g/m*3 7.98 C 6.4 km/h
2716 01-01-2014 13:25:00 8.8 C 6.7 g/m*3 8.8 C 1.6 km/h
2717 01-01-2014 13:30:00 8.8 C 6.79 g/m*3 7.98 C 6.4 km/h
2718 01-01-2014 13:35:00 8.8 C 6.7 g/m*3 8.8 C 4.8 km/h
2719 01-01-2014 13:40:00 8.8 C 6.7 g/m*3 8.8 C 3.2 km/h
2720 01-01-2014 13:45:00 8.8 C 6.7 g/m*3 8.8 C 1.6 km/h
2721 01-01-2014 13:50:00 8.8 C 6.79 g/m*3 8.8 C 1.6 km/h
2722 01-01-2014 13:55:00 8.8 C 6.79 g/m*3 8.8 C 4.8 km/h
2723 01-01-2014 14:00:00 8.8 C 6.7 g/m*3 8.8 C 4.8 km/h
2724 01-01-2014 14:05:00 8.8 C 6.79 g/m*3 8.8 C 3.2 km/h
2725 01-01-2014 14:10:00 8.8 C 6.7 g/m*3 8.8 C 1.6 km/h
Sensor: Nr:Datum:Temp:Abs-Feuchte:Windchill:Wind:
Aussen-T/F 2726 01-01-2014 14:15:00 8.8 C 6.79 g/m*3 8.8 C 4.8 km/h
2727 01-01-2014 14:20:00 8.9 C 6.75 g/m*3 7.37 C 9.7 km/h
2728 01-01-2014 14:25:00 8.9 C 6.83 g/m*3 8.9 C 3.2 km/h
2729 01-01-2014 14:30:00 8.9 C 6.75 g/m*3 8.9 C 4.8 km/h
2730 01-01-2014 14:35:00 8.9 C 6.83 g/m*3 7.69 C 8.1 km/h
2731 01-01-2014 14:40:00 8.8 C 6.79 g/m*3 7.98 C 6.4 km/h
2732 01-01-2014 14:45:00 8.7 C 6.75 g/m*3 8.7 C 4.8 km/h
2733 01-01-2014 14:50:00 8.6 C 6.87 g/m*3 8.6 C 0 km/h
2734 01-01-2014 14:55:00 8.5 C 6.92 g/m*3 8.5 C 4.8 km/h
2735 01-01-2014 15:00:00 8.6 C 6.79 g/m*3 8.6 C 4.8 km/h
2736 01-01-2014 15:05:00 8.7 C 6.75 g/m*3 8.7 C 1.6 km/h
2737 01-01-2014 15:10:00 8.7 C 6.92 g/m*3 8.7 C 3.2 km/h
2738 01-01-2014 15:15:00 8.7 C 6.83 g/m*3 8.7 C 3.2 km/h
2739 01-01-2014 15:20:00 8.6 C 6.96 g/m*3 8.6 C 3.2 km/h
2740 01-01-2014 15:25:00 8.5 C 6.83 g/m*3 8.5 C 1.6 km/h
2741 01-01-2014 15:30:00 8.4 C 6.87 g/m*3 8.4 C 3.2 km/h
2742 01-01-2014 15:35:00 8.2 C 6.78 g/m*3 8.2 C 1.6 km/h
2743 01-01-2014 15:40:00 8.1 C 6.74 g/m*3 8.1 C 4.8 km/h
2744 01-01-2014 15:45:00 8.1 C 6.82 g/m*3 8.1 C 4.8 km/h
2745 01-01-2014 15:50:00 8.1 C 6.82 g/m*3 8.1 C 0 km/h
2746 01-01-2014 15:55:00 8 C 6.78 g/m*3 8 C 1.6 km/h
2747 01-01-2014 16:00:00 7.8 C 6.77 g/m*3 7.8 C 3.2 km/h
2748 01-01-2014 16:05:00 7.7 C 6.81 g/m*3 7.7 C 0 km/h
2749 01-01-2014 16:10:00 7.6 C 6.77 g/m*3 7.6 C 1.6 km/h
2750 01-01-2014 16:15:00 7.6 C 6.77 g/m*3 7.6 C 4.8 km/h
Sensor: Nr:Datum:Temp:Abs-Feuchte:Windchill:Wind:
Aussen-T/F 2751 01-01-2014 16:20:00 7.5 C 6.72 g/m*3 7.5 C 4.8 km/h
2752 01-01-2014 16:25:00 7.6 C 6.77 g/m*3 7.6 C 4.8 km/h
2753 01-01-2014 16:30:00 7.6 C 6.77 g/m*3 7.6 C 3.2 km/h
2754 01-01-2014 16:35:00 7.6 C 6.77 g/m*3 7.6 C 4.8 km/h
2755 01-01-2014 16:40:00 7.5 C 6.72 g/m*3 5.7 C 9.7 km/h
2756 01-01-2014 16:45:00 7.5 C 6.72 g/m*3 7.5 C 4.8 km/h
2757 01-01-2014 16:50:00 7.6 C 6.77 g/m*3 7.6 C 3.2 km/h
2758 01-01-2014 16:55:00 7.6 C 6.77 g/m*3 5.82 C 9.7 km/h
2759 01-01-2014 17:00:00 7.7 C 6.81 g/m*3 6.28 C 8.1 km/h
2760 01-01-2014 17:05:00 7.8 C 6.77 g/m*3 6.83 C 6.4 km/h
2761 01-01-2014 17:10:00 7.8 C 6.86 g/m*3 6.4 C 8.1 km/h
2762 01-01-2014 17:15:00 7.8 C 6.86 g/m*3 7.8 C 4.8 km/h
2763 01-01-2014 17:20:00 7.9 C 6.9 g/m*3 7.9 C 4.8 km/h
2764 01-01-2014 17:25:00 7.8 C 6.86 g/m*3 7.8 C 3.2 km/h
2765 01-01-2014 17:30:00 7.8 C 6.86 g/m*3 7.8 C 3.2 km/h
2766 01-01-2014 17:35:00 7.8 C 6.86 g/m*3 7.8 C 4.8 km/h
2767 01-01-2014 17:40:00 7.8 C 6.86 g/m*3 7.8 C 3.2 km/h
2768 01-01-2014 17:45:00 7.8 C 6.94 g/m*3 6.4 C 8.1 km/h
2769 01-01-2014 17:50:00 7.8 C 6.94 g/m*3 6.4 C 8.1 km/h
2770 01-01-2014 17:55:00 7.8 C 6.94 g/m*3 6.83 C 6.4 km/h
2771 01-01-2014 18:00:00 7.8 C 7.02 g/m*3 6.83 C 6.4 km/h
2772 01-01-2014 18:05:00 7.8 C 6.94 g/m*3 7.8 C 3.2 km/h
2773 01-01-2014 18:10:00 7.8 C 6.94 g/m*3 5.51 C 12.9 km/h
2774 01-01-2014 18:15:00 7.9 C 6.98 g/m*3 6.52 C 8.1 km/h
2775 01-01-2014 18:20:00 7.9 C 6.98 g/m*3 7.9 C 4.8 km/h
Sensor: Nr:Datum:Temp:Abs-Feuchte:Windchill:Wind:
Aussen-T/F 2776 01-01-2014 18:25:00 7.9 C 6.98 g/m*3 6.52 C 8.1 km/h
2777 01-01-2014 18:30:00 7.9 C 6.98 g/m*3 6.52 C 8.1 km/h
2778 01-01-2014 18:35:00 8 C 7.03 g/m*3 6.3 C 9.7 km/h
2779 01-01-2014 18:40:00 8.1 C 6.99 g/m*3 6.42 C 9.7 km/h
2780 01-01-2014 18:45:00 8.1 C 6.99 g/m*3 7.17 C 6.4 km/h
2781 01-01-2014 18:50:00 8.1 C 6.99 g/m*3 7.17 C 6.4 km/h
2782 01-01-2014 18:55:00 8.1 C 6.99 g/m*3 8.1 C 4.8 km/h
2783 01-01-2014 19:00:00 8.1 C 6.91 g/m*3 6.42 C 9.7 km/h
2784 01-01-2014 19:05:00 8.1 C 6.91 g/m*3 5.64 C 14.5 km/h
2785 01-01-2014 19:10:00 8.2 C 6.95 g/m*3 8.2 C 4.8 km/h
2786 01-01-2014 19:15:00 8.2 C 6.95 g/m*3 6.87 C 8.1 km/h
2787 01-01-2014 19:20:00 8.2 C 6.95 g/m*3 8.2 C 3.2 km/h
2788 01-01-2014 19:25:00 8.1 C 6.91 g/m*3 8.1 C 3.2 km/h
2789 01-01-2014 19:30:00 8.1 C 6.91 g/m*3 6.75 C 8.1 km/h
2790 01-01-2014 19:35:00 8.1 C 6.91 g/m*3 8.1 C 3.2 km/h
2791 01-01-2014 19:40:00 8.1 C 6.82 g/m*3 6.75 C 8.1 km/h
2792 01-01-2014 19:45:00 8.2 C 6.95 g/m*3 8.2 C 0 km/h
2793 01-01-2014 19:50:00 8.2 C 6.95 g/m*3 7.29 C 6.4 km/h
2794 01-01-2014 19:55:00 8.2 C 6.87 g/m*3 8.2 C 4.8 km/h
2795 01-01-2014 20:00:00 8.2 C 6.95 g/m*3 8.2 C 3.2 km/h
2796 01-01-2014 20:05:00 8.1 C 6.91 g/m*3 8.1 C 3.2 km/h
2797 01-01-2014 20:10:00 8.1 C 6.91 g/m*3 6.75 C 8.1 km/h
2798 01-01-2014 20:15:00 8.1 C 6.99 g/m*3 7.17 C 6.4 km/h
2799 01-01-2014 20:20:00 7.9 C 6.9 g/m*3 7.9 C 1.6 km/h
2800 01-01-2014 20:25:00 7.7 C 6.89 g/m*3 7.7 C 4.8 km/h
Sensor: Nr:Datum:Temp:Abs-Feuchte:Windchill:Wind:
Aussen-T/F 2801 01-01-2014 20:30:00 7.6 C 6.93 g/m*3 7.6 C 4.8 km/h
2802 01-01-2014 20:35:00 7.7 C 6.97 g/m*3 7.7 C 3.2 km/h
2803 01-01-2014 20:40:00 7.7 C 6.89 g/m*3 7.7 C 4.8 km/h
2804 01-01-2014 20:45:00 7.9 C 6.98 g/m*3 7.9 C 4.8 km/h
2805 01-01-2014 20:50:00 7.9 C 6.98 g/m*3 7.9 C 4.8 km/h
2806 01-01-2014 20:55:00 8.1 C 6.91 g/m*3 6.75 C 8.1 km/h
2807 01-01-2014 21:00:00 8.4 C 6.96 g/m*3 6.49 C 11.3 km/h
2808 01-01-2014 21:05:00 8.5 C 7 g/m*3 6.9 C 9.7 km/h
2809 01-01-2014 21:10:00 8.6 C 6.96 g/m*3 7.34 C 8.1 km/h
2810 01-01-2014 21:15:00 8.6 C 6.96 g/m*3 8.6 C 4.8 km/h
2811 01-01-2014 21:20:00 8.7 C 7.01 g/m*3 8.7 C 4.8 km/h
2812 01-01-2014 21:25:00 8.7 C 7.01 g/m*3 8.7 C 3.2 km/h
2813 01-01-2014 21:30:00 8.6 C 6.96 g/m*3 8.6 C 3.2 km/h
2814 01-01-2014 21:35:00 8.4 C 6.96 g/m*3 6.78 C 9.7 km/h
2815 01-01-2014 21:40:00 8.4 C 6.96 g/m*3 8.4 C 4.8 km/h
2816 01-01-2014 21:45:00 8.5 C 6.92 g/m*3 8.5 C 3.2 km/h
2817 01-01-2014 21:50:00 8.3 C 6.91 g/m*3 6.66 C 9.7 km/h
2818 01-01-2014 21:55:00 8.3 C 7 g/m*3 7.41 C 6.4 km/h
2819 01-01-2014 22:00:00 8.3 C 7 g/m*3 8.3 C 1.6 km/h
2820 01-01-2014 22:05:00 8.2 C 6.95 g/m*3 8.2 C 1.6 km/h
2821 01-01-2014 22:10:00 8 C 6.94 g/m*3 8 C 4.8 km/h
2822 01-01-2014 22:15:00 7.8 C 6.94 g/m*3 6.83 C 6.4 km/h
2823 01-01-2014 22:20:00 8 C 6.94 g/m*3 7.06 C 6.4 km/h
2824 01-01-2014 22:25:00 8.1 C 6.99 g/m*3 8.1 C 4.8 km/h
2825 01-01-2014 22:30:00 8 C 6.94 g/m*3 8 C 3.2 km/h
Sensor: Nr:Datum:Temp:Abs-Feuchte:Windchill:Wind:
Aussen-T/F 2826 01-01-2014 22:35:00 8.1 C 6.99 g/m*3 8.1 C 4.8 km/h
2827 01-01-2014 22:40:00 8.2 C 6.95 g/m*3 6.54 C 9.7 km/h
2828 01-01-2014 22:45:00 8.2 C 7.03 g/m*3 7.29 C 6.4 km/h
2829 01-01-2014 22:50:00 8.3 C 7.08 g/m*3 6.99 C 8.1 km/h
2830 01-01-2014 22:55:00 8.4 C 7.04 g/m*3 8.4 C 4.8 km/h
2831 01-01-2014 23:00:00 8.2 C 7.03 g/m*3 6.54 C 9.7 km/h
2832 01-01-2014 23:05:00 8.1 C 6.99 g/m*3 8.1 C 3.2 km/h
2833 01-01-2014 23:10:00 7.9 C 6.98 g/m*3 7.9 C 4.8 km/h
2834 01-01-2014 23:15:00 7.7 C 6.97 g/m*3 7.7 C 3.2 km/h
2835 01-01-2014 23:20:00 7.7 C 6.97 g/m*3 7.7 C 4.8 km/h
2836 01-01-2014 23:25:00 7.9 C 6.98 g/m*3 7.9 C 3.2 km/h
2837 01-01-2014 23:30:00 8.1 C 7.07 g/m*3 8.1 C 4.8 km/h
2838 01-01-2014 23:35:00 8.2 C 7.12 g/m*3 8.2 C 4.8 km/h
2839 01-01-2014 23:40:00 8.2 C 7.03 g/m*3 6.54 C 9.7 km/h
2840 01-01-2014 23:45:00 8.2 C 7.03 g/m*3 7.29 C 6.4 km/h
2841 01-01-2014 23:50:00 8.2 C 7.03 g/m*3 8.2 C 3.2 km/h
2842 01-01-2014 23:55:00 8.1 C 6.99 g/m*3 7.17 C 6.4 km/h
2843 02-01-2014 00:00:00 8.1 C 7.07 g/m*3 8.1 C 4.8 km/h
2844 02-01-2014 00:05:00 8.1 C 6.99 g/m*3 8.1 C 3.2 km/h
2845 02-01-2014 00:10:00 8.2 C 7.03 g/m*3 8.2 C 3.2 km/h
2846 02-01-2014 00:15:00 8.2 C 7.03 g/m*3 8.2 C 3.2 km/h
2847 02-01-2014 00:20:00 8.3 C 7.08 g/m*3 8.3 C 4.8 km/h
2848 02-01-2014 00:25:00 8.5 C 7.09 g/m*3 7.22 C 8.1 km/h
2849 02-01-2014 00:30:00 8.7 C 7.18 g/m*3 8.7 C 3.2 km/h
2850 02-01-2014 00:35:00 8.8 C 7.14 g/m*3 7.25 C 9.7 km/h
Sensor: Nr:Datum:Temp:Abs-Feuchte:Windchill:Wind:
Aussen-T/F 2851 02-01-2014 00:40:00 9.1 C 7.19 g/m*3 7.61 C 9.7 km/h
2852 02-01-2014 00:45:00 9.2 C 7.14 g/m*3 9.2 C 4.8 km/h
2853 02-01-2014 00:50:00 9.2 C 7.23 g/m*3 9.2 C 4.8 km/h
2854 02-01-2014 00:55:00 9.2 C 7.14 g/m*3 9.2 C 4.8 km/h
2855 02-01-2014 01:00:00 9.2 C 7.14 g/m*3 7.46 C 11.3 km/h
2856 02-01-2014 01:05:00 9.2 C 7.14 g/m*3 8.45 C 6.4 km/h
2857 02-01-2014 01:10:00 9.2 C 7.23 g/m*3 9.2 C 3.2 km/h
2858 02-01-2014 01:15:00 9 C 7.23 g/m*3 9 C 3.2 km/h
2859 02-01-2014 01:20:00 8.8 C 7.14 g/m*3 7.58 C 8.1 km/h
2860 02-01-2014 01:25:00 8.8 C 7.14 g/m*3 7.58 C 8.1 km/h
2861 02-01-2014 01:30:00 8.8 C 7.22 g/m*3 8.8 C 3.2 km/h
2862 02-01-2014 01:35:00 8.8 C 7.14 g/m*3 8.8 C 1.6 km/h
2863 02-01-2014 01:40:00 8.7 C 7.18 g/m*3 8.7 C 4.8 km/h
2864 02-01-2014 01:45:00 8.7 C 7.18 g/m*3 8.7 C 4.8 km/h
2865 02-01-2014 01:50:00 8.7 C 7.26 g/m*3 7.87 C 6.4 km/h
2866 02-01-2014 01:55:00 8.8 C 7.31 g/m*3 8.8 C 4.8 km/h
2867 02-01-2014 02:00:00 9 C 7.32 g/m*3 7.21 C 11.3 km/h
2868 02-01-2014 02:05:00 9.1 C 7.28 g/m*3 7.33 C 11.3 km/h
2869 02-01-2014 02:10:00 9.3 C 7.37 g/m*3 8.56 C 6.4 km/h
2870 02-01-2014 02:15:00 9.4 C 7.42 g/m*3 9.4 C 4.8 km/h
2871 02-01-2014 02:20:00 9.4 C 7.42 g/m*3 7.7 C 11.3 km/h
2872 02-01-2014 02:25:00 9.6 C 7.51 g/m*3 8.21 C 9.7 km/h
2873 02-01-2014 02:30:00 9.6 C 7.42 g/m*3 8.91 C 6.4 km/h
2874 02-01-2014 02:35:00 9.6 C 7.51 g/m*3 9.6 C 4.8 km/h
2875 02-01-2014 02:40:00 9.4 C 7.42 g/m*3 9.4 C 3.2 km/h
Sensor: Nr:Datum:Temp:Abs-Feuchte:Windchill:Wind:
Aussen-T/F 2876 02-01-2014 02:45:00 9.4 C 7.42 g/m*3 9.4 C 4.8 km/h
2877 02-01-2014 02:50:00 9.4 C 7.51 g/m*3 9.4 C 4.8 km/h
2878 02-01-2014 02:55:00 9.3 C 7.46 g/m*3 9.3 C 4.8 km/h
2879 02-01-2014 03:00:00 9.3 C 7.46 g/m*3 8.56 C 6.4 km/h
2880 02-01-2014 03:05:00 9.3 C 7.46 g/m*3 7.58 C 11.3 km/h
2881 02-01-2014 03:10:00 9.3 C 7.55 g/m*3 9.3 C 4.8 km/h
2882 02-01-2014 03:15:00 9.1 C 7.54 g/m*3 9.1 C 3.2 km/h
2883 02-01-2014 03:20:00 8.9 C 7.45 g/m*3 7.37 C 9.7 km/h
2884 02-01-2014 03:25:00 8.9 C 7.45 g/m*3 8.9 C 4.8 km/h
2885 02-01-2014 03:30:00 9.1 C 7.54 g/m*3 9.1 C 4.8 km/h
2886 02-01-2014 03:35:00 9.1 C 7.54 g/m*3 9.1 C 3.2 km/h
2887 02-01-2014 03:40:00 8.9 C 7.62 g/m*3 8.9 C 0 km/h
2888 02-01-2014 03:45:00 8.7 C 7.61 g/m*3 8.7 C 1.6 km/h
2889 02-01-2014 03:50:00 8.5 C 7.51 g/m*3 8.5 C 4.8 km/h
2890 02-01-2014 03:55:00 8.4 C 7.55 g/m*3 8.4 C 4.8 km/h
2891 02-01-2014 04:00:00 8.4 C 7.63 g/m*3 7.52 C 6.4 km/h
2892 02-01-2014 04:05:00 8.3 C 7.59 g/m*3 8.3 C 4.8 km/h
2893 02-01-2014 04:10:00 8.3 C 7.59 g/m*3 8.3 C 4.8 km/h
2894 02-01-2014 04:15:00 8.2 C 7.62 g/m*3 8.2 C 3.2 km/h
2895 02-01-2014 04:20:00 8.1 C 7.57 g/m*3 7.17 C 6.4 km/h
2896 02-01-2014 04:25:00 8 C 7.61 g/m*3 8 C 3.2 km/h
2897 02-01-2014 04:30:00 7.9 C 7.56 g/m*3 7.9 C 4.8 km/h
2898 02-01-2014 04:35:00 8 C 7.61 g/m*3 8 C 4.8 km/h
2899 02-01-2014 04:40:00 8.1 C 7.57 g/m*3 7.17 C 6.4 km/h
2900 02-01-2014 04:45:00 8 C 7.52 g/m*3 8 C 4.8 km/h
Sensor: Nr:Datum:Temp:Abs-Feuchte:Windchill:Wind:
Aussen-T/F 2901 02-01-2014 04:50:00 8 C 7.52 g/m*3 8 C 4.8 km/h
2902 02-01-2014 04:55:00 7.9 C 7.47 g/m*3 7.9 C 3.2 km/h
2903 02-01-2014 05:00:00 7.8 C 7.51 g/m*3 7.8 C 3.2 km/h
2904 02-01-2014 05:05:00 7.7 C 7.54 g/m*3 7.7 C 0 km/h
2905 02-01-2014 05:10:00 7.7 C 7.54 g/m*3 7.7 C 4.8 km/h
2906 02-01-2014 05:15:00 7.7 C 7.54 g/m*3 7.7 C 4.8 km/h
2907 02-01-2014 05:20:00 7.7 C 7.54 g/m*3 7.7 C 3.2 km/h
2908 02-01-2014 05:25:00 7.7 C 7.54 g/m*3 7.7 C 3.2 km/h
2909 02-01-2014 05:30:00 7.6 C 7.57 g/m*3 7.6 C 3.2 km/h
2910 02-01-2014 05:35:00 7.6 C 7.57 g/m*3 7.6 C 1.6 km/h
2911 02-01-2014 05:40:00 7.7 C 7.62 g/m*3 7.7 C 4.8 km/h
2912 02-01-2014 05:45:00 7.7 C 7.62 g/m*3 7.7 C 4.8 km/h
2913 02-01-2014 05:50:00 7.7 C 7.62 g/m*3 7.7 C 4.8 km/h
2914 02-01-2014 05:55:00 7.7 C 7.62 g/m*3 7.7 C 3.2 km/h
2915 02-01-2014 06:00:00 7.7 C 7.62 g/m*3 7.7 C 4.8 km/h
2916 02-01-2014 06:05:00 7.7 C 7.62 g/m*3 7.7 C 3.2 km/h
2917 02-01-2014 06:10:00 7.7 C 7.62 g/m*3 7.7 C 3.2 km/h
2918 02-01-2014 06:15:00 7.7 C 7.7 g/m*3 7.7 C 1.6 km/h
2919 02-01-2014 06:20:00 7.7 C 7.7 g/m*3 6.71 C 6.4 km/h
2920 02-01-2014 06:25:00 7.7 C 7.7 g/m*3 7.7 C 0 km/h
2921 02-01-2014 07:05:00 7.8 C 7.75 g/m*3 7.8 C 1.6 km/h
2922 02-01-2014 07:10:00 7.8 C 7.75 g/m*3 7.8 C 1.6 km/h
2923 02-01-2014 07:15:00 7.8 C 7.75 g/m*3 6.4 C 8.1 km/h
2924 02-01-2014 07:20:00 7.9 C 7.8 g/m*3 7.9 C 3.2 km/h
2925 02-01-2014 07:25:00 8 C 7.85 g/m*3 8 C 1.6 km/h
Sensor: Nr:Datum:Temp:Abs-Feuchte:Windchill:Wind:
Aussen-T/F 2926 02-01-2014 07:30:00 7.9 C 7.8 g/m*3 7.9 C 0 km/h
2927 02-01-2014 07:35:00 7.9 C 7.8 g/m*3 7.9 C 4.8 km/h
2928 02-01-2014 07:40:00 7.8 C 7.75 g/m*3 6.83 C 6.4 km/h
2929 02-01-2014 07:45:00 7.8 C 7.75 g/m*3 7.8 C 4.8 km/h
2930 02-01-2014 07:50:00 7.8 C 7.75 g/m*3 7.8 C 1.6 km/h
2931 02-01-2014 07:55:00 7.8 C 7.75 g/m*3 6.83 C 6.4 km/h
2932 02-01-2014 08:30:00 8.8 C 8.7 g/m*3 6.97 C 11.3 km/h
2933 02-01-2014 08:35:00 8.8 C 7.92 g/m*3 6.97 C 11.3 km/h
2934 02-01-2014 08:40:00 8.8 C 7.92 g/m*3 8.8 C 3.2 km/h
2935 02-01-2014 09:35:00 8.9 C 7.97 g/m*3 8.1 C 6.4 km/h
2936 02-01-2014 09:40:00 8.9 C 7.97 g/m*3 8.9 C 3.2 km/h
2937 02-01-2014 09:45:00 9.2 C 8.13 g/m*3 9.2 C 4.8 km/h
2938 02-01-2014 09:50:00 9.2 C 8.13 g/m*3 9.2 C 1.6 km/h
2939 02-01-2014 09:55:00 9.2 C 8.04 g/m*3 9.2 C 1.6 km/h
2940 02-01-2014 10:00:00 9.2 C 8.04 g/m*3 9.2 C 3.2 km/h
2941 02-01-2014 10:05:00 9.2 C 8.04 g/m*3 9.2 C 4.8 km/h
2942 02-01-2014 10:10:00 9.3 C 8.09 g/m*3 9.3 C 4.8 km/h
2943 02-01-2014 10:15:00 9.4 C 8.05 g/m*3 9.4 C 4.8 km/h
2944 02-01-2014 10:20:00 9.5 C 8.1 g/m*3 9.5 C 4.8 km/h
2945 02-01-2014 10:25:00 9.5 C 8.1 g/m*3 8.79 C 6.4 km/h
2946 02-01-2014 10:30:00 9.5 C 8.1 g/m*3 9.5 C 4.8 km/h
2947 02-01-2014 10:35:00 9.6 C 8.24 g/m*3 9.6 C 0 km/h
2948 02-01-2014 10:40:00 9.7 C 8.39 g/m*3 8.33 C 9.7 km/h
2949 02-01-2014 10:45:00 9.7 C 8.39 g/m*3 9.7 C 0 km/h
2950 02-01-2014 10:50:00 9.8 C 8.26 g/m*3 9.8 C 4.8 km/h
Sensor: Nr:Datum:Temp:Abs-Feuchte:Windchill:Wind:
Aussen-T/F 2951 02-01-2014 10:55:00 10 C 8.36 g/m*3 8.99 C 8.1 km/h
2952 02-01-2014 11:00:00 10.1 C 8.32 g/m*3 9.48 C 6.4 km/h
2953 02-01-2014 11:05:00 10.2 C 8.47 g/m*3 9.6 C 6.4 km/h
2954 02-01-2014 11:10:00 10.2 C 8.47 g/m*3 9.6 C 6.4 km/h
2955 02-01-2014 11:15:00 10.3 C 8.52 g/m*3 10.3 C 3.2 km/h
2956 02-01-2014 11:20:00 10.3 C 8.52 g/m*3 10.3 C 3.2 km/h
2957 02-01-2014 11:25:00 10.3 C 8.52 g/m*3 10.3 C 4.8 km/h
2958 02-01-2014 11:30:00 10.4 C 8.58 g/m*3 9.83 C 6.4 km/h
2959 02-01-2014 11:35:00 10.4 C 8.48 g/m*3 10.4 C 3.2 km/h
2960 02-01-2014 11:40:00 10.5 C 8.53 g/m*3 9.95 C 6.4 km/h
2961 02-01-2014 11:45:00 10.6 C 8.69 g/m*3 10.6 C 4.8 km/h
2962 02-01-2014 11:50:00 10.6 C 8.59 g/m*3 10.6 C 3.2 km/h
2963 02-01-2014 11:55:00 10.7 C 8.55 g/m*3 10.7 C 1.6 km/h
2964 02-01-2014 12:00:00 10.7 C 8.45 g/m*3 10.7 C 3.2 km/h
2965 02-01-2014 12:05:00 10.8 C 8.5 g/m*3 10.8 C 4.8 km/h
2966 02-01-2014 12:10:00 10.9 C 8.45 g/m*3 10.41 C 6.4 km/h
2967 02-01-2014 12:15:00 10.9 C 8.26 g/m*3 10.41 C 6.4 km/h
2968 02-01-2014 12:20:00 10.9 C 8.26 g/m*3 9.08 C 14.5 km/h
2969 02-01-2014 12:25:00 10.9 C 8.26 g/m*3 10.04 C 8.1 km/h
2970 02-01-2014 12:30:00 11.2 C 8.21 g/m*3 11.2 C 12.9 km/h
2971 02-01-2014 12:35:00 11.2 C 8.31 g/m*3 11.2 C 9.7 km/h
2972 02-01-2014 12:40:00 11.2 C 8.31 g/m*3 11.2 C 4.8 km/h
2973 02-01-2014 12:45:00 11.2 C 8.21 g/m*3 11.2 C 14.5 km/h
2974 02-01-2014 12:50:00 11.2 C 8.21 g/m*3 11.2 C 14.5 km/h
2975 02-01-2014 12:55:00 11.1 C 8.16 g/m*3 11.1 C 17.7 km/h
Sensor: Nr:Datum:Temp:Abs-Feuchte:Windchill:Wind:
Aussen-T/F 2976 02-01-2014 13:00:00 11.1 C 8.06 g/m*3 11.1 C 20.9 km/h
2977 02-01-2014 13:05:00 11.1 C 8.16 g/m*3 11.1 C 20.9 km/h
2978 02-01-2014 13:10:00 11 C 8.01 g/m*3 9.63 C 11.3 km/h
2979 02-01-2014 13:15:00 11 C 8.01 g/m*3 9.4 C 12.9 km/h
2980 02-01-2014 13:20:00 10.9 C 7.96 g/m*3 9.28 C 12.9 km/h
2981 02-01-2014 13:25:00 10.9 C 7.96 g/m*3 8.9 C 16.1 km/h
2982 02-01-2014 13:30:00 10.8 C 7.81 g/m*3 8.96 C 14.5 km/h
2983 02-01-2014 13:35:00 10.8 C 7.91 g/m*3 9.16 C 12.9 km/h
2984 02-01-2014 13:40:00 10.8 C 7.91 g/m*3 9.16 C 12.9 km/h
2985 02-01-2014 13:45:00 10.8 C 7.91 g/m*3 8.96 C 14.5 km/h
2986 02-01-2014 13:50:00 10.7 C 7.86 g/m*3 8.84 C 14.5 km/h
2987 02-01-2014 13:55:00 10.8 C 7.81 g/m*3 8.3 C 20.9 km/h
2988 02-01-2014 14:00:00 10.7 C 7.76 g/m*3 9.04 C 12.9 km/h
2989 02-01-2014 14:05:00 10.7 C 7.86 g/m*3 9.81 C 8.1 km/h
2990 02-01-2014 14:10:00 10.7 C 7.76 g/m*3 8.65 C 16.1 km/h
2991 02-01-2014 14:15:00 10.8 C 7.81 g/m*3 8.61 C 17.7 km/h
2992 02-01-2014 14:20:00 10.7 C 7.76 g/m*3 8.84 C 14.5 km/h
2993 02-01-2014 14:25:00 10.7 C 7.76 g/m*3 8.65 C 16.1 km/h
2994 02-01-2014 14:30:00 10.6 C 7.71 g/m*3 8.36 C 17.7 km/h
2995 02-01-2014 14:35:00 10.6 C 7.81 g/m*3 8.71 C 14.5 km/h
2996 02-01-2014 14:40:00 10.6 C 7.81 g/m*3 8.36 C 17.7 km/h
2997 02-01-2014 14:45:00 10.4 C 7.9 g/m*3 7.95 C 19.3 km/h
2998 02-01-2014 14:50:00 10.1 C 8.04 g/m*3 8.54 C 11.3 km/h
2999 02-01-2014 14:55:00 9.9 C 8.03 g/m*3 8.56 C 9.7 km/h
3000 02-01-2014 15:00:00 9.8 C 8.07 g/m*3 8.45 C 9.7 km/h
Sensor: Nr:Datum:Temp:Abs-Feuchte:Windchill:Wind:
Aussen-T/F 3001 02-01-2014 15:05:00 9.7 C 7.93 g/m*3 9.02 C 6.4 km/h
3002 02-01-2014 15:10:00 9.6 C 7.97 g/m*3 8.21 C 9.7 km/h
3003 02-01-2014 15:15:00 9.5 C 7.92 g/m*3 8.79 C 6.4 km/h
3004 02-01-2014 15:20:00 9.4 C 7.78 g/m*3 8.28 C 8.1 km/h
3005 02-01-2014 15:25:00 9.3 C 7.73 g/m*3 9.3 C 4.8 km/h
3006 02-01-2014 15:30:00 9.2 C 7.77 g/m*3 8.45 C 6.4 km/h
3007 02-01-2014 15:35:00 9.1 C 7.72 g/m*3 7.93 C 8.1 km/h
3008 02-01-2014 15:40:00 8.9 C 7.53 g/m*3 7.69 C 8.1 km/h
3009 02-01-2014 15:45:00 8.9 C 7.45 g/m*3 7.69 C 8.1 km/h
3010 02-01-2014 15:50:00 9.1 C 7.54 g/m*3 6.87 C 14.5 km/h
3011 02-01-2014 15:55:00 9 C 7.49 g/m*3 7.81 C 8.1 km/h
3012 02-01-2014 16:00:00 8.9 C 7.45 g/m*3 6.85 C 12.9 km/h
3013 02-01-2014 16:05:00 8.9 C 7.36 g/m*3 7.69 C 8.1 km/h
3014 02-01-2014 16:10:00 9 C 7.41 g/m*3 7.81 C 8.1 km/h
3015 02-01-2014 16:15:00 8.9 C 7.36 g/m*3 7.69 C 8.1 km/h
3016 02-01-2014 16:20:00 8.8 C 7.31 g/m*3 7.58 C 8.1 km/h
3017 02-01-2014 16:25:00 8.8 C 7.31 g/m*3 6.97 C 11.3 km/h
3018 02-01-2014 16:30:00 8.8 C 7.31 g/m*3 6.97 C 11.3 km/h
3019 02-01-2014 16:35:00 8.7 C 7.26 g/m*3 6.17 C 16.1 km/h
3020 02-01-2014 16:40:00 8.6 C 7.3 g/m*3 6.73 C 11.3 km/h
3021 02-01-2014 16:45:00 8.7 C 7.26 g/m*3 7.87 C 6.4 km/h
3022 02-01-2014 16:50:00 8.3 C 7.25 g/m*3 8.3 C 4.8 km/h
3023 02-01-2014 16:55:00 8.1 C 7.16 g/m*3 8.1 C 4.8 km/h
3024 02-01-2014 17:00:00 8.1 C 7.16 g/m*3 8.1 C 3.2 km/h
3025 02-01-2014 17:05:00 7.8 C 7.02 g/m*3 7.8 C 3.2 km/h
Sensor: Nr:Datum:Temp:Abs-Feuchte:Windchill:Wind:
Aussen-T/F 3026 02-01-2014 17:10:00 7.7 C 6.97 g/m*3 7.7 C 3.2 km/h
3027 02-01-2014 17:15:00 7.7 C 6.97 g/m*3 7.7 C 4.8 km/h
3028 02-01-2014 17:35:00 7.7 C 7.14 g/m*3 6.71 C 6.4 km/h
3029 02-01-2014 17:40:00 7.7 C 7.14 g/m*3 7.7 C 3.2 km/h
3030 02-01-2014 17:45:00 7.7 C 7.14 g/m*3 6.28 C 8.1 km/h
3031 02-01-2014 17:50:00 7.6 C 7.09 g/m*3 7.6 C 4.8 km/h
3032 02-01-2014 17:55:00 7.4 C 7.08 g/m*3 7.4 C 3.2 km/h
3033 02-01-2014 18:00:00 7.3 C 7.11 g/m*3 7.3 C 3.2 km/h
3034 02-01-2014 18:05:00 7.2 C 7.06 g/m*3 7.2 C 3.2 km/h
3035 02-01-2014 18:10:00 6.9 C 7.01 g/m*3 6.9 C 3.2 km/h
3036 02-01-2014 18:15:00 6.8 C 6.96 g/m*3 6.8 C 3.2 km/h
3037 02-01-2014 18:20:00 6.7 C 6.99 g/m*3 6.7 C 3.2 km/h
3038 02-01-2014 18:25:00 6.6 C 6.95 g/m*3 6.6 C 3.2 km/h
3039 02-01-2014 18:30:00 6.6 C 6.95 g/m*3 6.6 C 3.2 km/h
3040 02-01-2014 18:35:00 6.7 C 6.99 g/m*3 6.7 C 3.2 km/h
3041 02-01-2014 18:40:00 6.7 C 6.99 g/m*3 6.7 C 1.6 km/h
3042 02-01-2014 18:45:00 6.7 C 7.07 g/m*3 6.7 C 1.6 km/h
3043 02-01-2014 18:50:00 6.8 C 7.11 g/m*3 6.8 C 1.6 km/h
3044 02-01-2014 18:55:00 6.8 C 7.11 g/m*3 6.8 C 3.2 km/h
3045 02-01-2014 19:00:00 7 C 7.21 g/m*3 7 C 3.2 km/h
3046 02-01-2014 19:05:00 7.2 C 7.3 g/m*3 7.2 C 1.6 km/h
3047 02-01-2014 19:10:00 7.2 C 7.3 g/m*3 7.2 C 3.2 km/h
3048 02-01-2014 19:15:00 7.3 C 7.35 g/m*3 7.3 C 1.6 km/h
3049 02-01-2014 19:20:00 7.2 C 7.3 g/m*3 7.2 C 3.2 km/h
3050 02-01-2014 19:25:00 7.1 C 7.25 g/m*3 7.1 C 3.2 km/h
Sensor: Nr:Datum:Temp:Abs-Feuchte:Windchill:Wind:
Aussen-T/F 3051 02-01-2014 19:30:00 6.9 C 7.16 g/m*3 6.9 C 1.6 km/h
3052 02-01-2014 19:35:00 6.7 C 7.07 g/m*3 6.7 C 3.2 km/h
3053 02-01-2014 19:40:00 6.5 C 6.97 g/m*3 6.5 C 3.2 km/h
3054 02-01-2014 19:45:00 6.3 C 6.96 g/m*3 6.3 C 4.8 km/h
3055 02-01-2014 19:50:00 6.2 C 6.91 g/m*3 6.2 C 4.8 km/h
3056 02-01-2014 19:55:00 6.1 C 6.87 g/m*3 6.1 C 4.8 km/h
3057 02-01-2014 20:00:00 6.1 C 6.94 g/m*3 6.1 C 3.2 km/h
3058 02-01-2014 20:05:00 6.1 C 6.87 g/m*3 6.1 C 3.2 km/h
3059 02-01-2014 20:10:00 6.2 C 6.99 g/m*3 6.2 C 3.2 km/h
3060 02-01-2014 20:15:00 6.2 C 6.99 g/m*3 6.2 C 3.2 km/h
3061 02-01-2014 20:20:00 6.4 C 7.08 g/m*3 6.4 C 1.6 km/h
3062 02-01-2014 20:25:00 6.5 C 7.12 g/m*3 6.5 C 3.2 km/h
3063 02-01-2014 20:30:00 6.6 C 7.17 g/m*3 6.6 C 1.6 km/h
3064 02-01-2014 20:35:00 6.6 C 7.17 g/m*3 6.6 C 3.2 km/h
3065 02-01-2014 20:40:00 6.5 C 7.05 g/m*3 6.5 C 3.2 km/h
3066 02-01-2014 20:45:00 6.3 C 6.96 g/m*3 6.3 C 3.2 km/h
3067 02-01-2014 20:50:00 6.2 C 6.91 g/m*3 6.2 C 3.2 km/h
3068 02-01-2014 20:55:00 6.1 C 6.87 g/m*3 6.1 C 3.2 km/h
3069 02-01-2014 21:00:00 6.1 C 6.87 g/m*3 6.1 C 3.2 km/h
3070 02-01-2014 21:05:00 6.2 C 6.99 g/m*3 6.2 C 3.2 km/h
3071 02-01-2014 21:10:00 6.3 C 7.03 g/m*3 6.3 C 1.6 km/h
3072 02-01-2014 21:15:00 6.3 C 7.03 g/m*3 6.3 C 3.2 km/h
3073 02-01-2014 21:20:00 6.2 C 6.91 g/m*3 6.2 C 1.6 km/h
3074 02-01-2014 21:25:00 6.2 C 6.91 g/m*3 6.2 C 3.2 km/h
3075 02-01-2014 21:30:00 6.1 C 6.87 g/m*3 6.1 C 3.2 km/h
Sensor: Nr:Datum:Temp:Abs-Feuchte:Windchill:Wind:
Aussen-T/F 3076 02-01-2014 21:35:00 6 C 6.82 g/m*3 6 C 1.6 km/h
3077 02-01-2014 21:40:00 5.9 C 6.78 g/m*3 5.9 C 3.2 km/h
3078 02-01-2014 21:45:00 5.8 C 6.73 g/m*3 5.8 C 3.2 km/h
3079 02-01-2014 21:50:00 5.8 C 6.81 g/m*3 5.8 C 1.6 km/h
3080 02-01-2014 21:55:00 5.9 C 6.85 g/m*3 5.9 C 3.2 km/h
3081 02-01-2014 22:00:00 5.9 C 6.85 g/m*3 5.9 C 3.2 km/h
3082 02-01-2014 22:05:00 5.9 C 6.85 g/m*3 5.9 C 3.2 km/h
3083 02-01-2014 22:10:00 6.1 C 6.94 g/m*3 6.1 C 3.2 km/h
3084 02-01-2014 22:15:00 6.2 C 6.99 g/m*3 6.2 C 3.2 km/h
3085 02-01-2014 22:20:00 6.1 C 6.94 g/m*3 6.1 C 1.6 km/h
3086 02-01-2014 22:25:00 5.9 C 6.78 g/m*3 5.9 C 3.2 km/h
3087 02-01-2014 22:30:00 5.8 C 6.73 g/m*3 5.8 C 3.2 km/h
3088 02-01-2014 22:35:00 5.8 C 6.81 g/m*3 5.8 C 1.6 km/h
3089 02-01-2014 22:40:00 5.8 C 6.73 g/m*3 5.8 C 0 km/h
3090 02-01-2014 22:45:00 5.6 C 6.65 g/m*3 5.6 C 1.6 km/h
3091 02-01-2014 22:50:00 5.6 C 6.72 g/m*3 5.6 C 0 km/h
3092 02-01-2014 22:55:00 5.5 C 6.67 g/m*3 5.5 C 1.6 km/h
3093 02-01-2014 23:00:00 5.4 C 6.63 g/m*3 5.4 C 0 km/h
3094 02-01-2014 23:05:00 5.3 C 6.52 g/m*3 5.3 C 0 km/h
3095 02-01-2014 23:10:00 5.2 C 6.54 g/m*3 5.2 C 0 km/h
3096 02-01-2014 23:15:00 5.1 C 6.43 g/m*3 5.1 C 1.6 km/h
3097 02-01-2014 23:20:00 5.1 C 6.5 g/m*3 5.1 C 0 km/h
3098 02-01-2014 23:25:00 5.1 C 6.5 g/m*3 5.1 C 0 km/h
3099 02-01-2014 23:30:00 5.1 C 6.5 g/m*3 5.1 C 0 km/h
3100 02-01-2014 23:35:00 4.9 C 6.41 g/m*3 4.9 C 0 km/h
Sensor: Nr:Datum:Temp:Abs-Feuchte:Windchill:Wind:
Aussen-T/F 3101 02-01-2014 23:40:00 4.8 C 6.37 g/m*3 4.8 C 0 km/h
3102 02-01-2014 23:45:00 4.6 C 6.29 g/m*3 4.6 C 0 km/h
3103 02-01-2014 23:50:00 4.5 C 6.24 g/m*3 4.5 C 0 km/h
3104 02-01-2014 23:55:00 4.4 C 6.2 g/m*3 4.4 C 0 km/h
3105 03-01-2014 00:00:00 4.4 C 6.2 g/m*3 4.4 C 0 km/h
3106 03-01-2014 00:05:00 4.3 C 6.16 g/m*3 4.3 C 0 km/h
3107 03-01-2014 00:10:00 4.2 C 6.19 g/m*3 4.2 C 0 km/h
3108 03-01-2014 00:15:00 4.2 C 6.19 g/m*3 4.2 C 0 km/h
3109 03-01-2014 00:20:00 4.1 C 6.14 g/m*3 4.1 C 0 km/h
3110 03-01-2014 00:25:00 4 C 6.1 g/m*3 4 C 0 km/h
3111 03-01-2014 00:30:00 4 C 6.1 g/m*3 4 C 1.6 km/h
3112 03-01-2014 00:35:00 3.9 C 6.06 g/m*3 3.9 C 1.6 km/h
3113 03-01-2014 00:40:00 3.9 C 6.06 g/m*3 3.9 C 0 km/h
3114 03-01-2014 00:45:00 3.8 C 6.02 g/m*3 3.8 C 0 km/h
3115 03-01-2014 00:50:00 3.7 C 5.98 g/m*3 3.7 C 0 km/h
3116 03-01-2014 00:55:00 3.8 C 6.02 g/m*3 3.8 C 0 km/h
3117 03-01-2014 01:00:00 3.7 C 5.98 g/m*3 3.7 C 0 km/h
3118 03-01-2014 01:05:00 3.7 C 5.98 g/m*3 3.7 C 0 km/h
3119 03-01-2014 01:10:00 3.7 C 5.98 g/m*3 3.7 C 0 km/h
3120 03-01-2014 01:15:00 3.7 C 5.98 g/m*3 3.7 C 1.6 km/h
3121 03-01-2014 01:20:00 3.7 C 5.98 g/m*3 3.7 C 0 km/h
3122 03-01-2014 01:25:00 3.7 C 5.98 g/m*3 3.7 C 0 km/h
3123 03-01-2014 01:30:00 3.8 C 6.09 g/m*3 3.8 C 0 km/h
3124 03-01-2014 01:35:00 3.9 C 6.13 g/m*3 3.9 C 0 km/h
3125 03-01-2014 01:40:00 3.9 C 6.13 g/m*3 3.9 C 0 km/h
Sensor: Nr:Datum:Temp:Abs-Feuchte:Windchill:Wind:
Aussen-T/F 3126 03-01-2014 01:45:00 3.9 C 6.13 g/m*3 3.9 C 0 km/h
3127 03-01-2014 01:50:00 3.9 C 6.13 g/m*3 3.9 C 0 km/h
3128 03-01-2014 01:55:00 4.1 C 6.21 g/m*3 4.1 C 1.6 km/h
3129 03-01-2014 02:00:00 4.2 C 6.25 g/m*3 4.2 C 3.2 km/h
3130 03-01-2014 02:05:00 4.5 C 6.38 g/m*3 4.5 C 3.2 km/h
3131 03-01-2014 02:10:00 4.4 C 6.33 g/m*3 4.4 C 3.2 km/h
3132 03-01-2014 02:15:00 4.4 C 6.33 g/m*3 4.4 C 0 km/h
3133 03-01-2014 02:20:00 4.3 C 6.29 g/m*3 4.3 C 3.2 km/h
3134 03-01-2014 02:25:00 4.3 C 6.29 g/m*3 4.3 C 1.6 km/h
3135 03-01-2014 02:30:00 4.2 C 6.25 g/m*3 4.2 C 0 km/h
3136 03-01-2014 02:35:00 4.2 C 6.25 g/m*3 4.2 C 1.6 km/h
3137 03-01-2014 02:40:00 4.4 C 6.33 g/m*3 4.4 C 1.6 km/h
3138 03-01-2014 02:45:00 4.5 C 6.38 g/m*3 4.5 C 1.6 km/h
3139 03-01-2014 02:50:00 4.6 C 6.42 g/m*3 4.6 C 1.6 km/h
3140 03-01-2014 02:55:00 4.7 C 6.46 g/m*3 4.7 C 0 km/h
3141 03-01-2014 03:00:00 4.8 C 6.5 g/m*3 4.8 C 3.2 km/h
3142 03-01-2014 03:05:00 4.9 C 6.55 g/m*3 4.9 C 3.2 km/h
3143 03-01-2014 03:10:00 4.7 C 6.46 g/m*3 4.7 C 0 km/h
3144 03-01-2014 03:15:00 4.6 C 6.42 g/m*3 4.6 C 1.6 km/h
3145 03-01-2014 03:20:00 4.5 C 6.38 g/m*3 4.5 C 1.6 km/h
3146 03-01-2014 03:25:00 4.5 C 6.38 g/m*3 4.5 C 1.6 km/h
3147 03-01-2014 03:30:00 4.8 C 6.5 g/m*3 4.8 C 3.2 km/h
3148 03-01-2014 03:35:00 5.1 C 6.7 g/m*3 5.1 C 3.2 km/h
3149 03-01-2014 03:40:00 5.4 C 6.84 g/m*3 5.4 C 3.2 km/h
3150 03-01-2014 03:45:00 5.6 C 6.93 g/m*3 5.6 C 1.6 km/h
Sensor: Nr:Datum:Temp:Abs-Feuchte:Windchill:Wind:
Aussen-T/F 3151 03-01-2014 03:50:00 5.7 C 6.97 g/m*3 5.7 C 1.6 km/h
3152 03-01-2014 03:55:00 5.8 C 6.95 g/m*3 5.8 C 3.2 km/h
3153 03-01-2014 04:00:00 5.9 C 6.99 g/m*3 5.9 C 4.8 km/h
3154 03-01-2014 04:05:00 5.9 C 6.99 g/m*3 5.9 C 3.2 km/h
3155 03-01-2014 04:10:00 5.9 C 6.99 g/m*3 5.9 C 0 km/h
3156 03-01-2014 04:15:00 6 C 7.04 g/m*3 6 C 3.2 km/h
3157 03-01-2014 04:20:00 6.1 C 7.09 g/m*3 6.1 C 1.6 km/h
3158 03-01-2014 04:25:00 6.1 C 7.01 g/m*3 6.1 C 3.2 km/h
3159 03-01-2014 04:30:00 6.1 C 7.01 g/m*3 6.1 C 0 km/h
3160 03-01-2014 04:35:00 6.1 C 7.01 g/m*3 4.86 C 6.4 km/h
3161 03-01-2014 04:40:00 6.2 C 7.06 g/m*3 6.2 C 4.8 km/h
3162 03-01-2014 04:45:00 6.2 C 6.99 g/m*3 6.2 C 4.8 km/h
3163 03-01-2014 04:50:00 6.2 C 6.99 g/m*3 6.2 C 4.8 km/h
3164 03-01-2014 04:55:00 6.3 C 7.03 g/m*3 6.3 C 4.8 km/h
3165 03-01-2014 05:00:00 6.3 C 7.03 g/m*3 4.64 C 8.1 km/h
3166 03-01-2014 05:05:00 6.4 C 7 g/m*3 4.75 C 8.1 km/h
3167 03-01-2014 05:10:00 6.2 C 6.84 g/m*3 6.2 C 1.6 km/h
3168 03-01-2014 05:15:00 6.2 C 6.91 g/m*3 6.2 C 3.2 km/h
3169 03-01-2014 05:20:00 6.2 C 6.91 g/m*3 6.2 C 1.6 km/h
3170 03-01-2014 05:25:00 6.1 C 6.79 g/m*3 6.1 C 0 km/h
3171 03-01-2014 05:30:00 5.9 C 6.71 g/m*3 5.9 C 3.2 km/h
3172 03-01-2014 05:35:00 5.7 C 6.69 g/m*3 5.7 C 3.2 km/h
3173 03-01-2014 05:40:00 5.6 C 6.65 g/m*3 5.6 C 3.2 km/h
3174 03-01-2014 05:45:00 5.5 C 6.67 g/m*3 5.5 C 3.2 km/h
3175 03-01-2014 05:50:00 5.5 C 6.67 g/m*3 5.5 C 3.2 km/h
Sensor: Nr:Datum:Temp:Abs-Feuchte:Windchill:Wind:
Aussen-T/F 3176 03-01-2014 05:55:00 5.5 C 6.67 g/m*3 5.5 C 3.2 km/h
3177 03-01-2014 06:00:00 5.6 C 6.79 g/m*3 5.6 C 4.8 km/h
3178 03-01-2014 06:05:00 5.8 C 6.88 g/m*3 5.8 C 4.8 km/h
3179 03-01-2014 06:10:00 5.8 C 6.88 g/m*3 5.8 C 3.2 km/h
3180 03-01-2014 06:15:00 5.7 C 6.76 g/m*3 5.7 C 0 km/h
3181 03-01-2014 06:20:00 5.8 C 6.88 g/m*3 5.8 C 4.8 km/h
3182 03-01-2014 06:25:00 5.8 C 6.88 g/m*3 5.8 C 3.2 km/h
3183 03-01-2014 06:30:00 5.8 C 6.81 g/m*3 5.8 C 3.2 km/h
3184 03-01-2014 06:35:00 5.7 C 6.76 g/m*3 5.7 C 3.2 km/h
3185 03-01-2014 06:40:00 5.6 C 6.72 g/m*3 5.6 C 3.2 km/h
3186 03-01-2014 06:45:00 5.6 C 6.72 g/m*3 5.6 C 4.8 km/h
3187 03-01-2014 06:50:00 5.7 C 6.83 g/m*3 5.7 C 3.2 km/h
3188 03-01-2014 06:55:00 5.7 C 6.83 g/m*3 5.7 C 1.6 km/h
3189 03-01-2014 07:00:00 5.8 C 6.88 g/m*3 5.8 C 0 km/h
3190 03-01-2014 07:05:00 6 C 6.97 g/m*3 6 C 4.8 km/h
3191 03-01-2014 07:10:00 6.1 C 7.01 g/m*3 6.1 C 3.2 km/h
3192 03-01-2014 07:15:00 6 C 6.97 g/m*3 6 C 3.2 km/h
3193 03-01-2014 07:20:00 5.9 C 6.85 g/m*3 5.9 C 3.2 km/h
3194 03-01-2014 07:25:00 6 C 6.97 g/m*3 6 C 3.2 km/h
3195 03-01-2014 07:30:00 6.1 C 6.94 g/m*3 6.1 C 3.2 km/h
3196 03-01-2014 07:35:00 5.9 C 6.85 g/m*3 5.9 C 1.6 km/h
3197 03-01-2014 07:40:00 5.8 C 6.81 g/m*3 5.8 C 1.6 km/h
3198 03-01-2014 07:45:00 5.8 C 6.81 g/m*3 5.8 C 3.2 km/h
3199 03-01-2014 07:50:00 5.8 C 6.88 g/m*3 5.8 C 3.2 km/h
3200 03-01-2014 07:55:00 5.8 C 6.88 g/m*3 5.8 C 3.2 km/h
Sensor: Nr:Datum:Temp:Abs-Feuchte:Windchill:Wind:
Aussen-T/F 3201 03-01-2014 08:00:00 5.9 C 6.92 g/m*3 5.9 C 4.8 km/h
3202 03-01-2014 08:05:00 5.9 C 6.92 g/m*3 5.9 C 1.6 km/h
3203 03-01-2014 08:10:00 5.9 C 6.92 g/m*3 5.9 C 0 km/h
3204 03-01-2014 08:15:00 5.9 C 6.92 g/m*3 5.9 C 3.2 km/h
3205 03-01-2014 08:20:00 6 C 6.97 g/m*3 6 C 0 km/h
3206 03-01-2014 08:25:00 6.1 C 7.01 g/m*3 6.1 C 0 km/h
3207 03-01-2014 08:30:00 6.2 C 7.06 g/m*3 6.2 C 0 km/h
3208 03-01-2014 08:35:00 6.3 C 7.11 g/m*3 6.3 C 0 km/h
3209 03-01-2014 08:40:00 6.3 C 7.11 g/m*3 6.3 C 0 km/h
3210 03-01-2014 08:45:00 6.4 C 7.15 g/m*3 6.4 C 0 km/h
3211 03-01-2014 08:50:00 6.6 C 7.25 g/m*3 6.6 C 3.2 km/h
3212 03-01-2014 08:55:00 6.6 C 7.25 g/m*3 6.6 C 1.6 km/h
3213 03-01-2014 09:00:00 6.6 C 7.17 g/m*3 6.6 C 3.2 km/h
3214 03-01-2014 09:05:00 6.7 C 7.22 g/m*3 6.7 C 3.2 km/h
3215 03-01-2014 09:10:00 6.7 C 7.22 g/m*3 6.7 C 3.2 km/h
3216 03-01-2014 09:15:00 6.7 C 7.22 g/m*3 6.7 C 3.2 km/h
3217 03-01-2014 09:20:00 6.8 C 7.27 g/m*3 6.8 C 3.2 km/h
3218 03-01-2014 09:25:00 7 C 7.28 g/m*3 5.9 C 6.4 km/h
3219 03-01-2014 09:30:00 7.3 C 7.35 g/m*3 5.81 C 8.1 km/h
3220 03-01-2014 09:35:00 7.4 C 7.4 g/m*3 7.4 C 4.8 km/h
3221 03-01-2014 09:40:00 7.7 C 7.38 g/m*3 7.7 C 4.8 km/h
3222 03-01-2014 09:45:00 8 C 7.44 g/m*3 7.06 C 6.4 km/h
3223 03-01-2014 09:50:00 8.3 C 7.59 g/m*3 7.41 C 6.4 km/h
3224 03-01-2014 09:55:00 8.6 C 7.56 g/m*3 7.75 C 6.4 km/h
3225 03-01-2014 10:00:00 8.9 C 7.62 g/m*3 7.09 C 11.3 km/h
Sensor: Nr:Datum:Temp:Abs-Feuchte:Windchill:Wind: